<?xml version="1.0" encoding="UTF-8" standalone="no" ?>
<gpx xmlns="http://www.topografix.com/GPX/1/1" xmlns:xsi="http://www.w3.org/2001/XMLSchema-instance" xsi:schemaLocation="http://www.topografix.com/GPX/1/1 http://www.topografix.com/GPX/1/1/gpx.xsd" version="1.1" creator="VisuGPX - https://www.visugpx.com">
  <metadata>
    <name>Rando Pédestre - Serremijeanne</name>
    <desc><![CDATA[Avec Zaza. Belle balade sauvage.]]></desc>
  </metadata>
  <trk>
    <name><![CDATA[02-JUIN-14 15:52:24]]></name>
    <trkseg>
      <trkpt lat="43.38616" lon="2.48384">
        <ele>453.4</ele>
        <time>2014-06-02T08:47:20Z</time>
      </trkpt>
      <trkpt lat="43.38613" lon="2.48381">
        <ele>450.03</ele>
        <time>2014-06-02T08:47:53Z</time>
      </trkpt>
      <trkpt lat="43.38615" lon="2.48385">
        <ele>452.92</ele>
        <time>2014-06-02T08:48:23Z</time>
      </trkpt>
      <trkpt lat="43.38617" lon="2.48382">
        <ele>451.96</ele>
        <time>2014-06-02T08:48:47Z</time>
      </trkpt>
      <trkpt lat="43.38617" lon="2.48383">
        <ele>450.03</ele>
        <time>2014-06-02T08:49:05Z</time>
      </trkpt>
      <trkpt lat="43.38613" lon="2.48381">
        <ele>446.67</ele>
        <time>2014-06-02T08:49:33Z</time>
      </trkpt>
      <trkpt lat="43.38612" lon="2.48384">
        <ele>443.79</ele>
        <time>2014-06-02T08:50:08Z</time>
      </trkpt>
      <trkpt lat="43.3861" lon="2.48384">
        <ele>442.82</ele>
        <time>2014-06-02T08:50:44Z</time>
      </trkpt>
      <trkpt lat="43.38611" lon="2.48387">
        <ele>446.19</ele>
        <time>2014-06-02T08:51:14Z</time>
      </trkpt>
      <trkpt lat="43.38613" lon="2.48383">
        <ele>449.55</ele>
        <time>2014-06-02T08:51:47Z</time>
      </trkpt>
      <trkpt lat="43.38613" lon="2.48381">
        <ele>447.63</ele>
        <time>2014-06-02T08:52:05Z</time>
      </trkpt>
      <trkpt lat="43.38614" lon="2.48381">
        <ele>454.84</ele>
        <time>2014-06-02T08:52:15Z</time>
      </trkpt>
      <trkpt lat="43.38615" lon="2.48387">
        <ele>454.84</ele>
        <time>2014-06-02T08:52:29Z</time>
      </trkpt>
      <trkpt lat="43.38616" lon="2.48382">
        <ele>455.32</ele>
        <time>2014-06-02T08:52:41Z</time>
      </trkpt>
      <trkpt lat="43.38617" lon="2.48381">
        <ele>456.28</ele>
        <time>2014-06-02T08:52:53Z</time>
      </trkpt>
      <trkpt lat="43.38614" lon="2.48381">
        <ele>457.72</ele>
        <time>2014-06-02T08:53:08Z</time>
      </trkpt>
      <trkpt lat="43.38616" lon="2.48379">
        <ele>458.21</ele>
        <time>2014-06-02T08:53:16Z</time>
      </trkpt>
      <trkpt lat="43.38614" lon="2.48372">
        <ele>457.24</ele>
        <time>2014-06-02T08:53:24Z</time>
      </trkpt>
      <trkpt lat="43.38603" lon="2.4836">
        <ele>454.84</ele>
        <time>2014-06-02T08:53:36Z</time>
      </trkpt>
      <trkpt lat="43.38595" lon="2.48343">
        <ele>454.36</ele>
        <time>2014-06-02T08:53:51Z</time>
      </trkpt>
      <trkpt lat="43.38592" lon="2.48332">
        <ele>456.76</ele>
        <time>2014-06-02T08:54:03Z</time>
      </trkpt>
      <trkpt lat="43.38579" lon="2.48317">
        <ele>455.8</ele>
        <time>2014-06-02T08:54:18Z</time>
      </trkpt>
      <trkpt lat="43.3857" lon="2.48304">
        <ele>453.4</ele>
        <time>2014-06-02T08:54:30Z</time>
      </trkpt>
      <trkpt lat="43.38565" lon="2.4829">
        <ele>450.52</ele>
        <time>2014-06-02T08:54:44Z</time>
      </trkpt>
      <trkpt lat="43.38541" lon="2.48271">
        <ele>453.4</ele>
        <time>2014-06-02T08:54:56Z</time>
      </trkpt>
      <trkpt lat="43.38532" lon="2.48254">
        <ele>455.8</ele>
        <time>2014-06-02T08:55:08Z</time>
      </trkpt>
      <trkpt lat="43.38522" lon="2.48237">
        <ele>454.84</ele>
        <time>2014-06-02T08:55:21Z</time>
      </trkpt>
      <trkpt lat="43.38507" lon="2.48223">
        <ele>451.96</ele>
        <time>2014-06-02T08:55:34Z</time>
      </trkpt>
      <trkpt lat="43.3849" lon="2.48212">
        <ele>451.48</ele>
        <time>2014-06-02T08:55:49Z</time>
      </trkpt>
      <trkpt lat="43.38487" lon="2.48211">
        <ele>451.48</ele>
        <time>2014-06-02T08:55:52Z</time>
      </trkpt>
      <trkpt lat="43.38475" lon="2.48204">
        <ele>456.76</ele>
        <time>2014-06-02T08:56:06Z</time>
      </trkpt>
      <trkpt lat="43.38461" lon="2.48196">
        <ele>460.13</ele>
        <time>2014-06-02T08:56:20Z</time>
      </trkpt>
      <trkpt lat="43.38452" lon="2.48193">
        <ele>462.05</ele>
        <time>2014-06-02T08:56:32Z</time>
      </trkpt>
      <trkpt lat="43.38456" lon="2.48204">
        <ele>465.42</ele>
        <time>2014-06-02T08:56:46Z</time>
      </trkpt>
      <trkpt lat="43.38463" lon="2.48217">
        <ele>467.82</ele>
        <time>2014-06-02T08:57:00Z</time>
      </trkpt>
      <trkpt lat="43.38472" lon="2.48233">
        <ele>469.74</ele>
        <time>2014-06-02T08:57:14Z</time>
      </trkpt>
      <trkpt lat="43.38479" lon="2.48248">
        <ele>472.14</ele>
        <time>2014-06-02T08:57:28Z</time>
      </trkpt>
      <trkpt lat="43.38486" lon="2.48258">
        <ele>474.55</ele>
        <time>2014-06-02T08:57:39Z</time>
      </trkpt>
      <trkpt lat="43.38495" lon="2.48272">
        <ele>474.55</ele>
        <time>2014-06-02T08:57:52Z</time>
      </trkpt>
      <trkpt lat="43.38504" lon="2.48289">
        <ele>476.47</ele>
        <time>2014-06-02T08:58:06Z</time>
      </trkpt>
      <trkpt lat="43.38506" lon="2.48292">
        <ele>475.99</ele>
        <time>2014-06-02T08:58:17Z</time>
      </trkpt>
      <trkpt lat="43.38508" lon="2.48291">
        <ele>475.51</ele>
        <time>2014-06-02T08:58:37Z</time>
      </trkpt>
      <trkpt lat="43.38504" lon="2.4829">
        <ele>475.99</ele>
        <time>2014-06-02T08:58:58Z</time>
      </trkpt>
      <trkpt lat="43.38506" lon="2.4829">
        <ele>476.95</ele>
        <time>2014-06-02T08:59:11Z</time>
      </trkpt>
      <trkpt lat="43.3851" lon="2.483">
        <ele>477.91</ele>
        <time>2014-06-02T08:59:21Z</time>
      </trkpt>
      <trkpt lat="43.38513" lon="2.48305">
        <ele>478.39</ele>
        <time>2014-06-02T08:59:27Z</time>
      </trkpt>
      <trkpt lat="43.38518" lon="2.4832">
        <ele>480.8</ele>
        <time>2014-06-02T08:59:40Z</time>
      </trkpt>
      <trkpt lat="43.38525" lon="2.48333">
        <ele>483.68</ele>
        <time>2014-06-02T08:59:52Z</time>
      </trkpt>
      <trkpt lat="43.38527" lon="2.48337">
        <ele>484.16</ele>
        <time>2014-06-02T08:59:56Z</time>
      </trkpt>
      <trkpt lat="43.38537" lon="2.48353">
        <ele>486.56</ele>
        <time>2014-06-02T09:00:12Z</time>
      </trkpt>
      <trkpt lat="43.3854" lon="2.48359">
        <ele>487.05</ele>
        <time>2014-06-02T09:00:18Z</time>
      </trkpt>
      <trkpt lat="43.38541" lon="2.48361">
        <ele>487.05</ele>
        <time>2014-06-02T09:00:20Z</time>
      </trkpt>
      <trkpt lat="43.38543" lon="2.48363">
        <ele>487.53</ele>
        <time>2014-06-02T09:00:22Z</time>
      </trkpt>
      <trkpt lat="43.38548" lon="2.48381">
        <ele>488.01</ele>
        <time>2014-06-02T09:00:36Z</time>
      </trkpt>
      <trkpt lat="43.38544" lon="2.48401">
        <ele>487.53</ele>
        <time>2014-06-02T09:00:50Z</time>
      </trkpt>
      <trkpt lat="43.38543" lon="2.48423">
        <ele>488.01</ele>
        <time>2014-06-02T09:01:05Z</time>
      </trkpt>
      <trkpt lat="43.38544" lon="2.48443">
        <ele>491.37</ele>
        <time>2014-06-02T09:01:19Z</time>
      </trkpt>
      <trkpt lat="43.38544" lon="2.48448">
        <ele>491.37</ele>
        <time>2014-06-02T09:01:22Z</time>
      </trkpt>
      <trkpt lat="43.38545" lon="2.48464">
        <ele>494.26</ele>
        <time>2014-06-02T09:01:35Z</time>
      </trkpt>
      <trkpt lat="43.38547" lon="2.4848">
        <ele>497.14</ele>
        <time>2014-06-02T09:01:47Z</time>
      </trkpt>
      <trkpt lat="43.38549" lon="2.48494">
        <ele>499.54</ele>
        <time>2014-06-02T09:01:58Z</time>
      </trkpt>
      <trkpt lat="43.38552" lon="2.48511">
        <ele>501.95</ele>
        <time>2014-06-02T09:02:11Z</time>
      </trkpt>
      <trkpt lat="43.38554" lon="2.48531">
        <ele>503.39</ele>
        <time>2014-06-02T09:02:24Z</time>
      </trkpt>
      <trkpt lat="43.38557" lon="2.48547">
        <ele>504.35</ele>
        <time>2014-06-02T09:02:36Z</time>
      </trkpt>
      <trkpt lat="43.38556" lon="2.48567">
        <ele>505.31</ele>
        <time>2014-06-02T09:02:50Z</time>
      </trkpt>
      <trkpt lat="43.38558" lon="2.48583">
        <ele>509.64</ele>
        <time>2014-06-02T09:03:05Z</time>
      </trkpt>
      <trkpt lat="43.38557" lon="2.48587">
        <ele>511.08</ele>
        <time>2014-06-02T09:03:19Z</time>
      </trkpt>
      <trkpt lat="43.38555" lon="2.4859">
        <ele>509.64</ele>
        <time>2014-06-02T09:03:39Z</time>
      </trkpt>
      <trkpt lat="43.38554" lon="2.48591">
        <ele>504.83</ele>
        <time>2014-06-02T09:04:06Z</time>
      </trkpt>
      <trkpt lat="43.38554" lon="2.4859">
        <ele>505.79</ele>
        <time>2014-06-02T09:04:23Z</time>
      </trkpt>
      <trkpt lat="43.3855" lon="2.48591">
        <ele>504.83</ele>
        <time>2014-06-02T09:04:49Z</time>
      </trkpt>
      <trkpt lat="43.38554" lon="2.48589">
        <ele>507.71</ele>
        <time>2014-06-02T09:05:11Z</time>
      </trkpt>
      <trkpt lat="43.38555" lon="2.4859">
        <ele>507.71</ele>
        <time>2014-06-02T09:05:12Z</time>
      </trkpt>
      <trkpt lat="43.38555" lon="2.48605">
        <ele>511.56</ele>
        <time>2014-06-02T09:05:26Z</time>
      </trkpt>
      <trkpt lat="43.38554" lon="2.48608">
        <ele>512.04</ele>
        <time>2014-06-02T09:05:29Z</time>
      </trkpt>
      <trkpt lat="43.38559" lon="2.48627">
        <ele>514.92</ele>
        <time>2014-06-02T09:05:43Z</time>
      </trkpt>
      <trkpt lat="43.38563" lon="2.48645">
        <ele>518.29</ele>
        <time>2014-06-02T09:05:56Z</time>
      </trkpt>
      <trkpt lat="43.38564" lon="2.48665">
        <ele>517.81</ele>
        <time>2014-06-02T09:06:09Z</time>
      </trkpt>
      <trkpt lat="43.38568" lon="2.48679">
        <ele>521.17</ele>
        <time>2014-06-02T09:06:23Z</time>
      </trkpt>
      <trkpt lat="43.38573" lon="2.48693">
        <ele>522.13</ele>
        <time>2014-06-02T09:06:36Z</time>
      </trkpt>
      <trkpt lat="43.38576" lon="2.4871">
        <ele>523.58</ele>
        <time>2014-06-02T09:06:49Z</time>
      </trkpt>
      <trkpt lat="43.3858" lon="2.48727">
        <ele>524.06</ele>
        <time>2014-06-02T09:07:01Z</time>
      </trkpt>
      <trkpt lat="43.38582" lon="2.48736">
        <ele>522.61</ele>
        <time>2014-06-02T09:07:15Z</time>
      </trkpt>
      <trkpt lat="43.38586" lon="2.4875">
        <ele>523.58</ele>
        <time>2014-06-02T09:07:26Z</time>
      </trkpt>
      <trkpt lat="43.3859" lon="2.48766">
        <ele>525.02</ele>
        <time>2014-06-02T09:07:38Z</time>
      </trkpt>
      <trkpt lat="43.38594" lon="2.48781">
        <ele>527.9</ele>
        <time>2014-06-02T09:07:50Z</time>
      </trkpt>
      <trkpt lat="43.38596" lon="2.48794">
        <ele>529.34</ele>
        <time>2014-06-02T09:08:02Z</time>
      </trkpt>
      <trkpt lat="43.38599" lon="2.48806">
        <ele>530.79</ele>
        <time>2014-06-02T09:08:13Z</time>
      </trkpt>
      <trkpt lat="43.386" lon="2.4881">
        <ele>531.75</ele>
        <time>2014-06-02T09:08:17Z</time>
      </trkpt>
      <trkpt lat="43.38605" lon="2.48827">
        <ele>532.71</ele>
        <time>2014-06-02T09:08:31Z</time>
      </trkpt>
      <trkpt lat="43.38609" lon="2.48834">
        <ele>533.67</ele>
        <time>2014-06-02T09:08:37Z</time>
      </trkpt>
      <trkpt lat="43.3861" lon="2.48838">
        <ele>534.15</ele>
        <time>2014-06-02T09:08:40Z</time>
      </trkpt>
      <trkpt lat="43.38613" lon="2.48849">
        <ele>536.07</ele>
        <time>2014-06-02T09:08:50Z</time>
      </trkpt>
      <trkpt lat="43.3862" lon="2.48865">
        <ele>537.99</ele>
        <time>2014-06-02T09:09:05Z</time>
      </trkpt>
      <trkpt lat="43.38624" lon="2.48871">
        <ele>542.8</ele>
        <time>2014-06-02T09:09:17Z</time>
      </trkpt>
      <trkpt lat="43.38623" lon="2.48872">
        <ele>541.84</ele>
        <time>2014-06-02T09:09:39Z</time>
      </trkpt>
      <trkpt lat="43.38622" lon="2.4887">
        <ele>542.8</ele>
        <time>2014-06-02T09:09:54Z</time>
      </trkpt>
      <trkpt lat="43.38624" lon="2.48873">
        <ele>539.92</ele>
        <time>2014-06-02T09:10:20Z</time>
      </trkpt>
      <trkpt lat="43.38623" lon="2.48869">
        <ele>542.32</ele>
        <time>2014-06-02T09:10:38Z</time>
      </trkpt>
      <trkpt lat="43.38625" lon="2.48872">
        <ele>542.32</ele>
        <time>2014-06-02T09:10:47Z</time>
      </trkpt>
      <trkpt lat="43.38631" lon="2.48884">
        <ele>548.57</ele>
        <time>2014-06-02T09:11:02Z</time>
      </trkpt>
      <trkpt lat="43.38635" lon="2.48901">
        <ele>551.93</ele>
        <time>2014-06-02T09:11:15Z</time>
      </trkpt>
      <trkpt lat="43.38634" lon="2.48905">
        <ele>552.41</ele>
        <time>2014-06-02T09:11:18Z</time>
      </trkpt>
      <trkpt lat="43.38634" lon="2.48927">
        <ele>555.3</ele>
        <time>2014-06-02T09:11:33Z</time>
      </trkpt>
      <trkpt lat="43.38634" lon="2.48944">
        <ele>556.26</ele>
        <time>2014-06-02T09:11:45Z</time>
      </trkpt>
      <trkpt lat="43.38631" lon="2.48957">
        <ele>556.26</ele>
        <time>2014-06-02T09:11:54Z</time>
      </trkpt>
      <trkpt lat="43.38625" lon="2.48971">
        <ele>559.62</ele>
        <time>2014-06-02T09:12:06Z</time>
      </trkpt>
      <trkpt lat="43.38625" lon="2.48972">
        <ele>560.11</ele>
        <time>2014-06-02T09:12:07Z</time>
      </trkpt>
      <trkpt lat="43.38621" lon="2.48987">
        <ele>561.55</ele>
        <time>2014-06-02T09:12:20Z</time>
      </trkpt>
      <trkpt lat="43.3862" lon="2.48994">
        <ele>562.03</ele>
        <time>2014-06-02T09:12:26Z</time>
      </trkpt>
      <trkpt lat="43.38613" lon="2.49004">
        <ele>562.51</ele>
        <time>2014-06-02T09:12:36Z</time>
      </trkpt>
      <trkpt lat="43.38613" lon="2.49008">
        <ele>562.99</ele>
        <time>2014-06-02T09:12:39Z</time>
      </trkpt>
      <trkpt lat="43.3861" lon="2.49023">
        <ele>566.35</ele>
        <time>2014-06-02T09:12:52Z</time>
      </trkpt>
      <trkpt lat="43.3861" lon="2.49027">
        <ele>566.83</ele>
        <time>2014-06-02T09:12:55Z</time>
      </trkpt>
      <trkpt lat="43.38606" lon="2.49034">
        <ele>567.8</ele>
        <time>2014-06-02T09:13:02Z</time>
      </trkpt>
      <trkpt lat="43.38606" lon="2.49042">
        <ele>569.72</ele>
        <time>2014-06-02T09:13:15Z</time>
      </trkpt>
      <trkpt lat="43.38611" lon="2.49045">
        <ele>575.01</ele>
        <time>2014-06-02T09:13:31Z</time>
      </trkpt>
      <trkpt lat="43.38611" lon="2.4905">
        <ele>571.16</ele>
        <time>2014-06-02T09:13:53Z</time>
      </trkpt>
      <trkpt lat="43.38611" lon="2.4905">
        <ele>571.64</ele>
        <time>2014-06-02T09:14:06Z</time>
      </trkpt>
      <trkpt lat="43.38621" lon="2.49046">
        <ele>578.85</ele>
        <time>2014-06-02T09:14:19Z</time>
      </trkpt>
      <trkpt lat="43.38633" lon="2.49046">
        <ele>591.83</ele>
        <time>2014-06-02T09:14:34Z</time>
      </trkpt>
      <trkpt lat="43.3864" lon="2.49041">
        <ele>599.52</ele>
        <time>2014-06-02T09:14:46Z</time>
      </trkpt>
      <trkpt lat="43.38648" lon="2.49043">
        <ele>601.92</ele>
        <time>2014-06-02T09:15:01Z</time>
      </trkpt>
      <trkpt lat="43.38655" lon="2.49041">
        <ele>612.02</ele>
        <time>2014-06-02T09:15:13Z</time>
      </trkpt>
      <trkpt lat="43.38667" lon="2.49041">
        <ele>618.75</ele>
        <time>2014-06-02T09:15:25Z</time>
      </trkpt>
      <trkpt lat="43.38676" lon="2.49042">
        <ele>625.47</ele>
        <time>2014-06-02T09:15:36Z</time>
      </trkpt>
      <trkpt lat="43.38693" lon="2.49055">
        <ele>599.04</ele>
        <time>2014-06-02T09:15:50Z</time>
      </trkpt>
      <trkpt lat="43.38697" lon="2.49067">
        <ele>590.39</ele>
        <time>2014-06-02T09:16:10Z</time>
      </trkpt>
      <trkpt lat="43.38698" lon="2.49067">
        <ele>585.1</ele>
        <time>2014-06-02T09:16:25Z</time>
      </trkpt>
      <trkpt lat="43.38698" lon="2.49068">
        <ele>586.06</ele>
        <time>2014-06-02T09:16:38Z</time>
      </trkpt>
      <trkpt lat="43.38706" lon="2.4907">
        <ele>590.39</ele>
        <time>2014-06-02T09:16:52Z</time>
      </trkpt>
      <trkpt lat="43.38715" lon="2.49075">
        <ele>595.67</ele>
        <time>2014-06-02T09:17:04Z</time>
      </trkpt>
      <trkpt lat="43.38725" lon="2.49076">
        <ele>605.29</ele>
        <time>2014-06-02T09:17:17Z</time>
      </trkpt>
      <trkpt lat="43.38726" lon="2.49076">
        <ele>616.82</ele>
        <time>2014-06-02T09:17:30Z</time>
      </trkpt>
      <trkpt lat="43.38725" lon="2.49072">
        <ele>624.51</ele>
        <time>2014-06-02T09:17:49Z</time>
      </trkpt>
      <trkpt lat="43.3874" lon="2.49084">
        <ele>593.75</ele>
        <time>2014-06-02T09:18:08Z</time>
      </trkpt>
      <trkpt lat="43.38742" lon="2.49093">
        <ele>593.27</ele>
        <time>2014-06-02T09:18:22Z</time>
      </trkpt>
      <trkpt lat="43.38743" lon="2.49099">
        <ele>589.91</ele>
        <time>2014-06-02T09:18:47Z</time>
      </trkpt>
      <trkpt lat="43.38746" lon="2.49102">
        <ele>587.98</ele>
        <time>2014-06-02T09:19:10Z</time>
      </trkpt>
      <trkpt lat="43.38744" lon="2.49101">
        <ele>585.58</ele>
        <time>2014-06-02T09:19:27Z</time>
      </trkpt>
      <trkpt lat="43.38747" lon="2.49098">
        <ele>587.02</ele>
        <time>2014-06-02T09:19:49Z</time>
      </trkpt>
      <trkpt lat="43.38749" lon="2.49098">
        <ele>586.06</ele>
        <time>2014-06-02T09:20:12Z</time>
      </trkpt>
      <trkpt lat="43.38749" lon="2.491">
        <ele>584.62</ele>
        <time>2014-06-02T09:20:30Z</time>
      </trkpt>
      <trkpt lat="43.38751" lon="2.491">
        <ele>586.06</ele>
        <time>2014-06-02T09:20:46Z</time>
      </trkpt>
      <trkpt lat="43.38749" lon="2.49099">
        <ele>583.66</ele>
        <time>2014-06-02T09:21:04Z</time>
      </trkpt>
      <trkpt lat="43.38751" lon="2.49093">
        <ele>585.1</ele>
        <time>2014-06-02T09:21:25Z</time>
      </trkpt>
      <trkpt lat="43.38751" lon="2.49095">
        <ele>585.58</ele>
        <time>2014-06-02T09:21:38Z</time>
      </trkpt>
      <trkpt lat="43.38752" lon="2.49101">
        <ele>587.98</ele>
        <time>2014-06-02T09:21:59Z</time>
      </trkpt>
      <trkpt lat="43.3875" lon="2.49093">
        <ele>592.31</ele>
        <time>2014-06-02T09:22:18Z</time>
      </trkpt>
      <trkpt lat="43.38735" lon="2.49081">
        <ele>597.12</ele>
        <time>2014-06-02T09:22:38Z</time>
      </trkpt>
      <trkpt lat="43.38744" lon="2.49095">
        <ele>600.48</ele>
        <time>2014-06-02T09:23:00Z</time>
      </trkpt>
      <trkpt lat="43.38757" lon="2.49099">
        <ele>598.56</ele>
        <time>2014-06-02T09:23:24Z</time>
      </trkpt>
      <trkpt lat="43.38749" lon="2.491">
        <ele>591.35</ele>
        <time>2014-06-02T09:23:49Z</time>
      </trkpt>
      <trkpt lat="43.38751" lon="2.49099">
        <ele>591.35</ele>
        <time>2014-06-02T09:24:15Z</time>
      </trkpt>
      <trkpt lat="43.38753" lon="2.49102">
        <ele>592.31</ele>
        <time>2014-06-02T09:24:47Z</time>
      </trkpt>
      <trkpt lat="43.3875" lon="2.49101">
        <ele>594.23</ele>
        <time>2014-06-02T09:25:11Z</time>
      </trkpt>
      <trkpt lat="43.38749" lon="2.49101">
        <ele>596.15</ele>
        <time>2014-06-02T09:25:40Z</time>
      </trkpt>
      <trkpt lat="43.3875" lon="2.491">
        <ele>593.27</ele>
        <time>2014-06-02T09:26:16Z</time>
      </trkpt>
      <trkpt lat="43.38753" lon="2.49099">
        <ele>589.43</ele>
        <time>2014-06-02T09:26:43Z</time>
      </trkpt>
      <trkpt lat="43.3875" lon="2.49098">
        <ele>590.39</ele>
        <time>2014-06-02T09:27:21Z</time>
      </trkpt>
      <trkpt lat="43.38749" lon="2.49095">
        <ele>585.1</ele>
        <time>2014-06-02T09:27:50Z</time>
      </trkpt>
      <trkpt lat="43.38755" lon="2.491">
        <ele>584.14</ele>
        <time>2014-06-02T09:28:15Z</time>
      </trkpt>
      <trkpt lat="43.38752" lon="2.49103">
        <ele>586.54</ele>
        <time>2014-06-02T09:28:41Z</time>
      </trkpt>
      <trkpt lat="43.3875" lon="2.49102">
        <ele>587.02</ele>
        <time>2014-06-02T09:29:11Z</time>
      </trkpt>
      <trkpt lat="43.38751" lon="2.49105">
        <ele>586.54</ele>
        <time>2014-06-02T09:29:32Z</time>
      </trkpt>
      <trkpt lat="43.38751" lon="2.49101">
        <ele>586.06</ele>
        <time>2014-06-02T09:29:56Z</time>
      </trkpt>
      <trkpt lat="43.38749" lon="2.491">
        <ele>588.46</ele>
        <time>2014-06-02T09:30:34Z</time>
      </trkpt>
      <trkpt lat="43.38749" lon="2.49103">
        <ele>588.95</ele>
        <time>2014-06-02T09:31:16Z</time>
      </trkpt>
      <trkpt lat="43.3875" lon="2.49103">
        <ele>589.91</ele>
        <time>2014-06-02T09:31:56Z</time>
      </trkpt>
      <trkpt lat="43.3875" lon="2.49103">
        <ele>588.95</ele>
        <time>2014-06-02T09:32:31Z</time>
      </trkpt>
      <trkpt lat="43.38748" lon="2.49103">
        <ele>591.83</ele>
        <time>2014-06-02T09:33:10Z</time>
      </trkpt>
      <trkpt lat="43.3875" lon="2.49101">
        <ele>588.46</ele>
        <time>2014-06-02T09:33:45Z</time>
      </trkpt>
      <trkpt lat="43.3875" lon="2.49106">
        <ele>583.66</ele>
        <time>2014-06-02T09:34:18Z</time>
      </trkpt>
      <trkpt lat="43.38749" lon="2.49107">
        <ele>580.29</ele>
        <time>2014-06-02T09:34:50Z</time>
      </trkpt>
      <trkpt lat="43.38752" lon="2.49109">
        <ele>579.33</ele>
        <time>2014-06-02T09:35:25Z</time>
      </trkpt>
      <trkpt lat="43.38751" lon="2.49105">
        <ele>579.81</ele>
        <time>2014-06-02T09:36:01Z</time>
      </trkpt>
      <trkpt lat="43.38752" lon="2.49102">
        <ele>581.73</ele>
        <time>2014-06-02T09:36:41Z</time>
      </trkpt>
      <trkpt lat="43.38748" lon="2.49103">
        <ele>589.43</ele>
        <time>2014-06-02T09:37:18Z</time>
      </trkpt>
      <trkpt lat="43.3875" lon="2.49099">
        <ele>588.46</ele>
        <time>2014-06-02T09:37:45Z</time>
      </trkpt>
      <trkpt lat="43.38753" lon="2.49095">
        <ele>589.91</ele>
        <time>2014-06-02T09:38:24Z</time>
      </trkpt>
      <trkpt lat="43.38743" lon="2.49093">
        <ele>595.19</ele>
        <time>2014-06-02T09:38:55Z</time>
      </trkpt>
      <trkpt lat="43.38747" lon="2.49097">
        <ele>592.31</ele>
        <time>2014-06-02T09:39:18Z</time>
      </trkpt>
      <trkpt lat="43.38748" lon="2.491">
        <ele>589.91</ele>
        <time>2014-06-02T09:39:44Z</time>
      </trkpt>
      <trkpt lat="43.3875" lon="2.491">
        <ele>588.46</ele>
        <time>2014-06-02T09:40:12Z</time>
      </trkpt>
      <trkpt lat="43.3875" lon="2.49098">
        <ele>582.22</ele>
        <time>2014-06-02T09:40:27Z</time>
      </trkpt>
      <trkpt lat="43.3875" lon="2.49097">
        <ele>581.25</ele>
        <time>2014-06-02T09:40:46Z</time>
      </trkpt>
      <trkpt lat="43.38752" lon="2.49092">
        <ele>585.1</ele>
        <time>2014-06-02T09:41:12Z</time>
      </trkpt>
      <trkpt lat="43.38752" lon="2.49093">
        <ele>585.1</ele>
        <time>2014-06-02T09:41:36Z</time>
      </trkpt>
      <trkpt lat="43.38751" lon="2.49098">
        <ele>579.81</ele>
        <time>2014-06-02T09:42:07Z</time>
      </trkpt>
      <trkpt lat="43.38749" lon="2.49098">
        <ele>581.73</ele>
        <time>2014-06-02T09:42:25Z</time>
      </trkpt>
      <trkpt lat="43.38748" lon="2.491">
        <ele>581.25</ele>
        <time>2014-06-02T09:42:39Z</time>
      </trkpt>
      <trkpt lat="43.38747" lon="2.49101">
        <ele>582.22</ele>
        <time>2014-06-02T09:42:54Z</time>
      </trkpt>
      <trkpt lat="43.38745" lon="2.49103">
        <ele>581.73</ele>
        <time>2014-06-02T09:43:19Z</time>
      </trkpt>
      <trkpt lat="43.38745" lon="2.49105">
        <ele>586.54</ele>
        <time>2014-06-02T09:43:37Z</time>
      </trkpt>
      <trkpt lat="43.38745" lon="2.4911">
        <ele>593.27</ele>
        <time>2014-06-02T09:43:49Z</time>
      </trkpt>
      <trkpt lat="43.38752" lon="2.49113">
        <ele>597.12</ele>
        <time>2014-06-02T09:44:04Z</time>
      </trkpt>
      <trkpt lat="43.38749" lon="2.49116">
        <ele>600.96</ele>
        <time>2014-06-02T09:44:21Z</time>
      </trkpt>
      <trkpt lat="43.38745" lon="2.4912">
        <ele>603.36</ele>
        <time>2014-06-02T09:44:48Z</time>
      </trkpt>
      <trkpt lat="43.38748" lon="2.49117">
        <ele>594.23</ele>
        <time>2014-06-02T09:45:18Z</time>
      </trkpt>
      <trkpt lat="43.38749" lon="2.49124">
        <ele>591.83</ele>
        <time>2014-06-02T09:45:41Z</time>
      </trkpt>
      <trkpt lat="43.38741" lon="2.49115">
        <ele>591.83</ele>
        <time>2014-06-02T09:45:56Z</time>
      </trkpt>
      <trkpt lat="43.38735" lon="2.49112">
        <ele>591.83</ele>
        <time>2014-06-02T09:46:13Z</time>
      </trkpt>
      <trkpt lat="43.38727" lon="2.49107">
        <ele>591.35</ele>
        <time>2014-06-02T09:46:25Z</time>
      </trkpt>
      <trkpt lat="43.38717" lon="2.49097">
        <ele>589.91</ele>
        <time>2014-06-02T09:46:38Z</time>
      </trkpt>
      <trkpt lat="43.38712" lon="2.49092">
        <ele>588.95</ele>
        <time>2014-06-02T09:46:49Z</time>
      </trkpt>
      <trkpt lat="43.38699" lon="2.49088">
        <ele>584.14</ele>
        <time>2014-06-02T09:47:03Z</time>
      </trkpt>
      <trkpt lat="43.38689" lon="2.4909">
        <ele>581.25</ele>
        <time>2014-06-02T09:47:17Z</time>
      </trkpt>
      <trkpt lat="43.38676" lon="2.49091">
        <ele>584.62</ele>
        <time>2014-06-02T09:47:31Z</time>
      </trkpt>
      <trkpt lat="43.38662" lon="2.49093">
        <ele>585.58</ele>
        <time>2014-06-02T09:47:47Z</time>
      </trkpt>
      <trkpt lat="43.38649" lon="2.49094">
        <ele>588.46</ele>
        <time>2014-06-02T09:47:59Z</time>
      </trkpt>
      <trkpt lat="43.38637" lon="2.49094">
        <ele>590.39</ele>
        <time>2014-06-02T09:48:12Z</time>
      </trkpt>
      <trkpt lat="43.38627" lon="2.49096">
        <ele>589.91</ele>
        <time>2014-06-02T09:48:25Z</time>
      </trkpt>
      <trkpt lat="43.38617" lon="2.49099">
        <ele>590.39</ele>
        <time>2014-06-02T09:48:40Z</time>
      </trkpt>
      <trkpt lat="43.38606" lon="2.49102">
        <ele>588.95</ele>
        <time>2014-06-02T09:48:55Z</time>
      </trkpt>
      <trkpt lat="43.38599" lon="2.49107">
        <ele>588.95</ele>
        <time>2014-06-02T09:49:05Z</time>
      </trkpt>
      <trkpt lat="43.38591" lon="2.49112">
        <ele>592.31</ele>
        <time>2014-06-02T09:49:18Z</time>
      </trkpt>
      <trkpt lat="43.38588" lon="2.49113">
        <ele>593.75</ele>
        <time>2014-06-02T09:49:22Z</time>
      </trkpt>
      <trkpt lat="43.38579" lon="2.49117">
        <ele>596.15</ele>
        <time>2014-06-02T09:49:38Z</time>
      </trkpt>
      <trkpt lat="43.38576" lon="2.49121">
        <ele>598.56</ele>
        <time>2014-06-02T09:50:01Z</time>
      </trkpt>
      <trkpt lat="43.38574" lon="2.49122">
        <ele>600.48</ele>
        <time>2014-06-02T09:50:18Z</time>
      </trkpt>
      <trkpt lat="43.38567" lon="2.49122">
        <ele>600.48</ele>
        <time>2014-06-02T09:50:37Z</time>
      </trkpt>
      <trkpt lat="43.38563" lon="2.49107">
        <ele>596.15</ele>
        <time>2014-06-02T09:50:48Z</time>
      </trkpt>
      <trkpt lat="43.38561" lon="2.49095">
        <ele>592.79</ele>
        <time>2014-06-02T09:50:57Z</time>
      </trkpt>
      <trkpt lat="43.38559" lon="2.49081">
        <ele>591.35</ele>
        <time>2014-06-02T09:51:10Z</time>
      </trkpt>
      <trkpt lat="43.38557" lon="2.49088">
        <ele>589.43</ele>
        <time>2014-06-02T09:51:20Z</time>
      </trkpt>
      <trkpt lat="43.38555" lon="2.49099">
        <ele>588.95</ele>
        <time>2014-06-02T09:51:31Z</time>
      </trkpt>
      <trkpt lat="43.38553" lon="2.49109">
        <ele>588.46</ele>
        <time>2014-06-02T09:51:40Z</time>
      </trkpt>
      <trkpt lat="43.38549" lon="2.49121">
        <ele>588.95</ele>
        <time>2014-06-02T09:51:52Z</time>
      </trkpt>
      <trkpt lat="43.38546" lon="2.49129">
        <ele>588.95</ele>
        <time>2014-06-02T09:52:02Z</time>
      </trkpt>
      <trkpt lat="43.38546" lon="2.49142">
        <ele>589.91</ele>
        <time>2014-06-02T09:52:15Z</time>
      </trkpt>
      <trkpt lat="43.38549" lon="2.49146">
        <ele>590.87</ele>
        <time>2014-06-02T09:52:38Z</time>
      </trkpt>
      <trkpt lat="43.38545" lon="2.49143">
        <ele>592.79</ele>
        <time>2014-06-02T09:52:58Z</time>
      </trkpt>
      <trkpt lat="43.38546" lon="2.49143">
        <ele>595.67</ele>
        <time>2014-06-02T09:53:24Z</time>
      </trkpt>
      <trkpt lat="43.38548" lon="2.49143">
        <ele>600.48</ele>
        <time>2014-06-02T09:53:40Z</time>
      </trkpt>
      <trkpt lat="43.3855" lon="2.49143">
        <ele>601.44</ele>
        <time>2014-06-02T09:53:58Z</time>
      </trkpt>
      <trkpt lat="43.38551" lon="2.49138">
        <ele>599.04</ele>
        <time>2014-06-02T09:54:14Z</time>
      </trkpt>
      <trkpt lat="43.3855" lon="2.49135">
        <ele>600</ele>
        <time>2014-06-02T09:54:36Z</time>
      </trkpt>
      <trkpt lat="43.38551" lon="2.49137">
        <ele>602.4</ele>
        <time>2014-06-02T09:54:49Z</time>
      </trkpt>
      <trkpt lat="43.38552" lon="2.49139">
        <ele>602.88</ele>
        <time>2014-06-02T09:55:06Z</time>
      </trkpt>
      <trkpt lat="43.38556" lon="2.49143">
        <ele>601.92</ele>
        <time>2014-06-02T09:55:16Z</time>
      </trkpt>
      <trkpt lat="43.38557" lon="2.49144">
        <ele>602.4</ele>
        <time>2014-06-02T09:55:28Z</time>
      </trkpt>
      <trkpt lat="43.3856" lon="2.49144">
        <ele>602.4</ele>
        <time>2014-06-02T09:55:45Z</time>
      </trkpt>
      <trkpt lat="43.38566" lon="2.49148">
        <ele>599.04</ele>
        <time>2014-06-02T09:55:59Z</time>
      </trkpt>
      <trkpt lat="43.38578" lon="2.4915">
        <ele>600.48</ele>
        <time>2014-06-02T09:56:12Z</time>
      </trkpt>
      <trkpt lat="43.3859" lon="2.49152">
        <ele>603.36</ele>
        <time>2014-06-02T09:56:25Z</time>
      </trkpt>
      <trkpt lat="43.38599" lon="2.49154">
        <ele>603.85</ele>
        <time>2014-06-02T09:56:37Z</time>
      </trkpt>
      <trkpt lat="43.38608" lon="2.49158">
        <ele>605.29</ele>
        <time>2014-06-02T09:56:49Z</time>
      </trkpt>
      <trkpt lat="43.38618" lon="2.49161">
        <ele>607.69</ele>
        <time>2014-06-02T09:57:01Z</time>
      </trkpt>
      <trkpt lat="43.38627" lon="2.49166">
        <ele>608.65</ele>
        <time>2014-06-02T09:57:12Z</time>
      </trkpt>
      <trkpt lat="43.38643" lon="2.49172">
        <ele>611.54</ele>
        <time>2014-06-02T09:57:28Z</time>
      </trkpt>
      <trkpt lat="43.38649" lon="2.49174">
        <ele>613.46</ele>
        <time>2014-06-02T09:57:42Z</time>
      </trkpt>
      <trkpt lat="43.38661" lon="2.49178">
        <ele>614.42</ele>
        <time>2014-06-02T09:57:54Z</time>
      </trkpt>
      <trkpt lat="43.38666" lon="2.49179">
        <ele>614.42</ele>
        <time>2014-06-02T09:58:00Z</time>
      </trkpt>
      <trkpt lat="43.38675" lon="2.49184">
        <ele>616.82</ele>
        <time>2014-06-02T09:58:11Z</time>
      </trkpt>
      <trkpt lat="43.3869" lon="2.49192">
        <ele>617.78</ele>
        <time>2014-06-02T09:58:26Z</time>
      </trkpt>
      <trkpt lat="43.38691" lon="2.49193">
        <ele>617.78</ele>
        <time>2014-06-02T09:58:27Z</time>
      </trkpt>
      <trkpt lat="43.38699" lon="2.49199">
        <ele>617.78</ele>
        <time>2014-06-02T09:58:38Z</time>
      </trkpt>
      <trkpt lat="43.38705" lon="2.49209">
        <ele>615.38</ele>
        <time>2014-06-02T09:58:49Z</time>
      </trkpt>
      <trkpt lat="43.38709" lon="2.4922">
        <ele>615.86</ele>
        <time>2014-06-02T09:58:58Z</time>
      </trkpt>
      <trkpt lat="43.38712" lon="2.49231">
        <ele>616.82</ele>
        <time>2014-06-02T09:59:09Z</time>
      </trkpt>
      <trkpt lat="43.38712" lon="2.49244">
        <ele>617.3</ele>
        <time>2014-06-02T09:59:21Z</time>
      </trkpt>
      <trkpt lat="43.38722" lon="2.49263">
        <ele>618.26</ele>
        <time>2014-06-02T09:59:35Z</time>
      </trkpt>
      <trkpt lat="43.3873" lon="2.49275">
        <ele>619.23</ele>
        <time>2014-06-02T09:59:46Z</time>
      </trkpt>
      <trkpt lat="43.38731" lon="2.49279">
        <ele>619.23</ele>
        <time>2014-06-02T09:59:49Z</time>
      </trkpt>
      <trkpt lat="43.38736" lon="2.49288">
        <ele>620.19</ele>
        <time>2014-06-02T09:59:57Z</time>
      </trkpt>
      <trkpt lat="43.3874" lon="2.49299">
        <ele>619.71</ele>
        <time>2014-06-02T10:00:09Z</time>
      </trkpt>
      <trkpt lat="43.38748" lon="2.49309">
        <ele>620.67</ele>
        <time>2014-06-02T10:00:25Z</time>
      </trkpt>
      <trkpt lat="43.38762" lon="2.49314">
        <ele>621.15</ele>
        <time>2014-06-02T10:00:40Z</time>
      </trkpt>
      <trkpt lat="43.38776" lon="2.49316">
        <ele>626.44</ele>
        <time>2014-06-02T10:00:54Z</time>
      </trkpt>
      <trkpt lat="43.38785" lon="2.4931">
        <ele>637.01</ele>
        <time>2014-06-02T10:01:14Z</time>
      </trkpt>
      <trkpt lat="43.3879" lon="2.49313">
        <ele>639.89</ele>
        <time>2014-06-02T10:01:29Z</time>
      </trkpt>
      <trkpt lat="43.38795" lon="2.49316">
        <ele>640.86</ele>
        <time>2014-06-02T10:01:44Z</time>
      </trkpt>
      <trkpt lat="43.38801" lon="2.49316">
        <ele>640.86</ele>
        <time>2014-06-02T10:01:56Z</time>
      </trkpt>
      <trkpt lat="43.38819" lon="2.49312">
        <ele>641.82</ele>
        <time>2014-06-02T10:02:12Z</time>
      </trkpt>
      <trkpt lat="43.38832" lon="2.49311">
        <ele>641.82</ele>
        <time>2014-06-02T10:02:25Z</time>
      </trkpt>
      <trkpt lat="43.3884" lon="2.49315">
        <ele>641.34</ele>
        <time>2014-06-02T10:02:39Z</time>
      </trkpt>
      <trkpt lat="43.38847" lon="2.49318">
        <ele>640.38</ele>
        <time>2014-06-02T10:02:53Z</time>
      </trkpt>
      <trkpt lat="43.38853" lon="2.49323">
        <ele>640.38</ele>
        <time>2014-06-02T10:03:04Z</time>
      </trkpt>
      <trkpt lat="43.38857" lon="2.49326">
        <ele>640.38</ele>
        <time>2014-06-02T10:03:14Z</time>
      </trkpt>
      <trkpt lat="43.38861" lon="2.49327">
        <ele>639.89</ele>
        <time>2014-06-02T10:03:25Z</time>
      </trkpt>
      <trkpt lat="43.38863" lon="2.49324">
        <ele>640.38</ele>
        <time>2014-06-02T10:03:42Z</time>
      </trkpt>
      <trkpt lat="43.38864" lon="2.49325">
        <ele>640.86</ele>
        <time>2014-06-02T10:03:45Z</time>
      </trkpt>
      <trkpt lat="43.38865" lon="2.49325">
        <ele>639.89</ele>
        <time>2014-06-02T10:04:02Z</time>
      </trkpt>
      <trkpt lat="43.38866" lon="2.49325">
        <ele>638.45</ele>
        <time>2014-06-02T10:04:33Z</time>
      </trkpt>
      <trkpt lat="43.38865" lon="2.49324">
        <ele>642.3</ele>
        <time>2014-06-02T10:04:59Z</time>
      </trkpt>
      <trkpt lat="43.38861" lon="2.49322">
        <ele>640.86</ele>
        <time>2014-06-02T10:05:13Z</time>
      </trkpt>
      <trkpt lat="43.38855" lon="2.49319">
        <ele>641.34</ele>
        <time>2014-06-02T10:05:28Z</time>
      </trkpt>
      <trkpt lat="43.3885" lon="2.49317">
        <ele>637.97</ele>
        <time>2014-06-02T10:05:40Z</time>
      </trkpt>
      <trkpt lat="43.38846" lon="2.49322">
        <ele>636.05</ele>
        <time>2014-06-02T10:05:50Z</time>
      </trkpt>
      <trkpt lat="43.38845" lon="2.49332">
        <ele>637.97</ele>
        <time>2014-06-02T10:06:03Z</time>
      </trkpt>
      <trkpt lat="43.38846" lon="2.49345">
        <ele>638.93</ele>
        <time>2014-06-02T10:06:15Z</time>
      </trkpt>
      <trkpt lat="43.38846" lon="2.49347">
        <ele>642.3</ele>
        <time>2014-06-02T10:06:25Z</time>
      </trkpt>
      <trkpt lat="43.38847" lon="2.49357">
        <ele>645.18</ele>
        <time>2014-06-02T10:06:36Z</time>
      </trkpt>
      <trkpt lat="43.38853" lon="2.49367">
        <ele>648.55</ele>
        <time>2014-06-02T10:06:49Z</time>
      </trkpt>
      <trkpt lat="43.3886" lon="2.49381">
        <ele>652.39</ele>
        <time>2014-06-02T10:07:05Z</time>
      </trkpt>
      <trkpt lat="43.38866" lon="2.49387">
        <ele>654.31</ele>
        <time>2014-06-02T10:07:19Z</time>
      </trkpt>
      <trkpt lat="43.38868" lon="2.49395">
        <ele>656.24</ele>
        <time>2014-06-02T10:07:31Z</time>
      </trkpt>
      <trkpt lat="43.3887" lon="2.494">
        <ele>656.72</ele>
        <time>2014-06-02T10:07:36Z</time>
      </trkpt>
      <trkpt lat="43.38872" lon="2.49411">
        <ele>659.12</ele>
        <time>2014-06-02T10:07:49Z</time>
      </trkpt>
      <trkpt lat="43.38874" lon="2.49417">
        <ele>660.08</ele>
        <time>2014-06-02T10:07:56Z</time>
      </trkpt>
      <trkpt lat="43.3888" lon="2.4943">
        <ele>662.01</ele>
        <time>2014-06-02T10:08:10Z</time>
      </trkpt>
      <trkpt lat="43.38887" lon="2.49443">
        <ele>664.41</ele>
        <time>2014-06-02T10:08:23Z</time>
      </trkpt>
      <trkpt lat="43.38885" lon="2.49457">
        <ele>667.29</ele>
        <time>2014-06-02T10:08:36Z</time>
      </trkpt>
      <trkpt lat="43.38884" lon="2.49466">
        <ele>670.18</ele>
        <time>2014-06-02T10:08:48Z</time>
      </trkpt>
      <trkpt lat="43.3888" lon="2.49472">
        <ele>673.54</ele>
        <time>2014-06-02T10:08:59Z</time>
      </trkpt>
      <trkpt lat="43.38874" lon="2.4948">
        <ele>676.91</ele>
        <time>2014-06-02T10:09:10Z</time>
      </trkpt>
      <trkpt lat="43.38869" lon="2.49495">
        <ele>680.75</ele>
        <time>2014-06-02T10:09:23Z</time>
      </trkpt>
      <trkpt lat="43.38866" lon="2.49512">
        <ele>682.67</ele>
        <time>2014-06-02T10:09:37Z</time>
      </trkpt>
      <trkpt lat="43.38864" lon="2.49527">
        <ele>684.12</ele>
        <time>2014-06-02T10:09:49Z</time>
      </trkpt>
      <trkpt lat="43.38859" lon="2.4954">
        <ele>687</ele>
        <time>2014-06-02T10:10:02Z</time>
      </trkpt>
      <trkpt lat="43.38859" lon="2.49541">
        <ele>687.48</ele>
        <time>2014-06-02T10:10:03Z</time>
      </trkpt>
      <trkpt lat="43.38855" lon="2.49557">
        <ele>688.92</ele>
        <time>2014-06-02T10:10:18Z</time>
      </trkpt>
      <trkpt lat="43.3885" lon="2.49571">
        <ele>690.36</ele>
        <time>2014-06-02T10:10:29Z</time>
      </trkpt>
      <trkpt lat="43.3885" lon="2.49585">
        <ele>691.33</ele>
        <time>2014-06-02T10:10:42Z</time>
      </trkpt>
      <trkpt lat="43.38843" lon="2.49599">
        <ele>692.77</ele>
        <time>2014-06-02T10:10:55Z</time>
      </trkpt>
      <trkpt lat="43.38842" lon="2.49614">
        <ele>692.77</ele>
        <time>2014-06-02T10:11:08Z</time>
      </trkpt>
      <trkpt lat="43.38835" lon="2.49627">
        <ele>694.69</ele>
        <time>2014-06-02T10:11:21Z</time>
      </trkpt>
      <trkpt lat="43.38827" lon="2.49638">
        <ele>695.17</ele>
        <time>2014-06-02T10:11:33Z</time>
      </trkpt>
      <trkpt lat="43.38822" lon="2.49648">
        <ele>696.61</ele>
        <time>2014-06-02T10:11:46Z</time>
      </trkpt>
      <trkpt lat="43.38815" lon="2.49661">
        <ele>699.02</ele>
        <time>2014-06-02T10:11:58Z</time>
      </trkpt>
      <trkpt lat="43.38813" lon="2.49673">
        <ele>700.94</ele>
        <time>2014-06-02T10:12:08Z</time>
      </trkpt>
      <trkpt lat="43.38811" lon="2.49683">
        <ele>705.26</ele>
        <time>2014-06-02T10:12:18Z</time>
      </trkpt>
      <trkpt lat="43.38807" lon="2.49696">
        <ele>708.15</ele>
        <time>2014-06-02T10:12:30Z</time>
      </trkpt>
      <trkpt lat="43.38806" lon="2.49707">
        <ele>709.11</ele>
        <time>2014-06-02T10:12:41Z</time>
      </trkpt>
      <trkpt lat="43.38802" lon="2.49719">
        <ele>709.59</ele>
        <time>2014-06-02T10:12:54Z</time>
      </trkpt>
      <trkpt lat="43.38793" lon="2.49728">
        <ele>709.11</ele>
        <time>2014-06-02T10:13:04Z</time>
      </trkpt>
      <trkpt lat="43.38791" lon="2.49739">
        <ele>710.07</ele>
        <time>2014-06-02T10:13:14Z</time>
      </trkpt>
      <trkpt lat="43.3879" lon="2.4975">
        <ele>711.51</ele>
        <time>2014-06-02T10:13:24Z</time>
      </trkpt>
      <trkpt lat="43.38788" lon="2.49759">
        <ele>712.47</ele>
        <time>2014-06-02T10:13:36Z</time>
      </trkpt>
      <trkpt lat="43.38794" lon="2.49766">
        <ele>715.84</ele>
        <time>2014-06-02T10:14:01Z</time>
      </trkpt>
      <trkpt lat="43.38792" lon="2.49769">
        <ele>715.36</ele>
        <time>2014-06-02T10:14:27Z</time>
      </trkpt>
      <trkpt lat="43.38784" lon="2.49774">
        <ele>713.44</ele>
        <time>2014-06-02T10:14:49Z</time>
      </trkpt>
      <trkpt lat="43.38779" lon="2.49771">
        <ele>712.47</ele>
        <time>2014-06-02T10:15:21Z</time>
      </trkpt>
      <trkpt lat="43.38776" lon="2.49782">
        <ele>713.92</ele>
        <time>2014-06-02T10:15:34Z</time>
      </trkpt>
      <trkpt lat="43.38776" lon="2.49784">
        <ele>713.92</ele>
        <time>2014-06-02T10:15:36Z</time>
      </trkpt>
      <trkpt lat="43.38782" lon="2.49806">
        <ele>716.8</ele>
        <time>2014-06-02T10:15:52Z</time>
      </trkpt>
      <trkpt lat="43.38784" lon="2.49827">
        <ele>718.72</ele>
        <time>2014-06-02T10:16:06Z</time>
      </trkpt>
      <trkpt lat="43.38789" lon="2.49848">
        <ele>719.68</ele>
        <time>2014-06-02T10:16:20Z</time>
      </trkpt>
      <trkpt lat="43.38794" lon="2.49866">
        <ele>723.05</ele>
        <time>2014-06-02T10:16:35Z</time>
      </trkpt>
      <trkpt lat="43.38795" lon="2.4988">
        <ele>724.97</ele>
        <time>2014-06-02T10:16:51Z</time>
      </trkpt>
      <trkpt lat="43.38797" lon="2.49893">
        <ele>725.93</ele>
        <time>2014-06-02T10:17:04Z</time>
      </trkpt>
      <trkpt lat="43.38801" lon="2.49899">
        <ele>727.37</ele>
        <time>2014-06-02T10:17:21Z</time>
      </trkpt>
      <trkpt lat="43.38794" lon="2.49893">
        <ele>731.7</ele>
        <time>2014-06-02T10:17:38Z</time>
      </trkpt>
      <trkpt lat="43.3879" lon="2.49893">
        <ele>735.07</ele>
        <time>2014-06-02T10:17:54Z</time>
      </trkpt>
      <trkpt lat="43.38786" lon="2.49894">
        <ele>738.91</ele>
        <time>2014-06-02T10:18:13Z</time>
      </trkpt>
      <trkpt lat="43.38781" lon="2.49885">
        <ele>748.04</ele>
        <time>2014-06-02T10:18:27Z</time>
      </trkpt>
      <trkpt lat="43.38772" lon="2.49878">
        <ele>752.85</ele>
        <time>2014-06-02T10:18:44Z</time>
      </trkpt>
      <trkpt lat="43.38761" lon="2.49869">
        <ele>757.66</ele>
        <time>2014-06-02T10:18:59Z</time>
      </trkpt>
      <trkpt lat="43.38751" lon="2.49865">
        <ele>760.06</ele>
        <time>2014-06-02T10:19:10Z</time>
      </trkpt>
      <trkpt lat="43.3873" lon="2.49859">
        <ele>757.66</ele>
        <time>2014-06-02T10:19:32Z</time>
      </trkpt>
      <trkpt lat="43.38732" lon="2.49861">
        <ele>759.58</ele>
        <time>2014-06-02T10:19:58Z</time>
      </trkpt>
      <trkpt lat="43.38736" lon="2.49857">
        <ele>759.58</ele>
        <time>2014-06-02T10:20:19Z</time>
      </trkpt>
      <trkpt lat="43.38732" lon="2.49847">
        <ele>759.1</ele>
        <time>2014-06-02T10:20:34Z</time>
      </trkpt>
      <trkpt lat="43.38728" lon="2.49837">
        <ele>759.58</ele>
        <time>2014-06-02T10:20:46Z</time>
      </trkpt>
      <trkpt lat="43.38722" lon="2.49824">
        <ele>762.46</ele>
        <time>2014-06-02T10:21:00Z</time>
      </trkpt>
      <trkpt lat="43.38713" lon="2.49813">
        <ele>765.35</ele>
        <time>2014-06-02T10:21:13Z</time>
      </trkpt>
      <trkpt lat="43.38704" lon="2.49808">
        <ele>768.71</ele>
        <time>2014-06-02T10:21:31Z</time>
      </trkpt>
      <trkpt lat="43.38705" lon="2.49796">
        <ele>769.67</ele>
        <time>2014-06-02T10:21:46Z</time>
      </trkpt>
      <trkpt lat="43.38705" lon="2.49785">
        <ele>770.15</ele>
        <time>2014-06-02T10:22:02Z</time>
      </trkpt>
      <trkpt lat="43.38703" lon="2.49772">
        <ele>772.08</ele>
        <time>2014-06-02T10:22:16Z</time>
      </trkpt>
      <trkpt lat="43.38702" lon="2.49759">
        <ele>775.44</ele>
        <time>2014-06-02T10:22:29Z</time>
      </trkpt>
      <trkpt lat="43.38699" lon="2.49741">
        <ele>777.36</ele>
        <time>2014-06-02T10:22:44Z</time>
      </trkpt>
      <trkpt lat="43.38698" lon="2.49736">
        <ele>777.36</ele>
        <time>2014-06-02T10:22:48Z</time>
      </trkpt>
      <trkpt lat="43.387" lon="2.49725">
        <ele>779.29</ele>
        <time>2014-06-02T10:23:02Z</time>
      </trkpt>
      <trkpt lat="43.38698" lon="2.4972">
        <ele>782.17</ele>
        <time>2014-06-02T10:23:18Z</time>
      </trkpt>
      <trkpt lat="43.38697" lon="2.49716">
        <ele>782.17</ele>
        <time>2014-06-02T10:23:22Z</time>
      </trkpt>
      <trkpt lat="43.38692" lon="2.49705">
        <ele>780.25</ele>
        <time>2014-06-02T10:23:35Z</time>
      </trkpt>
      <trkpt lat="43.38689" lon="2.49703">
        <ele>781.21</ele>
        <time>2014-06-02T10:23:40Z</time>
      </trkpt>
      <trkpt lat="43.38686" lon="2.49702">
        <ele>781.69</ele>
        <time>2014-06-02T10:23:44Z</time>
      </trkpt>
      <trkpt lat="43.38681" lon="2.49701">
        <ele>783.13</ele>
        <time>2014-06-02T10:23:56Z</time>
      </trkpt>
      <trkpt lat="43.38677" lon="2.497">
        <ele>784.57</ele>
        <time>2014-06-02T10:24:09Z</time>
      </trkpt>
      <trkpt lat="43.38671" lon="2.49709">
        <ele>787.94</ele>
        <time>2014-06-02T10:24:18Z</time>
      </trkpt>
      <trkpt lat="43.38666" lon="2.4972">
        <ele>791.78</ele>
        <time>2014-06-02T10:24:28Z</time>
      </trkpt>
      <trkpt lat="43.38662" lon="2.49727">
        <ele>793.22</ele>
        <time>2014-06-02T10:24:35Z</time>
      </trkpt>
      <trkpt lat="43.3866" lon="2.49732">
        <ele>794.19</ele>
        <time>2014-06-02T10:24:40Z</time>
      </trkpt>
      <trkpt lat="43.38657" lon="2.49737">
        <ele>794.67</ele>
        <time>2014-06-02T10:24:44Z</time>
      </trkpt>
      <trkpt lat="43.38649" lon="2.49749">
        <ele>797.55</ele>
        <time>2014-06-02T10:24:57Z</time>
      </trkpt>
      <trkpt lat="43.38641" lon="2.49763">
        <ele>798.03</ele>
        <time>2014-06-02T10:25:09Z</time>
      </trkpt>
      <trkpt lat="43.38641" lon="2.49778">
        <ele>798.03</ele>
        <time>2014-06-02T10:25:19Z</time>
      </trkpt>
      <trkpt lat="43.3864" lon="2.49782">
        <ele>797.55</ele>
        <time>2014-06-02T10:25:22Z</time>
      </trkpt>
      <trkpt lat="43.38639" lon="2.49788">
        <ele>798.03</ele>
        <time>2014-06-02T10:25:26Z</time>
      </trkpt>
      <trkpt lat="43.38638" lon="2.49799">
        <ele>798.03</ele>
        <time>2014-06-02T10:25:35Z</time>
      </trkpt>
      <trkpt lat="43.38635" lon="2.49814">
        <ele>799.47</ele>
        <time>2014-06-02T10:25:47Z</time>
      </trkpt>
      <trkpt lat="43.38635" lon="2.49817">
        <ele>799.95</ele>
        <time>2014-06-02T10:25:49Z</time>
      </trkpt>
      <trkpt lat="43.38632" lon="2.49831">
        <ele>801.4</ele>
        <time>2014-06-02T10:26:00Z</time>
      </trkpt>
      <trkpt lat="43.38628" lon="2.49846">
        <ele>802.84</ele>
        <time>2014-06-02T10:26:13Z</time>
      </trkpt>
      <trkpt lat="43.38623" lon="2.4986">
        <ele>803.8</ele>
        <time>2014-06-02T10:26:26Z</time>
      </trkpt>
      <trkpt lat="43.3862" lon="2.49875">
        <ele>805.24</ele>
        <time>2014-06-02T10:26:38Z</time>
      </trkpt>
      <trkpt lat="43.3862" lon="2.49892">
        <ele>807.16</ele>
        <time>2014-06-02T10:26:51Z</time>
      </trkpt>
      <trkpt lat="43.38621" lon="2.49902">
        <ele>808.13</ele>
        <time>2014-06-02T10:26:59Z</time>
      </trkpt>
      <trkpt lat="43.3862" lon="2.49917">
        <ele>807.64</ele>
        <time>2014-06-02T10:27:13Z</time>
      </trkpt>
      <trkpt lat="43.38619" lon="2.4993">
        <ele>809.09</ele>
        <time>2014-06-02T10:27:25Z</time>
      </trkpt>
      <trkpt lat="43.38621" lon="2.4994">
        <ele>811.01</ele>
        <time>2014-06-02T10:27:34Z</time>
      </trkpt>
      <trkpt lat="43.38624" lon="2.49955">
        <ele>815.82</ele>
        <time>2014-06-02T10:27:47Z</time>
      </trkpt>
      <trkpt lat="43.38625" lon="2.49966">
        <ele>818.7</ele>
        <time>2014-06-02T10:27:58Z</time>
      </trkpt>
      <trkpt lat="43.38629" lon="2.4998">
        <ele>820.62</ele>
        <time>2014-06-02T10:28:10Z</time>
      </trkpt>
      <trkpt lat="43.38631" lon="2.49994">
        <ele>821.1</ele>
        <time>2014-06-02T10:28:22Z</time>
      </trkpt>
      <trkpt lat="43.38633" lon="2.50008">
        <ele>823.51</ele>
        <time>2014-06-02T10:28:35Z</time>
      </trkpt>
      <trkpt lat="43.38635" lon="2.50018">
        <ele>824.95</ele>
        <time>2014-06-02T10:28:47Z</time>
      </trkpt>
      <trkpt lat="43.38641" lon="2.5003">
        <ele>826.87</ele>
        <time>2014-06-02T10:29:00Z</time>
      </trkpt>
      <trkpt lat="43.38648" lon="2.50042">
        <ele>829.76</ele>
        <time>2014-06-02T10:29:12Z</time>
      </trkpt>
      <trkpt lat="43.38654" lon="2.50053">
        <ele>832.16</ele>
        <time>2014-06-02T10:29:23Z</time>
      </trkpt>
      <trkpt lat="43.38657" lon="2.50058">
        <ele>833.12</ele>
        <time>2014-06-02T10:29:28Z</time>
      </trkpt>
      <trkpt lat="43.38663" lon="2.50071">
        <ele>834.56</ele>
        <time>2014-06-02T10:29:40Z</time>
      </trkpt>
      <trkpt lat="43.38667" lon="2.50082">
        <ele>837.45</ele>
        <time>2014-06-02T10:29:52Z</time>
      </trkpt>
      <trkpt lat="43.38674" lon="2.50094">
        <ele>839.85</ele>
        <time>2014-06-02T10:30:05Z</time>
      </trkpt>
      <trkpt lat="43.38675" lon="2.50097">
        <ele>841.29</ele>
        <time>2014-06-02T10:30:10Z</time>
      </trkpt>
      <trkpt lat="43.38682" lon="2.50108">
        <ele>843.21</ele>
        <time>2014-06-02T10:30:22Z</time>
      </trkpt>
      <trkpt lat="43.38686" lon="2.50118">
        <ele>845.14</ele>
        <time>2014-06-02T10:30:33Z</time>
      </trkpt>
      <trkpt lat="43.3869" lon="2.50125">
        <ele>846.1</ele>
        <time>2014-06-02T10:30:46Z</time>
      </trkpt>
      <trkpt lat="43.38694" lon="2.50133">
        <ele>848.02</ele>
        <time>2014-06-02T10:30:58Z</time>
      </trkpt>
      <trkpt lat="43.38701" lon="2.50142">
        <ele>849.46</ele>
        <time>2014-06-02T10:31:08Z</time>
      </trkpt>
      <trkpt lat="43.38702" lon="2.50145">
        <ele>849.46</ele>
        <time>2014-06-02T10:31:11Z</time>
      </trkpt>
      <trkpt lat="43.38703" lon="2.50151">
        <ele>849.46</ele>
        <time>2014-06-02T10:31:16Z</time>
      </trkpt>
      <trkpt lat="43.38709" lon="2.50163">
        <ele>850.42</ele>
        <time>2014-06-02T10:31:28Z</time>
      </trkpt>
      <trkpt lat="43.38708" lon="2.50166">
        <ele>851.87</ele>
        <time>2014-06-02T10:31:33Z</time>
      </trkpt>
      <trkpt lat="43.38708" lon="2.50169">
        <ele>852.83</ele>
        <time>2014-06-02T10:31:37Z</time>
      </trkpt>
      <trkpt lat="43.38705" lon="2.50174">
        <ele>856.67</ele>
        <time>2014-06-02T10:31:50Z</time>
      </trkpt>
      <trkpt lat="43.38704" lon="2.50174">
        <ele>857.15</ele>
        <time>2014-06-02T10:32:06Z</time>
      </trkpt>
      <trkpt lat="43.38703" lon="2.50172">
        <ele>857.15</ele>
        <time>2014-06-02T10:32:32Z</time>
      </trkpt>
      <trkpt lat="43.38702" lon="2.50173">
        <ele>852.83</ele>
        <time>2014-06-02T10:33:01Z</time>
      </trkpt>
      <trkpt lat="43.38703" lon="2.50175">
        <ele>853.31</ele>
        <time>2014-06-02T10:33:15Z</time>
      </trkpt>
      <trkpt lat="43.38703" lon="2.50178">
        <ele>854.27</ele>
        <time>2014-06-02T10:33:19Z</time>
      </trkpt>
      <trkpt lat="43.38704" lon="2.50184">
        <ele>854.75</ele>
        <time>2014-06-02T10:33:24Z</time>
      </trkpt>
      <trkpt lat="43.38706" lon="2.50187">
        <ele>854.27</ele>
        <time>2014-06-02T10:33:28Z</time>
      </trkpt>
      <trkpt lat="43.38716" lon="2.50199">
        <ele>852.83</ele>
        <time>2014-06-02T10:33:40Z</time>
      </trkpt>
      <trkpt lat="43.38718" lon="2.50203">
        <ele>852.83</ele>
        <time>2014-06-02T10:33:52Z</time>
      </trkpt>
      <trkpt lat="43.38719" lon="2.50202">
        <ele>854.27</ele>
        <time>2014-06-02T10:34:13Z</time>
      </trkpt>
      <trkpt lat="43.38719" lon="2.50203">
        <ele>854.27</ele>
        <time>2014-06-02T10:34:37Z</time>
      </trkpt>
      <trkpt lat="43.38718" lon="2.50204">
        <ele>855.23</ele>
        <time>2014-06-02T10:34:54Z</time>
      </trkpt>
      <trkpt lat="43.38721" lon="2.50201">
        <ele>856.67</ele>
        <time>2014-06-02T10:35:24Z</time>
      </trkpt>
      <trkpt lat="43.38721" lon="2.50202">
        <ele>857.63</ele>
        <time>2014-06-02T10:35:34Z</time>
      </trkpt>
      <trkpt lat="43.38724" lon="2.50217">
        <ele>857.63</ele>
        <time>2014-06-02T10:35:43Z</time>
      </trkpt>
      <trkpt lat="43.38726" lon="2.5022">
        <ele>857.15</ele>
        <time>2014-06-02T10:35:46Z</time>
      </trkpt>
      <trkpt lat="43.38737" lon="2.50229">
        <ele>857.63</ele>
        <time>2014-06-02T10:35:58Z</time>
      </trkpt>
      <trkpt lat="43.38743" lon="2.50235">
        <ele>857.15</ele>
        <time>2014-06-02T10:36:09Z</time>
      </trkpt>
      <trkpt lat="43.38757" lon="2.50244">
        <ele>855.23</ele>
        <time>2014-06-02T10:36:21Z</time>
      </trkpt>
      <trkpt lat="43.38767" lon="2.50249">
        <ele>855.23</ele>
        <time>2014-06-02T10:36:29Z</time>
      </trkpt>
      <trkpt lat="43.38777" lon="2.50256">
        <ele>855.71</ele>
        <time>2014-06-02T10:36:41Z</time>
      </trkpt>
      <trkpt lat="43.38777" lon="2.50256">
        <ele>855.71</ele>
        <time>2014-06-02T10:36:42Z</time>
      </trkpt>
      <trkpt lat="43.38789" lon="2.50265">
        <ele>858.11</ele>
        <time>2014-06-02T10:36:55Z</time>
      </trkpt>
      <trkpt lat="43.38797" lon="2.50272">
        <ele>861.96</ele>
        <time>2014-06-02T10:37:07Z</time>
      </trkpt>
      <trkpt lat="43.38802" lon="2.50275">
        <ele>863.88</ele>
        <time>2014-06-02T10:37:12Z</time>
      </trkpt>
      <trkpt lat="43.38804" lon="2.50278">
        <ele>865.32</ele>
        <time>2014-06-02T10:37:16Z</time>
      </trkpt>
      <trkpt lat="43.38814" lon="2.50284">
        <ele>867.73</ele>
        <time>2014-06-02T10:37:29Z</time>
      </trkpt>
      <trkpt lat="43.38815" lon="2.50285">
        <ele>868.21</ele>
        <time>2014-06-02T10:37:31Z</time>
      </trkpt>
      <trkpt lat="43.38818" lon="2.50291">
        <ele>869.17</ele>
        <time>2014-06-02T10:37:36Z</time>
      </trkpt>
      <trkpt lat="43.38828" lon="2.50303">
        <ele>870.61</ele>
        <time>2014-06-02T10:37:51Z</time>
      </trkpt>
      <trkpt lat="43.38829" lon="2.50306">
        <ele>871.09</ele>
        <time>2014-06-02T10:37:53Z</time>
      </trkpt>
      <trkpt lat="43.38832" lon="2.50308">
        <ele>872.53</ele>
        <time>2014-06-02T10:37:56Z</time>
      </trkpt>
      <trkpt lat="43.3884" lon="2.50318">
        <ele>875.42</ele>
        <time>2014-06-02T10:38:08Z</time>
      </trkpt>
      <trkpt lat="43.38848" lon="2.50327">
        <ele>877.34</ele>
        <time>2014-06-02T10:38:19Z</time>
      </trkpt>
      <trkpt lat="43.38854" lon="2.50335">
        <ele>876.86</ele>
        <time>2014-06-02T10:38:27Z</time>
      </trkpt>
      <trkpt lat="43.38861" lon="2.50343">
        <ele>878.3</ele>
        <time>2014-06-02T10:38:37Z</time>
      </trkpt>
      <trkpt lat="43.3887" lon="2.50355">
        <ele>878.3</ele>
        <time>2014-06-02T10:38:50Z</time>
      </trkpt>
      <trkpt lat="43.38872" lon="2.50357">
        <ele>877.82</ele>
        <time>2014-06-02T10:38:52Z</time>
      </trkpt>
      <trkpt lat="43.38873" lon="2.50359">
        <ele>877.82</ele>
        <time>2014-06-02T10:38:54Z</time>
      </trkpt>
      <trkpt lat="43.38882" lon="2.50373">
        <ele>879.74</ele>
        <time>2014-06-02T10:39:07Z</time>
      </trkpt>
      <trkpt lat="43.38891" lon="2.50382">
        <ele>882.15</ele>
        <time>2014-06-02T10:39:18Z</time>
      </trkpt>
      <trkpt lat="43.38894" lon="2.50387">
        <ele>885.03</ele>
        <time>2014-06-02T10:39:29Z</time>
      </trkpt>
      <trkpt lat="43.38897" lon="2.5039">
        <ele>885.03</ele>
        <time>2014-06-02T10:39:32Z</time>
      </trkpt>
      <trkpt lat="43.38902" lon="2.50395">
        <ele>883.59</ele>
        <time>2014-06-02T10:39:37Z</time>
      </trkpt>
      <trkpt lat="43.38915" lon="2.50409">
        <ele>883.59</ele>
        <time>2014-06-02T10:39:50Z</time>
      </trkpt>
      <trkpt lat="43.38923" lon="2.5042">
        <ele>885.03</ele>
        <time>2014-06-02T10:39:59Z</time>
      </trkpt>
      <trkpt lat="43.38933" lon="2.50436">
        <ele>887.43</ele>
        <time>2014-06-02T10:40:13Z</time>
      </trkpt>
      <trkpt lat="43.38936" lon="2.50441">
        <ele>887.91</ele>
        <time>2014-06-02T10:40:18Z</time>
      </trkpt>
      <trkpt lat="43.38942" lon="2.50454">
        <ele>891.28</ele>
        <time>2014-06-02T10:40:30Z</time>
      </trkpt>
      <trkpt lat="43.38948" lon="2.50467">
        <ele>894.16</ele>
        <time>2014-06-02T10:40:43Z</time>
      </trkpt>
      <trkpt lat="43.3895" lon="2.50473">
        <ele>895.61</ele>
        <time>2014-06-02T10:40:49Z</time>
      </trkpt>
      <trkpt lat="43.38955" lon="2.50484">
        <ele>897.05</ele>
        <time>2014-06-02T10:41:01Z</time>
      </trkpt>
      <trkpt lat="43.38956" lon="2.50485">
        <ele>897.05</ele>
        <time>2014-06-02T10:41:03Z</time>
      </trkpt>
      <trkpt lat="43.38963" lon="2.50491">
        <ele>896.57</ele>
        <time>2014-06-02T10:41:15Z</time>
      </trkpt>
      <trkpt lat="43.38971" lon="2.50497">
        <ele>898.01</ele>
        <time>2014-06-02T10:41:26Z</time>
      </trkpt>
      <trkpt lat="43.38974" lon="2.505">
        <ele>898.49</ele>
        <time>2014-06-02T10:41:32Z</time>
      </trkpt>
      <trkpt lat="43.38978" lon="2.50508">
        <ele>900.89</ele>
        <time>2014-06-02T10:41:41Z</time>
      </trkpt>
      <trkpt lat="43.38981" lon="2.50511">
        <ele>901.37</ele>
        <time>2014-06-02T10:41:45Z</time>
      </trkpt>
      <trkpt lat="43.38987" lon="2.50522">
        <ele>903.3</ele>
        <time>2014-06-02T10:41:57Z</time>
      </trkpt>
      <trkpt lat="43.38996" lon="2.5053">
        <ele>905.7</ele>
        <time>2014-06-02T10:42:09Z</time>
      </trkpt>
      <trkpt lat="43.39001" lon="2.50538">
        <ele>907.14</ele>
        <time>2014-06-02T10:42:19Z</time>
      </trkpt>
      <trkpt lat="43.39004" lon="2.50541">
        <ele>908.1</ele>
        <time>2014-06-02T10:42:23Z</time>
      </trkpt>
      <trkpt lat="43.39009" lon="2.50547">
        <ele>910.03</ele>
        <time>2014-06-02T10:42:34Z</time>
      </trkpt>
      <trkpt lat="43.39015" lon="2.50557">
        <ele>910.99</ele>
        <time>2014-06-02T10:42:46Z</time>
      </trkpt>
      <trkpt lat="43.3902" lon="2.50568">
        <ele>912.43</ele>
        <time>2014-06-02T10:42:58Z</time>
      </trkpt>
      <trkpt lat="43.39026" lon="2.50575">
        <ele>914.83</ele>
        <time>2014-06-02T10:43:07Z</time>
      </trkpt>
      <trkpt lat="43.39027" lon="2.50577">
        <ele>915.79</ele>
        <time>2014-06-02T10:43:10Z</time>
      </trkpt>
      <trkpt lat="43.39033" lon="2.50584">
        <ele>918.68</ele>
        <time>2014-06-02T10:43:21Z</time>
      </trkpt>
      <trkpt lat="43.39036" lon="2.50588">
        <ele>920.12</ele>
        <time>2014-06-02T10:43:35Z</time>
      </trkpt>
      <trkpt lat="43.39043" lon="2.50594">
        <ele>920.6</ele>
        <time>2014-06-02T10:43:47Z</time>
      </trkpt>
      <trkpt lat="43.39044" lon="2.50596">
        <ele>920.6</ele>
        <time>2014-06-02T10:43:49Z</time>
      </trkpt>
      <trkpt lat="43.39051" lon="2.50605">
        <ele>922.04</ele>
        <time>2014-06-02T10:44:02Z</time>
      </trkpt>
      <trkpt lat="43.39059" lon="2.50615">
        <ele>923.96</ele>
        <time>2014-06-02T10:44:14Z</time>
      </trkpt>
      <trkpt lat="43.39066" lon="2.50621">
        <ele>923.48</ele>
        <time>2014-06-02T10:44:26Z</time>
      </trkpt>
      <trkpt lat="43.39074" lon="2.5063">
        <ele>924.93</ele>
        <time>2014-06-02T10:44:43Z</time>
      </trkpt>
      <trkpt lat="43.39072" lon="2.50634">
        <ele>926.37</ele>
        <time>2014-06-02T10:45:00Z</time>
      </trkpt>
      <trkpt lat="43.39072" lon="2.50635">
        <ele>926.37</ele>
        <time>2014-06-02T10:45:17Z</time>
      </trkpt>
      <trkpt lat="43.39073" lon="2.50636">
        <ele>927.33</ele>
        <time>2014-06-02T10:45:42Z</time>
      </trkpt>
      <trkpt lat="43.39082" lon="2.50644">
        <ele>928.29</ele>
        <time>2014-06-02T10:45:55Z</time>
      </trkpt>
      <trkpt lat="43.39082" lon="2.50648">
        <ele>928.77</ele>
        <time>2014-06-02T10:46:11Z</time>
      </trkpt>
      <trkpt lat="43.39082" lon="2.50652">
        <ele>928.77</ele>
        <time>2014-06-02T10:46:23Z</time>
      </trkpt>
      <trkpt lat="43.39084" lon="2.50659">
        <ele>928.77</ele>
        <time>2014-06-02T10:46:28Z</time>
      </trkpt>
      <trkpt lat="43.39091" lon="2.50664">
        <ele>927.81</ele>
        <time>2014-06-02T10:46:40Z</time>
      </trkpt>
      <trkpt lat="43.39095" lon="2.50669">
        <ele>926.85</ele>
        <time>2014-06-02T10:46:53Z</time>
      </trkpt>
      <trkpt lat="43.39097" lon="2.50672">
        <ele>926.85</ele>
        <time>2014-06-02T10:47:02Z</time>
      </trkpt>
      <trkpt lat="43.39097" lon="2.5068">
        <ele>925.89</ele>
        <time>2014-06-02T10:47:09Z</time>
      </trkpt>
      <trkpt lat="43.39109" lon="2.50697">
        <ele>923.96</ele>
        <time>2014-06-02T10:47:22Z</time>
      </trkpt>
      <trkpt lat="43.39117" lon="2.50706">
        <ele>921.56</ele>
        <time>2014-06-02T10:47:30Z</time>
      </trkpt>
      <trkpt lat="43.39131" lon="2.5072">
        <ele>920.12</ele>
        <time>2014-06-02T10:47:43Z</time>
      </trkpt>
      <trkpt lat="43.39137" lon="2.50726">
        <ele>919.16</ele>
        <time>2014-06-02T10:47:49Z</time>
      </trkpt>
      <trkpt lat="43.3915" lon="2.50741">
        <ele>916.27</ele>
        <time>2014-06-02T10:48:02Z</time>
      </trkpt>
      <trkpt lat="43.39152" lon="2.50743">
        <ele>916.27</ele>
        <time>2014-06-02T10:48:04Z</time>
      </trkpt>
      <trkpt lat="43.39154" lon="2.50745">
        <ele>916.27</ele>
        <time>2014-06-02T10:48:06Z</time>
      </trkpt>
      <trkpt lat="43.39165" lon="2.50761">
        <ele>916.75</ele>
        <time>2014-06-02T10:48:19Z</time>
      </trkpt>
      <trkpt lat="43.39177" lon="2.50775">
        <ele>917.72</ele>
        <time>2014-06-02T10:48:32Z</time>
      </trkpt>
      <trkpt lat="43.39187" lon="2.50789">
        <ele>920.12</ele>
        <time>2014-06-02T10:48:44Z</time>
      </trkpt>
      <trkpt lat="43.3919" lon="2.50791">
        <ele>921.08</ele>
        <time>2014-06-02T10:48:47Z</time>
      </trkpt>
      <trkpt lat="43.39196" lon="2.50799">
        <ele>923</ele>
        <time>2014-06-02T10:48:54Z</time>
      </trkpt>
      <trkpt lat="43.39204" lon="2.50809">
        <ele>926.37</ele>
        <time>2014-06-02T10:49:05Z</time>
      </trkpt>
      <trkpt lat="43.39211" lon="2.50816">
        <ele>927.81</ele>
        <time>2014-06-02T10:49:13Z</time>
      </trkpt>
      <trkpt lat="43.39217" lon="2.50825">
        <ele>929.73</ele>
        <time>2014-06-02T10:49:23Z</time>
      </trkpt>
      <trkpt lat="43.39225" lon="2.50832">
        <ele>933.1</ele>
        <time>2014-06-02T10:49:34Z</time>
      </trkpt>
      <trkpt lat="43.39232" lon="2.50835">
        <ele>934.54</ele>
        <time>2014-06-02T10:49:42Z</time>
      </trkpt>
      <trkpt lat="43.39245" lon="2.50838">
        <ele>935.98</ele>
        <time>2014-06-02T10:49:56Z</time>
      </trkpt>
      <trkpt lat="43.39258" lon="2.50839">
        <ele>935.5</ele>
        <time>2014-06-02T10:50:07Z</time>
      </trkpt>
      <trkpt lat="43.39272" lon="2.50839">
        <ele>934.54</ele>
        <time>2014-06-02T10:50:20Z</time>
      </trkpt>
      <trkpt lat="43.39285" lon="2.50847">
        <ele>934.06</ele>
        <time>2014-06-02T10:50:32Z</time>
      </trkpt>
      <trkpt lat="43.39298" lon="2.50851">
        <ele>933.1</ele>
        <time>2014-06-02T10:50:43Z</time>
      </trkpt>
      <trkpt lat="43.39311" lon="2.50856">
        <ele>931.17</ele>
        <time>2014-06-02T10:50:56Z</time>
      </trkpt>
      <trkpt lat="43.39326" lon="2.50865">
        <ele>930.21</ele>
        <time>2014-06-02T10:51:10Z</time>
      </trkpt>
      <trkpt lat="43.39329" lon="2.50866">
        <ele>930.21</ele>
        <time>2014-06-02T10:51:14Z</time>
      </trkpt>
      <trkpt lat="43.39342" lon="2.50883">
        <ele>931.17</ele>
        <time>2014-06-02T10:51:28Z</time>
      </trkpt>
      <trkpt lat="43.39342" lon="2.50884">
        <ele>931.17</ele>
        <time>2014-06-02T10:51:29Z</time>
      </trkpt>
      <trkpt lat="43.39351" lon="2.50901">
        <ele>932.14</ele>
        <time>2014-06-02T10:51:41Z</time>
      </trkpt>
      <trkpt lat="43.39362" lon="2.50911">
        <ele>934.54</ele>
        <time>2014-06-02T10:51:54Z</time>
      </trkpt>
      <trkpt lat="43.39364" lon="2.50911">
        <ele>932.14</ele>
        <time>2014-06-02T10:52:08Z</time>
      </trkpt>
      <trkpt lat="43.39371" lon="2.5091">
        <ele>927.33</ele>
        <time>2014-06-02T10:52:20Z</time>
      </trkpt>
      <trkpt lat="43.39374" lon="2.50911">
        <ele>925.89</ele>
        <time>2014-06-02T10:52:25Z</time>
      </trkpt>
      <trkpt lat="43.39376" lon="2.50914">
        <ele>924.93</ele>
        <time>2014-06-02T10:52:29Z</time>
      </trkpt>
      <trkpt lat="43.39378" lon="2.50917">
        <ele>923</ele>
        <time>2014-06-02T10:52:40Z</time>
      </trkpt>
      <trkpt lat="43.39388" lon="2.50909">
        <ele>919.64</ele>
        <time>2014-06-02T10:52:51Z</time>
      </trkpt>
      <trkpt lat="43.394" lon="2.509">
        <ele>915.31</ele>
        <time>2014-06-02T10:53:02Z</time>
      </trkpt>
      <trkpt lat="43.39407" lon="2.50892">
        <ele>913.39</ele>
        <time>2014-06-02T10:53:11Z</time>
      </trkpt>
      <trkpt lat="43.39413" lon="2.50888">
        <ele>912.43</ele>
        <time>2014-06-02T10:53:17Z</time>
      </trkpt>
      <trkpt lat="43.39426" lon="2.50885">
        <ele>909.54</ele>
        <time>2014-06-02T10:53:30Z</time>
      </trkpt>
      <trkpt lat="43.39432" lon="2.50876">
        <ele>907.14</ele>
        <time>2014-06-02T10:53:43Z</time>
      </trkpt>
      <trkpt lat="43.39434" lon="2.50875">
        <ele>906.66</ele>
        <time>2014-06-02T10:53:47Z</time>
      </trkpt>
      <trkpt lat="43.39435" lon="2.50867">
        <ele>906.66</ele>
        <time>2014-06-02T10:53:58Z</time>
      </trkpt>
      <trkpt lat="43.39434" lon="2.5087">
        <ele>907.62</ele>
        <time>2014-06-02T10:54:10Z</time>
      </trkpt>
      <trkpt lat="43.39435" lon="2.50876">
        <ele>908.58</ele>
        <time>2014-06-02T10:54:23Z</time>
      </trkpt>
      <trkpt lat="43.39436" lon="2.50883">
        <ele>909.54</ele>
        <time>2014-06-02T10:54:34Z</time>
      </trkpt>
      <trkpt lat="43.39436" lon="2.50885">
        <ele>909.54</ele>
        <time>2014-06-02T10:54:40Z</time>
      </trkpt>
      <trkpt lat="43.39434" lon="2.5089">
        <ele>910.03</ele>
        <time>2014-06-02T10:54:45Z</time>
      </trkpt>
      <trkpt lat="43.39432" lon="2.50889">
        <ele>912.43</ele>
        <time>2014-06-02T10:55:00Z</time>
      </trkpt>
      <trkpt lat="43.39432" lon="2.50888">
        <ele>912.91</ele>
        <time>2014-06-02T10:55:15Z</time>
      </trkpt>
      <trkpt lat="43.39431" lon="2.50885">
        <ele>912.43</ele>
        <time>2014-06-02T10:55:23Z</time>
      </trkpt>
      <trkpt lat="43.39431" lon="2.50884">
        <ele>913.87</ele>
        <time>2014-06-02T10:55:38Z</time>
      </trkpt>
      <trkpt lat="43.39431" lon="2.5089">
        <ele>912.91</ele>
        <time>2014-06-02T10:55:53Z</time>
      </trkpt>
      <trkpt lat="43.39434" lon="2.50898">
        <ele>912.91</ele>
        <time>2014-06-02T10:55:59Z</time>
      </trkpt>
      <trkpt lat="43.39436" lon="2.50915">
        <ele>911.95</ele>
        <time>2014-06-02T10:56:10Z</time>
      </trkpt>
      <trkpt lat="43.39437" lon="2.50924">
        <ele>910.99</ele>
        <time>2014-06-02T10:56:15Z</time>
      </trkpt>
      <trkpt lat="43.39444" lon="2.5094">
        <ele>908.1</ele>
        <time>2014-06-02T10:56:26Z</time>
      </trkpt>
      <trkpt lat="43.39448" lon="2.50948">
        <ele>907.14</ele>
        <time>2014-06-02T10:56:33Z</time>
      </trkpt>
      <trkpt lat="43.39453" lon="2.50957">
        <ele>906.18</ele>
        <time>2014-06-02T10:56:40Z</time>
      </trkpt>
      <trkpt lat="43.39457" lon="2.5096">
        <ele>905.7</ele>
        <time>2014-06-02T10:56:44Z</time>
      </trkpt>
      <trkpt lat="43.3947" lon="2.5097">
        <ele>903.78</ele>
        <time>2014-06-02T10:56:56Z</time>
      </trkpt>
      <trkpt lat="43.39472" lon="2.50971">
        <ele>903.3</ele>
        <time>2014-06-02T10:56:58Z</time>
      </trkpt>
      <trkpt lat="43.39479" lon="2.50986">
        <ele>901.37</ele>
        <time>2014-06-02T10:57:09Z</time>
      </trkpt>
      <trkpt lat="43.39481" lon="2.50996">
        <ele>900.89</ele>
        <time>2014-06-02T10:57:21Z</time>
      </trkpt>
      <trkpt lat="43.39486" lon="2.51009">
        <ele>901.37</ele>
        <time>2014-06-02T10:57:31Z</time>
      </trkpt>
      <trkpt lat="43.39488" lon="2.5102">
        <ele>900.41</ele>
        <time>2014-06-02T10:57:38Z</time>
      </trkpt>
      <trkpt lat="43.3949" lon="2.51027">
        <ele>899.45</ele>
        <time>2014-06-02T10:57:43Z</time>
      </trkpt>
      <trkpt lat="43.39491" lon="2.51033">
        <ele>898.97</ele>
        <time>2014-06-02T10:57:48Z</time>
      </trkpt>
      <trkpt lat="43.39506" lon="2.51044">
        <ele>895.61</ele>
        <time>2014-06-02T10:58:01Z</time>
      </trkpt>
      <trkpt lat="43.39521" lon="2.51055">
        <ele>892.24</ele>
        <time>2014-06-02T10:58:14Z</time>
      </trkpt>
      <trkpt lat="43.39535" lon="2.51068">
        <ele>888.4</ele>
        <time>2014-06-02T10:58:28Z</time>
      </trkpt>
      <trkpt lat="43.39551" lon="2.5108">
        <ele>886.47</ele>
        <time>2014-06-02T10:58:41Z</time>
      </trkpt>
      <trkpt lat="43.39566" lon="2.5109">
        <ele>881.19</ele>
        <time>2014-06-02T10:58:55Z</time>
      </trkpt>
      <trkpt lat="43.39573" lon="2.51095">
        <ele>881.19</ele>
        <time>2014-06-02T10:59:02Z</time>
      </trkpt>
      <trkpt lat="43.39586" lon="2.51107">
        <ele>882.15</ele>
        <time>2014-06-02T10:59:15Z</time>
      </trkpt>
      <trkpt lat="43.39599" lon="2.51117">
        <ele>883.11</ele>
        <time>2014-06-02T10:59:27Z</time>
      </trkpt>
      <trkpt lat="43.396" lon="2.51118">
        <ele>883.59</ele>
        <time>2014-06-02T10:59:28Z</time>
      </trkpt>
      <trkpt lat="43.39613" lon="2.51128">
        <ele>885.03</ele>
        <time>2014-06-02T10:59:40Z</time>
      </trkpt>
      <trkpt lat="43.39626" lon="2.51133">
        <ele>885.99</ele>
        <time>2014-06-02T10:59:51Z</time>
      </trkpt>
      <trkpt lat="43.39642" lon="2.51128">
        <ele>885.51</ele>
        <time>2014-06-02T11:00:03Z</time>
      </trkpt>
      <trkpt lat="43.3966" lon="2.5112">
        <ele>887.91</ele>
        <time>2014-06-02T11:00:17Z</time>
      </trkpt>
      <trkpt lat="43.39674" lon="2.51115">
        <ele>890.8</ele>
        <time>2014-06-02T11:00:29Z</time>
      </trkpt>
      <trkpt lat="43.39683" lon="2.51111">
        <ele>891.28</ele>
        <time>2014-06-02T11:00:42Z</time>
      </trkpt>
      <trkpt lat="43.39685" lon="2.51111">
        <ele>891.28</ele>
        <time>2014-06-02T11:00:57Z</time>
      </trkpt>
      <trkpt lat="43.39683" lon="2.51107">
        <ele>890.32</ele>
        <time>2014-06-02T11:01:21Z</time>
      </trkpt>
      <trkpt lat="43.39685" lon="2.5111">
        <ele>891.76</ele>
        <time>2014-06-02T11:01:36Z</time>
      </trkpt>
      <trkpt lat="43.39686" lon="2.5111">
        <ele>891.28</ele>
        <time>2014-06-02T11:01:37Z</time>
      </trkpt>
      <trkpt lat="43.39694" lon="2.51118">
        <ele>890.32</ele>
        <time>2014-06-02T11:01:49Z</time>
      </trkpt>
      <trkpt lat="43.39694" lon="2.51118">
        <ele>890.32</ele>
        <time>2014-06-02T11:01:54Z</time>
      </trkpt>
      <trkpt lat="43.39705" lon="2.51133">
        <ele>889.84</ele>
        <time>2014-06-02T11:02:08Z</time>
      </trkpt>
      <trkpt lat="43.39705" lon="2.51134">
        <ele>889.84</ele>
        <time>2014-06-02T11:02:13Z</time>
      </trkpt>
      <trkpt lat="43.39714" lon="2.51147">
        <ele>889.36</ele>
        <time>2014-06-02T11:02:25Z</time>
      </trkpt>
      <trkpt lat="43.39718" lon="2.51151">
        <ele>888.88</ele>
        <time>2014-06-02T11:02:41Z</time>
      </trkpt>
      <trkpt lat="43.3972" lon="2.51157">
        <ele>889.84</ele>
        <time>2014-06-02T11:02:50Z</time>
      </trkpt>
      <trkpt lat="43.39728" lon="2.51176">
        <ele>891.28</ele>
        <time>2014-06-02T11:03:03Z</time>
      </trkpt>
      <trkpt lat="43.39732" lon="2.51192">
        <ele>891.76</ele>
        <time>2014-06-02T11:03:15Z</time>
      </trkpt>
      <trkpt lat="43.39737" lon="2.51208">
        <ele>893.2</ele>
        <time>2014-06-02T11:03:27Z</time>
      </trkpt>
      <trkpt lat="43.39739" lon="2.51209">
        <ele>894.64</ele>
        <time>2014-06-02T11:03:40Z</time>
      </trkpt>
      <trkpt lat="43.39738" lon="2.51205">
        <ele>895.12</ele>
        <time>2014-06-02T11:03:55Z</time>
      </trkpt>
      <trkpt lat="43.3974" lon="2.51199">
        <ele>892.72</ele>
        <time>2014-06-02T11:04:04Z</time>
      </trkpt>
      <trkpt lat="43.39746" lon="2.51201">
        <ele>890.32</ele>
        <time>2014-06-02T11:04:12Z</time>
      </trkpt>
      <trkpt lat="43.39749" lon="2.51201">
        <ele>889.36</ele>
        <time>2014-06-02T11:04:15Z</time>
      </trkpt>
      <trkpt lat="43.39757" lon="2.51202">
        <ele>887.43</ele>
        <time>2014-06-02T11:04:26Z</time>
      </trkpt>
      <trkpt lat="43.39762" lon="2.51199">
        <ele>885.51</ele>
        <time>2014-06-02T11:04:37Z</time>
      </trkpt>
      <trkpt lat="43.39764" lon="2.51201">
        <ele>885.03</ele>
        <time>2014-06-02T11:04:51Z</time>
      </trkpt>
      <trkpt lat="43.39764" lon="2.51205">
        <ele>885.51</ele>
        <time>2014-06-02T11:05:04Z</time>
      </trkpt>
      <trkpt lat="43.39764" lon="2.51207">
        <ele>885.03</ele>
        <time>2014-06-02T11:05:15Z</time>
      </trkpt>
      <trkpt lat="43.39764" lon="2.51212">
        <ele>884.07</ele>
        <time>2014-06-02T11:05:32Z</time>
      </trkpt>
      <trkpt lat="43.39765" lon="2.51212">
        <ele>879.74</ele>
        <time>2014-06-02T11:06:04Z</time>
      </trkpt>
      <trkpt lat="43.39767" lon="2.51211">
        <ele>878.78</ele>
        <time>2014-06-02T11:06:23Z</time>
      </trkpt>
      <trkpt lat="43.39771" lon="2.51211">
        <ele>881.19</ele>
        <time>2014-06-02T11:06:48Z</time>
      </trkpt>
      <trkpt lat="43.39779" lon="2.51215">
        <ele>882.15</ele>
        <time>2014-06-02T11:07:02Z</time>
      </trkpt>
      <trkpt lat="43.39787" lon="2.51212">
        <ele>881.19</ele>
        <time>2014-06-02T11:07:11Z</time>
      </trkpt>
      <trkpt lat="43.39787" lon="2.51204">
        <ele>876.38</ele>
        <time>2014-06-02T11:07:25Z</time>
      </trkpt>
      <trkpt lat="43.3979" lon="2.51193">
        <ele>874.46</ele>
        <time>2014-06-02T11:07:38Z</time>
      </trkpt>
      <trkpt lat="43.39792" lon="2.51186">
        <ele>873.5</ele>
        <time>2014-06-02T11:07:44Z</time>
      </trkpt>
      <trkpt lat="43.39795" lon="2.51169">
        <ele>871.57</ele>
        <time>2014-06-02T11:07:57Z</time>
      </trkpt>
      <trkpt lat="43.39794" lon="2.51154">
        <ele>869.17</ele>
        <time>2014-06-02T11:08:10Z</time>
      </trkpt>
      <trkpt lat="43.39795" lon="2.51135">
        <ele>865.8</ele>
        <time>2014-06-02T11:08:24Z</time>
      </trkpt>
      <trkpt lat="43.398" lon="2.51126">
        <ele>861</ele>
        <time>2014-06-02T11:08:37Z</time>
      </trkpt>
      <trkpt lat="43.398" lon="2.51124">
        <ele>859.08</ele>
        <time>2014-06-02T11:08:49Z</time>
      </trkpt>
      <trkpt lat="43.39806" lon="2.51119">
        <ele>858.59</ele>
        <time>2014-06-02T11:09:00Z</time>
      </trkpt>
      <trkpt lat="43.39806" lon="2.51114">
        <ele>859.56</ele>
        <time>2014-06-02T11:09:25Z</time>
      </trkpt>
      <trkpt lat="43.39806" lon="2.5111">
        <ele>859.56</ele>
        <time>2014-06-02T11:09:49Z</time>
      </trkpt>
      <trkpt lat="43.39805" lon="2.51114">
        <ele>861.48</ele>
        <time>2014-06-02T11:10:11Z</time>
      </trkpt>
      <trkpt lat="43.39814" lon="2.51122">
        <ele>858.59</ele>
        <time>2014-06-02T11:10:36Z</time>
      </trkpt>
      <trkpt lat="43.39815" lon="2.51113">
        <ele>856.19</ele>
        <time>2014-06-02T11:10:40Z</time>
      </trkpt>
      <trkpt lat="43.39819" lon="2.51106">
        <ele>855.23</ele>
        <time>2014-06-02T11:10:52Z</time>
      </trkpt>
      <trkpt lat="43.39814" lon="2.51094">
        <ele>852.35</ele>
        <time>2014-06-02T11:11:09Z</time>
      </trkpt>
      <trkpt lat="43.39814" lon="2.51085">
        <ele>856.67</ele>
        <time>2014-06-02T11:11:35Z</time>
      </trkpt>
      <trkpt lat="43.39812" lon="2.51075">
        <ele>853.31</ele>
        <time>2014-06-02T11:11:49Z</time>
      </trkpt>
      <trkpt lat="43.39814" lon="2.51069">
        <ele>850.9</ele>
        <time>2014-06-02T11:12:02Z</time>
      </trkpt>
      <trkpt lat="43.39817" lon="2.51063">
        <ele>849.94</ele>
        <time>2014-06-02T11:12:18Z</time>
      </trkpt>
      <trkpt lat="43.39818" lon="2.51061">
        <ele>848.02</ele>
        <time>2014-06-02T11:12:34Z</time>
      </trkpt>
      <trkpt lat="43.39824" lon="2.51052">
        <ele>843.69</ele>
        <time>2014-06-02T11:12:47Z</time>
      </trkpt>
      <trkpt lat="43.39832" lon="2.51046">
        <ele>838.89</ele>
        <time>2014-06-02T11:13:02Z</time>
      </trkpt>
      <trkpt lat="43.39839" lon="2.51039">
        <ele>836.96</ele>
        <time>2014-06-02T11:13:09Z</time>
      </trkpt>
      <trkpt lat="43.39843" lon="2.51023">
        <ele>832.64</ele>
        <time>2014-06-02T11:13:20Z</time>
      </trkpt>
      <trkpt lat="43.39848" lon="2.51012">
        <ele>826.87</ele>
        <time>2014-06-02T11:13:36Z</time>
      </trkpt>
      <trkpt lat="43.39848" lon="2.51006">
        <ele>822.06</ele>
        <time>2014-06-02T11:13:47Z</time>
      </trkpt>
      <trkpt lat="43.39855" lon="2.51002">
        <ele>821.1</ele>
        <time>2014-06-02T11:13:59Z</time>
      </trkpt>
      <trkpt lat="43.39857" lon="2.50998">
        <ele>817.26</ele>
        <time>2014-06-02T11:14:11Z</time>
      </trkpt>
      <trkpt lat="43.39855" lon="2.50991">
        <ele>817.74</ele>
        <time>2014-06-02T11:14:26Z</time>
      </trkpt>
      <trkpt lat="43.39854" lon="2.50988">
        <ele>818.22</ele>
        <time>2014-06-02T11:14:42Z</time>
      </trkpt>
      <trkpt lat="43.39853" lon="2.50989">
        <ele>820.14</ele>
        <time>2014-06-02T11:14:58Z</time>
      </trkpt>
      <trkpt lat="43.39856" lon="2.50991">
        <ele>820.62</ele>
        <time>2014-06-02T11:15:16Z</time>
      </trkpt>
      <trkpt lat="43.39855" lon="2.50987">
        <ele>820.62</ele>
        <time>2014-06-02T11:15:35Z</time>
      </trkpt>
      <trkpt lat="43.39855" lon="2.50989">
        <ele>814.85</ele>
        <time>2014-06-02T11:16:02Z</time>
      </trkpt>
      <trkpt lat="43.39853" lon="2.50991">
        <ele>819.66</ele>
        <time>2014-06-02T11:16:33Z</time>
      </trkpt>
      <trkpt lat="43.39854" lon="2.50993">
        <ele>824.47</ele>
        <time>2014-06-02T11:16:56Z</time>
      </trkpt>
      <trkpt lat="43.39857" lon="2.50989">
        <ele>828.31</ele>
        <time>2014-06-02T11:17:25Z</time>
      </trkpt>
      <trkpt lat="43.3986" lon="2.50993">
        <ele>827.35</ele>
        <time>2014-06-02T11:17:52Z</time>
      </trkpt>
      <trkpt lat="43.39855" lon="2.50987">
        <ele>821.1</ele>
        <time>2014-06-02T11:18:09Z</time>
      </trkpt>
      <trkpt lat="43.39858" lon="2.50989">
        <ele>820.62</ele>
        <time>2014-06-02T11:18:32Z</time>
      </trkpt>
      <trkpt lat="43.39859" lon="2.50988">
        <ele>819.66</ele>
        <time>2014-06-02T11:19:08Z</time>
      </trkpt>
      <trkpt lat="43.39856" lon="2.50989">
        <ele>813.41</ele>
        <time>2014-06-02T11:19:39Z</time>
      </trkpt>
      <trkpt lat="43.39852" lon="2.50984">
        <ele>824.47</ele>
        <time>2014-06-02T11:20:08Z</time>
      </trkpt>
      <trkpt lat="43.39854" lon="2.50987">
        <ele>821.1</ele>
        <time>2014-06-02T11:20:41Z</time>
      </trkpt>
      <trkpt lat="43.39857" lon="2.50984">
        <ele>819.66</ele>
        <time>2014-06-02T11:21:10Z</time>
      </trkpt>
      <trkpt lat="43.39858" lon="2.50984">
        <ele>821.58</ele>
        <time>2014-06-02T11:21:41Z</time>
      </trkpt>
      <trkpt lat="43.39856" lon="2.5099">
        <ele>820.62</ele>
        <time>2014-06-02T11:22:09Z</time>
      </trkpt>
      <trkpt lat="43.39851" lon="2.5099">
        <ele>820.62</ele>
        <time>2014-06-02T11:22:43Z</time>
      </trkpt>
      <trkpt lat="43.39853" lon="2.50988">
        <ele>822.55</ele>
        <time>2014-06-02T11:23:20Z</time>
      </trkpt>
      <trkpt lat="43.39851" lon="2.50989">
        <ele>823.99</ele>
        <time>2014-06-02T11:23:46Z</time>
      </trkpt>
      <trkpt lat="43.39852" lon="2.50992">
        <ele>822.06</ele>
        <time>2014-06-02T11:24:17Z</time>
      </trkpt>
      <trkpt lat="43.39855" lon="2.50991">
        <ele>824.95</ele>
        <time>2014-06-02T11:24:46Z</time>
      </trkpt>
      <trkpt lat="43.39859" lon="2.50991">
        <ele>824.47</ele>
        <time>2014-06-02T11:25:11Z</time>
      </trkpt>
      <trkpt lat="43.3986" lon="2.50986">
        <ele>821.58</ele>
        <time>2014-06-02T11:25:35Z</time>
      </trkpt>
      <trkpt lat="43.39852" lon="2.5098">
        <ele>818.22</ele>
        <time>2014-06-02T11:26:00Z</time>
      </trkpt>
      <trkpt lat="43.3985" lon="2.50979">
        <ele>822.06</ele>
        <time>2014-06-02T11:26:31Z</time>
      </trkpt>
      <trkpt lat="43.39852" lon="2.50984">
        <ele>825.43</ele>
        <time>2014-06-02T11:26:57Z</time>
      </trkpt>
      <trkpt lat="43.39853" lon="2.50985">
        <ele>827.35</ele>
        <time>2014-06-02T11:27:23Z</time>
      </trkpt>
      <trkpt lat="43.39856" lon="2.50979">
        <ele>825.43</ele>
        <time>2014-06-02T11:27:54Z</time>
      </trkpt>
      <trkpt lat="43.39854" lon="2.50978">
        <ele>827.83</ele>
        <time>2014-06-02T11:28:24Z</time>
      </trkpt>
      <trkpt lat="43.39857" lon="2.50985">
        <ele>824.95</ele>
        <time>2014-06-02T11:28:54Z</time>
      </trkpt>
      <trkpt lat="43.39856" lon="2.50982">
        <ele>826.39</ele>
        <time>2014-06-02T11:29:25Z</time>
      </trkpt>
      <trkpt lat="43.39854" lon="2.50987">
        <ele>828.79</ele>
        <time>2014-06-02T11:30:03Z</time>
      </trkpt>
      <trkpt lat="43.39852" lon="2.50989">
        <ele>830.72</ele>
        <time>2014-06-02T11:30:30Z</time>
      </trkpt>
      <trkpt lat="43.39852" lon="2.50983">
        <ele>826.39</ele>
        <time>2014-06-02T11:31:05Z</time>
      </trkpt>
      <trkpt lat="43.39855" lon="2.50978">
        <ele>825.91</ele>
        <time>2014-06-02T11:31:35Z</time>
      </trkpt>
      <trkpt lat="43.39855" lon="2.50988">
        <ele>820.62</ele>
        <time>2014-06-02T11:32:12Z</time>
      </trkpt>
      <trkpt lat="43.39856" lon="2.50985">
        <ele>828.79</ele>
        <time>2014-06-02T11:32:45Z</time>
      </trkpt>
      <trkpt lat="43.39856" lon="2.50987">
        <ele>831.2</ele>
        <time>2014-06-02T11:33:15Z</time>
      </trkpt>
      <trkpt lat="43.39856" lon="2.50982">
        <ele>837.45</ele>
        <time>2014-06-02T11:33:46Z</time>
      </trkpt>
      <trkpt lat="43.39855" lon="2.50982">
        <ele>831.68</ele>
        <time>2014-06-02T11:34:17Z</time>
      </trkpt>
      <trkpt lat="43.39856" lon="2.50976">
        <ele>835.04</ele>
        <time>2014-06-02T11:34:44Z</time>
      </trkpt>
      <trkpt lat="43.39858" lon="2.50979">
        <ele>831.68</ele>
        <time>2014-06-02T11:35:12Z</time>
      </trkpt>
      <trkpt lat="43.39863" lon="2.5098">
        <ele>825.91</ele>
        <time>2014-06-02T11:35:50Z</time>
      </trkpt>
      <trkpt lat="43.39859" lon="2.50973">
        <ele>832.64</ele>
        <time>2014-06-02T11:36:15Z</time>
      </trkpt>
      <trkpt lat="43.39852" lon="2.50971">
        <ele>828.79</ele>
        <time>2014-06-02T11:36:47Z</time>
      </trkpt>
      <trkpt lat="43.39851" lon="2.50976">
        <ele>828.31</ele>
        <time>2014-06-02T11:37:24Z</time>
      </trkpt>
      <trkpt lat="43.39854" lon="2.50978">
        <ele>825.91</ele>
        <time>2014-06-02T11:37:56Z</time>
      </trkpt>
      <trkpt lat="43.39854" lon="2.50977">
        <ele>825.43</ele>
        <time>2014-06-02T11:38:31Z</time>
      </trkpt>
      <trkpt lat="43.39852" lon="2.50975">
        <ele>826.39</ele>
        <time>2014-06-02T11:38:55Z</time>
      </trkpt>
      <trkpt lat="43.39848" lon="2.50977">
        <ele>824.47</ele>
        <time>2014-06-02T11:39:22Z</time>
      </trkpt>
      <trkpt lat="43.39852" lon="2.50986">
        <ele>819.66</ele>
        <time>2014-06-02T11:39:49Z</time>
      </trkpt>
      <trkpt lat="43.39856" lon="2.50983">
        <ele>823.99</ele>
        <time>2014-06-02T11:40:18Z</time>
      </trkpt>
      <trkpt lat="43.3986" lon="2.50987">
        <ele>818.7</ele>
        <time>2014-06-02T11:40:45Z</time>
      </trkpt>
      <trkpt lat="43.3986" lon="2.50984">
        <ele>823.03</ele>
        <time>2014-06-02T11:41:13Z</time>
      </trkpt>
      <trkpt lat="43.39857" lon="2.50987">
        <ele>823.03</ele>
        <time>2014-06-02T11:41:40Z</time>
      </trkpt>
      <trkpt lat="43.39857" lon="2.50988">
        <ele>821.1</ele>
        <time>2014-06-02T11:42:11Z</time>
      </trkpt>
      <trkpt lat="43.39853" lon="2.50989">
        <ele>815.82</ele>
        <time>2014-06-02T11:42:36Z</time>
      </trkpt>
      <trkpt lat="43.3985" lon="2.50992">
        <ele>817.26</ele>
        <time>2014-06-02T11:42:56Z</time>
      </trkpt>
      <trkpt lat="43.39856" lon="2.50998">
        <ele>815.82</ele>
        <time>2014-06-02T11:43:23Z</time>
      </trkpt>
      <trkpt lat="43.39857" lon="2.50997">
        <ele>817.26</ele>
        <time>2014-06-02T11:43:55Z</time>
      </trkpt>
      <trkpt lat="43.39861" lon="2.50993">
        <ele>819.18</ele>
        <time>2014-06-02T11:44:29Z</time>
      </trkpt>
      <trkpt lat="43.39859" lon="2.50995">
        <ele>817.26</ele>
        <time>2014-06-02T11:44:46Z</time>
      </trkpt>
      <trkpt lat="43.39858" lon="2.50988">
        <ele>817.26</ele>
        <time>2014-06-02T11:45:19Z</time>
      </trkpt>
      <trkpt lat="43.39858" lon="2.5099">
        <ele>820.62</ele>
        <time>2014-06-02T11:45:46Z</time>
      </trkpt>
      <trkpt lat="43.39856" lon="2.50988">
        <ele>827.35</ele>
        <time>2014-06-02T11:46:14Z</time>
      </trkpt>
      <trkpt lat="43.39857" lon="2.5099">
        <ele>821.1</ele>
        <time>2014-06-02T11:46:44Z</time>
      </trkpt>
      <trkpt lat="43.39858" lon="2.50993">
        <ele>819.18</ele>
        <time>2014-06-02T11:47:03Z</time>
      </trkpt>
      <trkpt lat="43.39852" lon="2.50992">
        <ele>821.58</ele>
        <time>2014-06-02T11:47:18Z</time>
      </trkpt>
      <trkpt lat="43.39856" lon="2.50986">
        <ele>824.47</ele>
        <time>2014-06-02T11:47:40Z</time>
      </trkpt>
      <trkpt lat="43.3985" lon="2.50981">
        <ele>824.47</ele>
        <time>2014-06-02T11:48:09Z</time>
      </trkpt>
      <trkpt lat="43.39851" lon="2.50979">
        <ele>830.24</ele>
        <time>2014-06-02T11:48:34Z</time>
      </trkpt>
      <trkpt lat="43.39851" lon="2.50981">
        <ele>828.31</ele>
        <time>2014-06-02T11:48:50Z</time>
      </trkpt>
      <trkpt lat="43.39853" lon="2.50982">
        <ele>826.87</ele>
        <time>2014-06-02T11:49:17Z</time>
      </trkpt>
      <trkpt lat="43.39852" lon="2.50984">
        <ele>825.91</ele>
        <time>2014-06-02T11:49:29Z</time>
      </trkpt>
      <trkpt lat="43.39852" lon="2.50984">
        <ele>825.91</ele>
        <time>2014-06-02T11:49:52Z</time>
      </trkpt>
      <trkpt lat="43.39855" lon="2.50982">
        <ele>827.83</ele>
        <time>2014-06-02T11:50:24Z</time>
      </trkpt>
      <trkpt lat="43.39849" lon="2.50993">
        <ele>824.47</ele>
        <time>2014-06-02T11:50:52Z</time>
      </trkpt>
      <trkpt lat="43.39852" lon="2.50991">
        <ele>825.91</ele>
        <time>2014-06-02T11:51:19Z</time>
      </trkpt>
      <trkpt lat="43.39847" lon="2.50992">
        <ele>825.43</ele>
        <time>2014-06-02T11:51:47Z</time>
      </trkpt>
      <trkpt lat="43.3985" lon="2.50984">
        <ele>819.66</ele>
        <time>2014-06-02T11:52:14Z</time>
      </trkpt>
      <trkpt lat="43.39857" lon="2.50982">
        <ele>819.66</ele>
        <time>2014-06-02T11:52:53Z</time>
      </trkpt>
      <trkpt lat="43.39856" lon="2.50985">
        <ele>824.47</ele>
        <time>2014-06-02T11:53:28Z</time>
      </trkpt>
      <trkpt lat="43.39853" lon="2.50987">
        <ele>823.99</ele>
        <time>2014-06-02T11:53:50Z</time>
      </trkpt>
      <trkpt lat="43.3985" lon="2.50996">
        <ele>824.47</ele>
        <time>2014-06-02T11:54:24Z</time>
      </trkpt>
      <trkpt lat="43.39852" lon="2.50999">
        <ele>825.43</ele>
        <time>2014-06-02T11:54:59Z</time>
      </trkpt>
      <trkpt lat="43.39857" lon="2.50994">
        <ele>823.03</ele>
        <time>2014-06-02T11:55:35Z</time>
      </trkpt>
      <trkpt lat="43.39859" lon="2.50976">
        <ele>823.03</ele>
        <time>2014-06-02T11:56:07Z</time>
      </trkpt>
      <trkpt lat="43.39859" lon="2.50974">
        <ele>824.95</ele>
        <time>2014-06-02T11:56:40Z</time>
      </trkpt>
      <trkpt lat="43.39852" lon="2.5098">
        <ele>825.91</ele>
        <time>2014-06-02T11:57:07Z</time>
      </trkpt>
      <trkpt lat="43.3985" lon="2.50987">
        <ele>828.79</ele>
        <time>2014-06-02T11:57:39Z</time>
      </trkpt>
      <trkpt lat="43.3985" lon="2.50987">
        <ele>829.27</ele>
        <time>2014-06-02T11:58:04Z</time>
      </trkpt>
      <trkpt lat="43.39849" lon="2.50982">
        <ele>828.79</ele>
        <time>2014-06-02T11:58:21Z</time>
      </trkpt>
      <trkpt lat="43.3985" lon="2.50978">
        <ele>826.87</ele>
        <time>2014-06-02T11:58:53Z</time>
      </trkpt>
      <trkpt lat="43.39852" lon="2.50983">
        <ele>823.51</ele>
        <time>2014-06-02T11:59:15Z</time>
      </trkpt>
      <trkpt lat="43.39859" lon="2.50989">
        <ele>820.62</ele>
        <time>2014-06-02T11:59:39Z</time>
      </trkpt>
      <trkpt lat="43.39858" lon="2.5099">
        <ele>812.45</ele>
        <time>2014-06-02T12:00:00Z</time>
      </trkpt>
      <trkpt lat="43.3986" lon="2.50986">
        <ele>815.82</ele>
        <time>2014-06-02T12:00:23Z</time>
      </trkpt>
      <trkpt lat="43.39857" lon="2.50985">
        <ele>812.45</ele>
        <time>2014-06-02T12:00:40Z</time>
      </trkpt>
      <trkpt lat="43.39855" lon="2.50985">
        <ele>811.97</ele>
        <time>2014-06-02T12:00:58Z</time>
      </trkpt>
      <trkpt lat="43.39858" lon="2.50981">
        <ele>811.49</ele>
        <time>2014-06-02T12:01:18Z</time>
      </trkpt>
      <trkpt lat="43.39859" lon="2.5097">
        <ele>812.45</ele>
        <time>2014-06-02T12:01:30Z</time>
      </trkpt>
      <trkpt lat="43.3986" lon="2.50961">
        <ele>814.37</ele>
        <time>2014-06-02T12:01:40Z</time>
      </trkpt>
      <trkpt lat="43.39862" lon="2.50959">
        <ele>814.37</ele>
        <time>2014-06-02T12:01:47Z</time>
      </trkpt>
      <trkpt lat="43.39861" lon="2.50952">
        <ele>813.89</ele>
        <time>2014-06-02T12:01:51Z</time>
      </trkpt>
      <trkpt lat="43.3986" lon="2.50944">
        <ele>814.85</ele>
        <time>2014-06-02T12:01:56Z</time>
      </trkpt>
      <trkpt lat="43.39858" lon="2.50941">
        <ele>813.41</ele>
        <time>2014-06-02T12:02:00Z</time>
      </trkpt>
      <trkpt lat="43.39857" lon="2.50938">
        <ele>812.93</ele>
        <time>2014-06-02T12:02:02Z</time>
      </trkpt>
      <trkpt lat="43.3985" lon="2.50923">
        <ele>809.09</ele>
        <time>2014-06-02T12:02:15Z</time>
      </trkpt>
      <trkpt lat="43.39845" lon="2.50919">
        <ele>806.2</ele>
        <time>2014-06-02T12:02:27Z</time>
      </trkpt>
      <trkpt lat="43.39839" lon="2.5091">
        <ele>799.95</ele>
        <time>2014-06-02T12:02:39Z</time>
      </trkpt>
      <trkpt lat="43.39832" lon="2.509">
        <ele>793.71</ele>
        <time>2014-06-02T12:02:52Z</time>
      </trkpt>
      <trkpt lat="43.39829" lon="2.50895">
        <ele>792.74</ele>
        <time>2014-06-02T12:02:56Z</time>
      </trkpt>
      <trkpt lat="43.39822" lon="2.50882">
        <ele>791.78</ele>
        <time>2014-06-02T12:03:08Z</time>
      </trkpt>
      <trkpt lat="43.3982" lon="2.50877">
        <ele>790.34</ele>
        <time>2014-06-02T12:03:27Z</time>
      </trkpt>
      <trkpt lat="43.39815" lon="2.50869">
        <ele>786.98</ele>
        <time>2014-06-02T12:03:39Z</time>
      </trkpt>
      <trkpt lat="43.39812" lon="2.50866">
        <ele>786.02</ele>
        <time>2014-06-02T12:03:59Z</time>
      </trkpt>
      <trkpt lat="43.39806" lon="2.50862">
        <ele>783.61</ele>
        <time>2014-06-02T12:04:27Z</time>
      </trkpt>
      <trkpt lat="43.39801" lon="2.50851">
        <ele>780.73</ele>
        <time>2014-06-02T12:04:40Z</time>
      </trkpt>
      <trkpt lat="43.39796" lon="2.50841">
        <ele>777.84</ele>
        <time>2014-06-02T12:04:51Z</time>
      </trkpt>
      <trkpt lat="43.39787" lon="2.50832">
        <ele>773.52</ele>
        <time>2014-06-02T12:05:04Z</time>
      </trkpt>
      <trkpt lat="43.3978" lon="2.50827">
        <ele>768.71</ele>
        <time>2014-06-02T12:05:16Z</time>
      </trkpt>
      <trkpt lat="43.39774" lon="2.50819">
        <ele>767.75</ele>
        <time>2014-06-02T12:05:26Z</time>
      </trkpt>
      <trkpt lat="43.39768" lon="2.50808">
        <ele>765.83</ele>
        <time>2014-06-02T12:05:38Z</time>
      </trkpt>
      <trkpt lat="43.39765" lon="2.50806">
        <ele>763.42</ele>
        <time>2014-06-02T12:05:55Z</time>
      </trkpt>
      <trkpt lat="43.39763" lon="2.50807">
        <ele>760.54</ele>
        <time>2014-06-02T12:06:25Z</time>
      </trkpt>
      <trkpt lat="43.39763" lon="2.50806">
        <ele>762.46</ele>
        <time>2014-06-02T12:06:47Z</time>
      </trkpt>
      <trkpt lat="43.39765" lon="2.50805">
        <ele>762.46</ele>
        <time>2014-06-02T12:07:06Z</time>
      </trkpt>
      <trkpt lat="43.39764" lon="2.50805">
        <ele>762.46</ele>
        <time>2014-06-02T12:07:24Z</time>
      </trkpt>
      <trkpt lat="43.39763" lon="2.50808">
        <ele>761.98</ele>
        <time>2014-06-02T12:07:46Z</time>
      </trkpt>
      <trkpt lat="43.39764" lon="2.50806">
        <ele>762.94</ele>
        <time>2014-06-02T12:08:06Z</time>
      </trkpt>
      <trkpt lat="43.39762" lon="2.50801">
        <ele>766.79</ele>
        <time>2014-06-02T12:08:30Z</time>
      </trkpt>
      <trkpt lat="43.39763" lon="2.50803">
        <ele>767.75</ele>
        <time>2014-06-02T12:08:51Z</time>
      </trkpt>
      <trkpt lat="43.39762" lon="2.50803">
        <ele>767.27</ele>
        <time>2014-06-02T12:09:07Z</time>
      </trkpt>
      <trkpt lat="43.39765" lon="2.50806">
        <ele>762.94</ele>
        <time>2014-06-02T12:09:33Z</time>
      </trkpt>
      <trkpt lat="43.39765" lon="2.50806">
        <ele>761.98</ele>
        <time>2014-06-02T12:09:53Z</time>
      </trkpt>
      <trkpt lat="43.39763" lon="2.50804">
        <ele>761.98</ele>
        <time>2014-06-02T12:10:18Z</time>
      </trkpt>
      <trkpt lat="43.39763" lon="2.50804">
        <ele>761.5</ele>
        <time>2014-06-02T12:10:29Z</time>
      </trkpt>
      <trkpt lat="43.39763" lon="2.50806">
        <ele>760.06</ele>
        <time>2014-06-02T12:10:54Z</time>
      </trkpt>
      <trkpt lat="43.39762" lon="2.50806">
        <ele>757.66</ele>
        <time>2014-06-02T12:11:18Z</time>
      </trkpt>
      <trkpt lat="43.39763" lon="2.50808">
        <ele>758.14</ele>
        <time>2014-06-02T12:11:53Z</time>
      </trkpt>
      <trkpt lat="43.39762" lon="2.5081">
        <ele>757.66</ele>
        <time>2014-06-02T12:12:28Z</time>
      </trkpt>
      <trkpt lat="43.39763" lon="2.50808">
        <ele>758.62</ele>
        <time>2014-06-02T12:13:04Z</time>
      </trkpt>
      <trkpt lat="43.39765" lon="2.50807">
        <ele>760.06</ele>
        <time>2014-06-02T12:13:40Z</time>
      </trkpt>
      <trkpt lat="43.39764" lon="2.50806">
        <ele>761.02</ele>
        <time>2014-06-02T12:13:52Z</time>
      </trkpt>
      <trkpt lat="43.39764" lon="2.50808">
        <ele>761.5</ele>
        <time>2014-06-02T12:14:14Z</time>
      </trkpt>
      <trkpt lat="43.39763" lon="2.50807">
        <ele>760.54</ele>
        <time>2014-06-02T12:14:35Z</time>
      </trkpt>
      <trkpt lat="43.39763" lon="2.50807">
        <ele>761.98</ele>
        <time>2014-06-02T12:15:01Z</time>
      </trkpt>
      <trkpt lat="43.39761" lon="2.50808">
        <ele>762.94</ele>
        <time>2014-06-02T12:15:25Z</time>
      </trkpt>
      <trkpt lat="43.39761" lon="2.50805">
        <ele>763.9</ele>
        <time>2014-06-02T12:15:46Z</time>
      </trkpt>
      <trkpt lat="43.39761" lon="2.50803">
        <ele>764.87</ele>
        <time>2014-06-02T12:16:03Z</time>
      </trkpt>
      <trkpt lat="43.39767" lon="2.50803">
        <ele>764.87</ele>
        <time>2014-06-02T12:16:28Z</time>
      </trkpt>
      <trkpt lat="43.39766" lon="2.50802">
        <ele>767.27</ele>
        <time>2014-06-02T12:16:48Z</time>
      </trkpt>
      <trkpt lat="43.39766" lon="2.508">
        <ele>764.87</ele>
        <time>2014-06-02T12:17:06Z</time>
      </trkpt>
      <trkpt lat="43.39764" lon="2.50802">
        <ele>765.35</ele>
        <time>2014-06-02T12:17:21Z</time>
      </trkpt>
      <trkpt lat="43.39765" lon="2.50802">
        <ele>764.87</ele>
        <time>2014-06-02T12:17:41Z</time>
      </trkpt>
      <trkpt lat="43.39762" lon="2.50796">
        <ele>763.42</ele>
        <time>2014-06-02T12:17:49Z</time>
      </trkpt>
      <trkpt lat="43.39759" lon="2.50792">
        <ele>762.46</ele>
        <time>2014-06-02T12:17:54Z</time>
      </trkpt>
      <trkpt lat="43.39751" lon="2.50782">
        <ele>759.58</ele>
        <time>2014-06-02T12:18:07Z</time>
      </trkpt>
      <trkpt lat="43.39748" lon="2.50782">
        <ele>761.5</ele>
        <time>2014-06-02T12:18:23Z</time>
      </trkpt>
      <trkpt lat="43.39746" lon="2.50776">
        <ele>758.62</ele>
        <time>2014-06-02T12:18:41Z</time>
      </trkpt>
      <trkpt lat="43.39745" lon="2.5077">
        <ele>755.73</ele>
        <time>2014-06-02T12:18:49Z</time>
      </trkpt>
      <trkpt lat="43.39744" lon="2.50767">
        <ele>752.85</ele>
        <time>2014-06-02T12:19:01Z</time>
      </trkpt>
      <trkpt lat="43.39742" lon="2.5076">
        <ele>751.89</ele>
        <time>2014-06-02T12:19:11Z</time>
      </trkpt>
      <trkpt lat="43.39739" lon="2.50755">
        <ele>750.45</ele>
        <time>2014-06-02T12:19:22Z</time>
      </trkpt>
      <trkpt lat="43.39737" lon="2.5075">
        <ele>749.97</ele>
        <time>2014-06-02T12:19:29Z</time>
      </trkpt>
      <trkpt lat="43.39734" lon="2.50738">
        <ele>748.52</ele>
        <time>2014-06-02T12:19:43Z</time>
      </trkpt>
      <trkpt lat="43.39732" lon="2.50727">
        <ele>746.12</ele>
        <time>2014-06-02T12:19:57Z</time>
      </trkpt>
      <trkpt lat="43.39731" lon="2.50726">
        <ele>747.08</ele>
        <time>2014-06-02T12:20:10Z</time>
      </trkpt>
      <trkpt lat="43.39737" lon="2.5072">
        <ele>749.49</ele>
        <time>2014-06-02T12:20:24Z</time>
      </trkpt>
      <trkpt lat="43.39737" lon="2.50718">
        <ele>749</ele>
        <time>2014-06-02T12:20:41Z</time>
      </trkpt>
      <trkpt lat="43.39737" lon="2.50713">
        <ele>750.45</ele>
        <time>2014-06-02T12:21:04Z</time>
      </trkpt>
      <trkpt lat="43.39739" lon="2.50714">
        <ele>748.52</ele>
        <time>2014-06-02T12:21:21Z</time>
      </trkpt>
      <trkpt lat="43.39739" lon="2.50712">
        <ele>748.52</ele>
        <time>2014-06-02T12:21:23Z</time>
      </trkpt>
      <trkpt lat="43.39744" lon="2.50694">
        <ele>746.12</ele>
        <time>2014-06-02T12:21:37Z</time>
      </trkpt>
      <trkpt lat="43.39748" lon="2.50679">
        <ele>745.16</ele>
        <time>2014-06-02T12:21:49Z</time>
      </trkpt>
      <trkpt lat="43.39752" lon="2.50675">
        <ele>745.16</ele>
        <time>2014-06-02T12:21:54Z</time>
      </trkpt>
      <trkpt lat="43.39756" lon="2.50661">
        <ele>745.64</ele>
        <time>2014-06-02T12:22:04Z</time>
      </trkpt>
      <trkpt lat="43.39758" lon="2.5064">
        <ele>746.12</ele>
        <time>2014-06-02T12:22:16Z</time>
      </trkpt>
      <trkpt lat="43.39759" lon="2.50633">
        <ele>746.12</ele>
        <time>2014-06-02T12:22:21Z</time>
      </trkpt>
      <trkpt lat="43.39757" lon="2.50608">
        <ele>748.52</ele>
        <time>2014-06-02T12:22:33Z</time>
      </trkpt>
      <trkpt lat="43.39756" lon="2.50588">
        <ele>748.04</ele>
        <time>2014-06-02T12:22:45Z</time>
      </trkpt>
      <trkpt lat="43.39759" lon="2.50564">
        <ele>748.52</ele>
        <time>2014-06-02T12:22:59Z</time>
      </trkpt>
      <trkpt lat="43.39763" lon="2.50543">
        <ele>749.49</ele>
        <time>2014-06-02T12:23:14Z</time>
      </trkpt>
      <trkpt lat="43.39762" lon="2.50517">
        <ele>753.81</ele>
        <time>2014-06-02T12:23:28Z</time>
      </trkpt>
      <trkpt lat="43.39765" lon="2.50515">
        <ele>753.81</ele>
        <time>2014-06-02T12:23:41Z</time>
      </trkpt>
      <trkpt lat="43.39765" lon="2.50511">
        <ele>751.89</ele>
        <time>2014-06-02T12:23:58Z</time>
      </trkpt>
      <trkpt lat="43.39765" lon="2.50497">
        <ele>752.85</ele>
        <time>2014-06-02T12:24:09Z</time>
      </trkpt>
      <trkpt lat="43.39766" lon="2.50479">
        <ele>752.37</ele>
        <time>2014-06-02T12:24:22Z</time>
      </trkpt>
      <trkpt lat="43.39766" lon="2.50462">
        <ele>752.85</ele>
        <time>2014-06-02T12:24:33Z</time>
      </trkpt>
      <trkpt lat="43.39766" lon="2.50455">
        <ele>753.33</ele>
        <time>2014-06-02T12:24:37Z</time>
      </trkpt>
      <trkpt lat="43.39767" lon="2.50436">
        <ele>752.37</ele>
        <time>2014-06-02T12:24:51Z</time>
      </trkpt>
      <trkpt lat="43.39767" lon="2.50411">
        <ele>751.89</ele>
        <time>2014-06-02T12:25:05Z</time>
      </trkpt>
      <trkpt lat="43.3977" lon="2.50389">
        <ele>750.93</ele>
        <time>2014-06-02T12:25:18Z</time>
      </trkpt>
      <trkpt lat="43.3977" lon="2.50384">
        <ele>750.93</ele>
        <time>2014-06-02T12:25:22Z</time>
      </trkpt>
      <trkpt lat="43.39769" lon="2.50376">
        <ele>751.41</ele>
        <time>2014-06-02T12:25:27Z</time>
      </trkpt>
      <trkpt lat="43.39768" lon="2.50345">
        <ele>754.77</ele>
        <time>2014-06-02T12:25:42Z</time>
      </trkpt>
      <trkpt lat="43.39771" lon="2.50322">
        <ele>752.37</ele>
        <time>2014-06-02T12:25:56Z</time>
      </trkpt>
      <trkpt lat="43.39771" lon="2.50309">
        <ele>751.89</ele>
        <time>2014-06-02T12:26:05Z</time>
      </trkpt>
      <trkpt lat="43.39773" lon="2.50281">
        <ele>753.33</ele>
        <time>2014-06-02T12:26:19Z</time>
      </trkpt>
      <trkpt lat="43.39774" lon="2.5027">
        <ele>753.33</ele>
        <time>2014-06-02T12:26:25Z</time>
      </trkpt>
      <trkpt lat="43.39776" lon="2.50246">
        <ele>753.33</ele>
        <time>2014-06-02T12:26:39Z</time>
      </trkpt>
      <trkpt lat="43.39775" lon="2.50227">
        <ele>752.85</ele>
        <time>2014-06-02T12:26:50Z</time>
      </trkpt>
      <trkpt lat="43.39775" lon="2.5021">
        <ele>752.37</ele>
        <time>2014-06-02T12:27:00Z</time>
      </trkpt>
      <trkpt lat="43.39775" lon="2.50202">
        <ele>752.85</ele>
        <time>2014-06-02T12:27:05Z</time>
      </trkpt>
      <trkpt lat="43.39777" lon="2.50174">
        <ele>752.85</ele>
        <time>2014-06-02T12:27:21Z</time>
      </trkpt>
      <trkpt lat="43.39774" lon="2.50151">
        <ele>754.77</ele>
        <time>2014-06-02T12:27:31Z</time>
      </trkpt>
      <trkpt lat="43.39774" lon="2.50134">
        <ele>756.21</ele>
        <time>2014-06-02T12:27:42Z</time>
      </trkpt>
      <trkpt lat="43.39774" lon="2.50117">
        <ele>756.21</ele>
        <time>2014-06-02T12:27:51Z</time>
      </trkpt>
      <trkpt lat="43.39768" lon="2.50091">
        <ele>756.69</ele>
        <time>2014-06-02T12:28:05Z</time>
      </trkpt>
      <trkpt lat="43.39764" lon="2.50064">
        <ele>758.14</ele>
        <time>2014-06-02T12:28:19Z</time>
      </trkpt>
      <trkpt lat="43.39763" lon="2.50061">
        <ele>758.14</ele>
        <time>2014-06-02T12:28:21Z</time>
      </trkpt>
      <trkpt lat="43.39761" lon="2.50038">
        <ele>757.66</ele>
        <time>2014-06-02T12:28:35Z</time>
      </trkpt>
      <trkpt lat="43.39757" lon="2.50016">
        <ele>757.66</ele>
        <time>2014-06-02T12:28:48Z</time>
      </trkpt>
      <trkpt lat="43.39756" lon="2.49995">
        <ele>758.14</ele>
        <time>2014-06-02T12:29:01Z</time>
      </trkpt>
      <trkpt lat="43.39755" lon="2.4998">
        <ele>756.69</ele>
        <time>2014-06-02T12:29:10Z</time>
      </trkpt>
      <trkpt lat="43.39752" lon="2.49959">
        <ele>757.66</ele>
        <time>2014-06-02T12:29:21Z</time>
      </trkpt>
      <trkpt lat="43.39748" lon="2.49934">
        <ele>759.58</ele>
        <time>2014-06-02T12:29:34Z</time>
      </trkpt>
      <trkpt lat="43.39746" lon="2.49912">
        <ele>760.54</ele>
        <time>2014-06-02T12:29:46Z</time>
      </trkpt>
      <trkpt lat="43.39743" lon="2.49891">
        <ele>761.02</ele>
        <time>2014-06-02T12:29:58Z</time>
      </trkpt>
      <trkpt lat="43.39741" lon="2.49887">
        <ele>762.46</ele>
        <time>2014-06-02T12:30:09Z</time>
      </trkpt>
      <trkpt lat="43.39741" lon="2.49886">
        <ele>761.98</ele>
        <time>2014-06-02T12:30:28Z</time>
      </trkpt>
      <trkpt lat="43.39741" lon="2.49885">
        <ele>762.94</ele>
        <time>2014-06-02T12:30:52Z</time>
      </trkpt>
      <trkpt lat="43.39741" lon="2.49881">
        <ele>761.5</ele>
        <time>2014-06-02T12:31:13Z</time>
      </trkpt>
      <trkpt lat="43.39739" lon="2.49862">
        <ele>761.5</ele>
        <time>2014-06-02T12:31:24Z</time>
      </trkpt>
      <trkpt lat="43.39736" lon="2.49841">
        <ele>761.02</ele>
        <time>2014-06-02T12:31:36Z</time>
      </trkpt>
      <trkpt lat="43.39736" lon="2.4984">
        <ele>761.02</ele>
        <time>2014-06-02T12:31:37Z</time>
      </trkpt>
      <trkpt lat="43.39733" lon="2.49817">
        <ele>760.54</ele>
        <time>2014-06-02T12:31:50Z</time>
      </trkpt>
      <trkpt lat="43.39734" lon="2.49795">
        <ele>760.54</ele>
        <time>2014-06-02T12:32:03Z</time>
      </trkpt>
      <trkpt lat="43.39735" lon="2.49779">
        <ele>760.54</ele>
        <time>2014-06-02T12:32:13Z</time>
      </trkpt>
      <trkpt lat="43.39739" lon="2.4976">
        <ele>761.5</ele>
        <time>2014-06-02T12:32:24Z</time>
      </trkpt>
      <trkpt lat="43.3974" lon="2.49747">
        <ele>761.02</ele>
        <time>2014-06-02T12:32:33Z</time>
      </trkpt>
      <trkpt lat="43.39743" lon="2.49718">
        <ele>757.66</ele>
        <time>2014-06-02T12:32:48Z</time>
      </trkpt>
      <trkpt lat="43.39754" lon="2.49697">
        <ele>756.69</ele>
        <time>2014-06-02T12:33:03Z</time>
      </trkpt>
      <trkpt lat="43.39754" lon="2.49696">
        <ele>756.69</ele>
        <time>2014-06-02T12:33:04Z</time>
      </trkpt>
      <trkpt lat="43.39755" lon="2.49678">
        <ele>756.21</ele>
        <time>2014-06-02T12:33:16Z</time>
      </trkpt>
      <trkpt lat="43.39752" lon="2.49668">
        <ele>756.69</ele>
        <time>2014-06-02T12:33:23Z</time>
      </trkpt>
      <trkpt lat="43.39747" lon="2.49647">
        <ele>757.66</ele>
        <time>2014-06-02T12:33:36Z</time>
      </trkpt>
      <trkpt lat="43.39747" lon="2.4964">
        <ele>759.1</ele>
        <time>2014-06-02T12:33:50Z</time>
      </trkpt>
      <trkpt lat="43.39748" lon="2.49626">
        <ele>762.94</ele>
        <time>2014-06-02T12:34:03Z</time>
      </trkpt>
      <trkpt lat="43.39747" lon="2.49616">
        <ele>764.39</ele>
        <time>2014-06-02T12:34:11Z</time>
      </trkpt>
      <trkpt lat="43.39747" lon="2.49611">
        <ele>764.87</ele>
        <time>2014-06-02T12:34:15Z</time>
      </trkpt>
      <trkpt lat="43.39751" lon="2.49605">
        <ele>765.83</ele>
        <time>2014-06-02T12:34:22Z</time>
      </trkpt>
      <trkpt lat="43.39753" lon="2.496">
        <ele>766.79</ele>
        <time>2014-06-02T12:34:26Z</time>
      </trkpt>
      <trkpt lat="43.39751" lon="2.49581">
        <ele>769.67</ele>
        <time>2014-06-02T12:34:39Z</time>
      </trkpt>
      <trkpt lat="43.3975" lon="2.49574">
        <ele>769.19</ele>
        <time>2014-06-02T12:34:44Z</time>
      </trkpt>
      <trkpt lat="43.39745" lon="2.49561">
        <ele>768.71</ele>
        <time>2014-06-02T12:34:54Z</time>
      </trkpt>
      <trkpt lat="43.39745" lon="2.4956">
        <ele>768.71</ele>
        <time>2014-06-02T12:34:56Z</time>
      </trkpt>
      <trkpt lat="43.39745" lon="2.49545">
        <ele>769.19</ele>
        <time>2014-06-02T12:35:07Z</time>
      </trkpt>
      <trkpt lat="43.39744" lon="2.49526">
        <ele>769.19</ele>
        <time>2014-06-02T12:35:19Z</time>
      </trkpt>
      <trkpt lat="43.39739" lon="2.49508">
        <ele>766.79</ele>
        <time>2014-06-02T12:35:32Z</time>
      </trkpt>
      <trkpt lat="43.39738" lon="2.49505">
        <ele>766.79</ele>
        <time>2014-06-02T12:35:35Z</time>
      </trkpt>
      <trkpt lat="43.39727" lon="2.49487">
        <ele>766.31</ele>
        <time>2014-06-02T12:35:48Z</time>
      </trkpt>
      <trkpt lat="43.39719" lon="2.49474">
        <ele>766.31</ele>
        <time>2014-06-02T12:35:58Z</time>
      </trkpt>
      <trkpt lat="43.3972" lon="2.49463">
        <ele>765.83</ele>
        <time>2014-06-02T12:36:07Z</time>
      </trkpt>
      <trkpt lat="43.39713" lon="2.49451">
        <ele>765.35</ele>
        <time>2014-06-02T12:36:16Z</time>
      </trkpt>
      <trkpt lat="43.39709" lon="2.49434">
        <ele>768.23</ele>
        <time>2014-06-02T12:36:28Z</time>
      </trkpt>
      <trkpt lat="43.39703" lon="2.49429">
        <ele>769.67</ele>
        <time>2014-06-02T12:36:35Z</time>
      </trkpt>
      <trkpt lat="43.39695" lon="2.49427">
        <ele>771.11</ele>
        <time>2014-06-02T12:36:43Z</time>
      </trkpt>
      <trkpt lat="43.39683" lon="2.49423">
        <ele>773.04</ele>
        <time>2014-06-02T12:36:54Z</time>
      </trkpt>
      <trkpt lat="43.39674" lon="2.49422">
        <ele>773.04</ele>
        <time>2014-06-02T12:37:04Z</time>
      </trkpt>
      <trkpt lat="43.39673" lon="2.49419">
        <ele>774</ele>
        <time>2014-06-02T12:37:15Z</time>
      </trkpt>
      <trkpt lat="43.39674" lon="2.49415">
        <ele>776.88</ele>
        <time>2014-06-02T12:37:26Z</time>
      </trkpt>
      <trkpt lat="43.39673" lon="2.49412">
        <ele>776.4</ele>
        <time>2014-06-02T12:37:50Z</time>
      </trkpt>
      <trkpt lat="43.39673" lon="2.49414">
        <ele>778.32</ele>
        <time>2014-06-02T12:38:12Z</time>
      </trkpt>
      <trkpt lat="43.39675" lon="2.49414">
        <ele>778.32</ele>
        <time>2014-06-02T12:38:16Z</time>
      </trkpt>
      <trkpt lat="43.39681" lon="2.49408">
        <ele>781.69</ele>
        <time>2014-06-02T12:38:27Z</time>
      </trkpt>
      <trkpt lat="43.3968" lon="2.49405">
        <ele>781.69</ele>
        <time>2014-06-02T12:38:29Z</time>
      </trkpt>
      <trkpt lat="43.39679" lon="2.49393">
        <ele>785.53</ele>
        <time>2014-06-02T12:38:40Z</time>
      </trkpt>
      <trkpt lat="43.39679" lon="2.49387">
        <ele>786.98</ele>
        <time>2014-06-02T12:38:46Z</time>
      </trkpt>
      <trkpt lat="43.39673" lon="2.49379">
        <ele>787.46</ele>
        <time>2014-06-02T12:38:59Z</time>
      </trkpt>
      <trkpt lat="43.39673" lon="2.49378">
        <ele>787.46</ele>
        <time>2014-06-02T12:39:01Z</time>
      </trkpt>
      <trkpt lat="43.39668" lon="2.49371">
        <ele>789.38</ele>
        <time>2014-06-02T12:39:11Z</time>
      </trkpt>
      <trkpt lat="43.39665" lon="2.49369">
        <ele>790.34</ele>
        <time>2014-06-02T12:39:26Z</time>
      </trkpt>
      <trkpt lat="43.39662" lon="2.49359">
        <ele>791.3</ele>
        <time>2014-06-02T12:39:47Z</time>
      </trkpt>
      <trkpt lat="43.39657" lon="2.49343">
        <ele>791.78</ele>
        <time>2014-06-02T12:39:58Z</time>
      </trkpt>
      <trkpt lat="43.39656" lon="2.49342">
        <ele>791.78</ele>
        <time>2014-06-02T12:39:59Z</time>
      </trkpt>
      <trkpt lat="43.39652" lon="2.49332">
        <ele>792.26</ele>
        <time>2014-06-02T12:40:06Z</time>
      </trkpt>
      <trkpt lat="43.3965" lon="2.49319">
        <ele>794.19</ele>
        <time>2014-06-02T12:40:15Z</time>
      </trkpt>
      <trkpt lat="43.39649" lon="2.49312">
        <ele>795.15</ele>
        <time>2014-06-02T12:40:20Z</time>
      </trkpt>
      <trkpt lat="43.39646" lon="2.49306">
        <ele>795.15</ele>
        <time>2014-06-02T12:40:25Z</time>
      </trkpt>
      <trkpt lat="43.39642" lon="2.49298">
        <ele>796.11</ele>
        <time>2014-06-02T12:40:33Z</time>
      </trkpt>
      <trkpt lat="43.3964" lon="2.49296">
        <ele>797.07</ele>
        <time>2014-06-02T12:40:37Z</time>
      </trkpt>
      <trkpt lat="43.39635" lon="2.49282">
        <ele>798.03</ele>
        <time>2014-06-02T12:40:49Z</time>
      </trkpt>
      <trkpt lat="43.39634" lon="2.49269">
        <ele>799.95</ele>
        <time>2014-06-02T12:41:02Z</time>
      </trkpt>
      <trkpt lat="43.39626" lon="2.4926">
        <ele>800.92</ele>
        <time>2014-06-02T12:41:13Z</time>
      </trkpt>
      <trkpt lat="43.39624" lon="2.49257">
        <ele>800.92</ele>
        <time>2014-06-02T12:41:16Z</time>
      </trkpt>
      <trkpt lat="43.3962" lon="2.49247">
        <ele>802.84</ele>
        <time>2014-06-02T12:41:24Z</time>
      </trkpt>
      <trkpt lat="43.39619" lon="2.49232">
        <ele>804.28</ele>
        <time>2014-06-02T12:41:35Z</time>
      </trkpt>
      <trkpt lat="43.3962" lon="2.49228">
        <ele>804.76</ele>
        <time>2014-06-02T12:41:39Z</time>
      </trkpt>
      <trkpt lat="43.39619" lon="2.49226">
        <ele>804.76</ele>
        <time>2014-06-02T12:41:42Z</time>
      </trkpt>
      <trkpt lat="43.39616" lon="2.49213">
        <ele>806.2</ele>
        <time>2014-06-02T12:41:53Z</time>
      </trkpt>
      <trkpt lat="43.39613" lon="2.492">
        <ele>807.64</ele>
        <time>2014-06-02T12:42:06Z</time>
      </trkpt>
      <trkpt lat="43.3961" lon="2.49186">
        <ele>808.61</ele>
        <time>2014-06-02T12:42:20Z</time>
      </trkpt>
      <trkpt lat="43.39612" lon="2.4918">
        <ele>810.05</ele>
        <time>2014-06-02T12:42:29Z</time>
      </trkpt>
      <trkpt lat="43.39614" lon="2.49178">
        <ele>811.01</ele>
        <time>2014-06-02T12:42:42Z</time>
      </trkpt>
      <trkpt lat="43.39613" lon="2.49169">
        <ele>813.89</ele>
        <time>2014-06-02T12:42:55Z</time>
      </trkpt>
      <trkpt lat="43.39614" lon="2.49165">
        <ele>815.34</ele>
        <time>2014-06-02T12:43:01Z</time>
      </trkpt>
      <trkpt lat="43.39616" lon="2.49161">
        <ele>817.26</ele>
        <time>2014-06-02T12:43:08Z</time>
      </trkpt>
      <trkpt lat="43.39615" lon="2.49152">
        <ele>819.18</ele>
        <time>2014-06-02T12:43:17Z</time>
      </trkpt>
      <trkpt lat="43.39616" lon="2.49151">
        <ele>820.62</ele>
        <time>2014-06-02T12:43:37Z</time>
      </trkpt>
      <trkpt lat="43.39614" lon="2.49151">
        <ele>819.66</ele>
        <time>2014-06-02T12:44:00Z</time>
      </trkpt>
      <trkpt lat="43.39614" lon="2.49153">
        <ele>822.06</ele>
        <time>2014-06-02T12:44:21Z</time>
      </trkpt>
      <trkpt lat="43.39612" lon="2.49151">
        <ele>819.66</ele>
        <time>2014-06-02T12:44:45Z</time>
      </trkpt>
      <trkpt lat="43.39613" lon="2.4915">
        <ele>820.62</ele>
        <time>2014-06-02T12:45:04Z</time>
      </trkpt>
      <trkpt lat="43.39611" lon="2.4915">
        <ele>819.66</ele>
        <time>2014-06-02T12:45:37Z</time>
      </trkpt>
      <trkpt lat="43.39612" lon="2.49151">
        <ele>819.66</ele>
        <time>2014-06-02T12:45:53Z</time>
      </trkpt>
      <trkpt lat="43.39611" lon="2.49151">
        <ele>818.7</ele>
        <time>2014-06-02T12:46:14Z</time>
      </trkpt>
      <trkpt lat="43.39612" lon="2.49151">
        <ele>820.14</ele>
        <time>2014-06-02T12:46:31Z</time>
      </trkpt>
      <trkpt lat="43.39612" lon="2.49152">
        <ele>819.66</ele>
        <time>2014-06-02T12:46:53Z</time>
      </trkpt>
      <trkpt lat="43.39611" lon="2.49142">
        <ele>819.66</ele>
        <time>2014-06-02T12:47:08Z</time>
      </trkpt>
      <trkpt lat="43.39611" lon="2.49141">
        <ele>819.66</ele>
        <time>2014-06-02T12:47:09Z</time>
      </trkpt>
      <trkpt lat="43.39611" lon="2.49138">
        <ele>819.66</ele>
        <time>2014-06-02T12:47:11Z</time>
      </trkpt>
      <trkpt lat="43.39611" lon="2.49127">
        <ele>818.7</ele>
        <time>2014-06-02T12:47:22Z</time>
      </trkpt>
      <trkpt lat="43.39607" lon="2.49118">
        <ele>821.58</ele>
        <time>2014-06-02T12:47:33Z</time>
      </trkpt>
      <trkpt lat="43.39603" lon="2.4911">
        <ele>825.91</ele>
        <time>2014-06-02T12:47:43Z</time>
      </trkpt>
      <trkpt lat="43.39604" lon="2.4911">
        <ele>826.39</ele>
        <time>2014-06-02T12:47:44Z</time>
      </trkpt>
      <trkpt lat="43.39604" lon="2.49103">
        <ele>828.31</ele>
        <time>2014-06-02T12:47:55Z</time>
      </trkpt>
      <trkpt lat="43.39602" lon="2.49097">
        <ele>830.24</ele>
        <time>2014-06-02T12:48:01Z</time>
      </trkpt>
      <trkpt lat="43.39597" lon="2.49088">
        <ele>832.64</ele>
        <time>2014-06-02T12:48:12Z</time>
      </trkpt>
      <trkpt lat="43.39598" lon="2.49085">
        <ele>833.6</ele>
        <time>2014-06-02T12:48:16Z</time>
      </trkpt>
      <trkpt lat="43.39595" lon="2.49081">
        <ele>833.6</ele>
        <time>2014-06-02T12:48:26Z</time>
      </trkpt>
      <trkpt lat="43.39586" lon="2.49073">
        <ele>832.64</ele>
        <time>2014-06-02T12:48:37Z</time>
      </trkpt>
      <trkpt lat="43.39581" lon="2.49067">
        <ele>834.08</ele>
        <time>2014-06-02T12:48:44Z</time>
      </trkpt>
      <trkpt lat="43.39579" lon="2.49051">
        <ele>836</ele>
        <time>2014-06-02T12:48:55Z</time>
      </trkpt>
      <trkpt lat="43.39579" lon="2.4904">
        <ele>836.96</ele>
        <time>2014-06-02T12:49:07Z</time>
      </trkpt>
      <trkpt lat="43.39579" lon="2.4904">
        <ele>835.52</ele>
        <time>2014-06-02T12:49:35Z</time>
      </trkpt>
      <trkpt lat="43.39579" lon="2.49039">
        <ele>836</ele>
        <time>2014-06-02T12:49:50Z</time>
      </trkpt>
      <trkpt lat="43.39579" lon="2.49038">
        <ele>837.45</ele>
        <time>2014-06-02T12:50:15Z</time>
      </trkpt>
      <trkpt lat="43.39578" lon="2.49038">
        <ele>837.45</ele>
        <time>2014-06-02T12:50:35Z</time>
      </trkpt>
      <trkpt lat="43.39579" lon="2.49039">
        <ele>835.04</ele>
        <time>2014-06-02T12:50:59Z</time>
      </trkpt>
      <trkpt lat="43.39579" lon="2.49038">
        <ele>836.48</ele>
        <time>2014-06-02T12:51:22Z</time>
      </trkpt>
      <trkpt lat="43.39579" lon="2.49036">
        <ele>836</ele>
        <time>2014-06-02T12:51:53Z</time>
      </trkpt>
      <trkpt lat="43.39579" lon="2.49034">
        <ele>836</ele>
        <time>2014-06-02T12:51:57Z</time>
      </trkpt>
      <trkpt lat="43.39579" lon="2.49018">
        <ele>836.48</ele>
        <time>2014-06-02T12:52:07Z</time>
      </trkpt>
      <trkpt lat="43.39578" lon="2.49007">
        <ele>836.96</ele>
        <time>2014-06-02T12:52:14Z</time>
      </trkpt>
      <trkpt lat="43.39574" lon="2.48985">
        <ele>836.48</ele>
        <time>2014-06-02T12:52:27Z</time>
      </trkpt>
      <trkpt lat="43.39576" lon="2.48967">
        <ele>836.48</ele>
        <time>2014-06-02T12:52:39Z</time>
      </trkpt>
      <trkpt lat="43.39579" lon="2.48956">
        <ele>836</ele>
        <time>2014-06-02T12:52:47Z</time>
      </trkpt>
      <trkpt lat="43.39585" lon="2.48945">
        <ele>836.48</ele>
        <time>2014-06-02T12:52:56Z</time>
      </trkpt>
      <trkpt lat="43.39586" lon="2.48934">
        <ele>837.45</ele>
        <time>2014-06-02T12:53:06Z</time>
      </trkpt>
      <trkpt lat="43.39586" lon="2.48928">
        <ele>837.45</ele>
        <time>2014-06-02T12:53:20Z</time>
      </trkpt>
      <trkpt lat="43.39587" lon="2.48924">
        <ele>837.93</ele>
        <time>2014-06-02T12:53:24Z</time>
      </trkpt>
      <trkpt lat="43.39588" lon="2.48919">
        <ele>839.37</ele>
        <time>2014-06-02T12:53:34Z</time>
      </trkpt>
      <trkpt lat="43.39589" lon="2.48915">
        <ele>839.85</ele>
        <time>2014-06-02T12:53:45Z</time>
      </trkpt>
      <trkpt lat="43.39585" lon="2.48913">
        <ele>839.85</ele>
        <time>2014-06-02T12:53:57Z</time>
      </trkpt>
      <trkpt lat="43.39584" lon="2.48914">
        <ele>839.85</ele>
        <time>2014-06-02T12:54:03Z</time>
      </trkpt>
      <trkpt lat="43.39585" lon="2.48914">
        <ele>840.81</ele>
        <time>2014-06-02T12:54:18Z</time>
      </trkpt>
      <trkpt lat="43.39585" lon="2.48919">
        <ele>840.81</ele>
        <time>2014-06-02T12:54:23Z</time>
      </trkpt>
      <trkpt lat="43.39588" lon="2.48918">
        <ele>841.77</ele>
        <time>2014-06-02T12:54:35Z</time>
      </trkpt>
      <trkpt lat="43.3959" lon="2.48917">
        <ele>841.77</ele>
        <time>2014-06-02T12:54:46Z</time>
      </trkpt>
      <trkpt lat="43.3959" lon="2.48918">
        <ele>842.25</ele>
        <time>2014-06-02T12:54:51Z</time>
      </trkpt>
      <trkpt lat="43.39589" lon="2.48914">
        <ele>840.81</ele>
        <time>2014-06-02T12:55:05Z</time>
      </trkpt>
      <trkpt lat="43.39589" lon="2.48904">
        <ele>839.85</ele>
        <time>2014-06-02T12:55:16Z</time>
      </trkpt>
      <trkpt lat="43.39589" lon="2.48903">
        <ele>837.93</ele>
        <time>2014-06-02T12:55:37Z</time>
      </trkpt>
      <trkpt lat="43.39586" lon="2.48902">
        <ele>837.45</ele>
        <time>2014-06-02T12:55:57Z</time>
      </trkpt>
      <trkpt lat="43.39583" lon="2.48902">
        <ele>836.48</ele>
        <time>2014-06-02T12:56:09Z</time>
      </trkpt>
      <trkpt lat="43.39583" lon="2.48901">
        <ele>836.48</ele>
        <time>2014-06-02T12:56:34Z</time>
      </trkpt>
      <trkpt lat="43.39582" lon="2.48902">
        <ele>836.48</ele>
        <time>2014-06-02T12:56:42Z</time>
      </trkpt>
      <trkpt lat="43.39579" lon="2.48905">
        <ele>836.96</ele>
        <time>2014-06-02T12:56:46Z</time>
      </trkpt>
      <trkpt lat="43.39576" lon="2.48907">
        <ele>837.93</ele>
        <time>2014-06-02T12:56:49Z</time>
      </trkpt>
      <trkpt lat="43.39567" lon="2.48902">
        <ele>836.48</ele>
        <time>2014-06-02T12:56:58Z</time>
      </trkpt>
      <trkpt lat="43.39565" lon="2.48901">
        <ele>833.6</ele>
        <time>2014-06-02T12:57:13Z</time>
      </trkpt>
      <trkpt lat="43.39565" lon="2.48901">
        <ele>833.12</ele>
        <time>2014-06-02T12:57:22Z</time>
      </trkpt>
      <trkpt lat="43.39562" lon="2.48895">
        <ele>832.16</ele>
        <time>2014-06-02T12:57:34Z</time>
      </trkpt>
      <trkpt lat="43.39561" lon="2.48894">
        <ele>831.2</ele>
        <time>2014-06-02T12:57:36Z</time>
      </trkpt>
      <trkpt lat="43.39559" lon="2.48892">
        <ele>830.72</ele>
        <time>2014-06-02T12:57:39Z</time>
      </trkpt>
      <trkpt lat="43.39555" lon="2.48882">
        <ele>828.31</ele>
        <time>2014-06-02T12:57:48Z</time>
      </trkpt>
      <trkpt lat="43.39552" lon="2.48876">
        <ele>826.87</ele>
        <time>2014-06-02T12:57:52Z</time>
      </trkpt>
      <trkpt lat="43.39547" lon="2.48875">
        <ele>825.43</ele>
        <time>2014-06-02T12:57:57Z</time>
      </trkpt>
      <trkpt lat="43.39538" lon="2.48864">
        <ele>822.06</ele>
        <time>2014-06-02T12:58:09Z</time>
      </trkpt>
      <trkpt lat="43.39536" lon="2.4886">
        <ele>821.58</ele>
        <time>2014-06-02T12:58:11Z</time>
      </trkpt>
      <trkpt lat="43.39533" lon="2.48856">
        <ele>819.18</ele>
        <time>2014-06-02T12:58:16Z</time>
      </trkpt>
      <trkpt lat="43.39532" lon="2.48856">
        <ele>818.22</ele>
        <time>2014-06-02T12:58:18Z</time>
      </trkpt>
      <trkpt lat="43.39528" lon="2.4884">
        <ele>814.85</ele>
        <time>2014-06-02T12:58:29Z</time>
      </trkpt>
      <trkpt lat="43.39528" lon="2.48839">
        <ele>814.37</ele>
        <time>2014-06-02T12:58:30Z</time>
      </trkpt>
      <trkpt lat="43.39524" lon="2.48836">
        <ele>813.41</ele>
        <time>2014-06-02T12:58:34Z</time>
      </trkpt>
      <trkpt lat="43.39513" lon="2.48821">
        <ele>809.09</ele>
        <time>2014-06-02T12:58:47Z</time>
      </trkpt>
      <trkpt lat="43.39511" lon="2.4882">
        <ele>808.13</ele>
        <time>2014-06-02T12:58:51Z</time>
      </trkpt>
      <trkpt lat="43.39508" lon="2.48813">
        <ele>806.68</ele>
        <time>2014-06-02T12:58:57Z</time>
      </trkpt>
      <trkpt lat="43.39504" lon="2.48808">
        <ele>805.72</ele>
        <time>2014-06-02T12:59:03Z</time>
      </trkpt>
      <trkpt lat="43.39501" lon="2.48804">
        <ele>804.76</ele>
        <time>2014-06-02T12:59:07Z</time>
      </trkpt>
      <trkpt lat="43.39498" lon="2.488">
        <ele>803.32</ele>
        <time>2014-06-02T12:59:11Z</time>
      </trkpt>
      <trkpt lat="43.39497" lon="2.48797">
        <ele>802.36</ele>
        <time>2014-06-02T12:59:14Z</time>
      </trkpt>
      <trkpt lat="43.39489" lon="2.4878">
        <ele>798.03</ele>
        <time>2014-06-02T12:59:27Z</time>
      </trkpt>
      <trkpt lat="43.39488" lon="2.48779">
        <ele>798.03</ele>
        <time>2014-06-02T12:59:28Z</time>
      </trkpt>
      <trkpt lat="43.39486" lon="2.48773">
        <ele>796.11</ele>
        <time>2014-06-02T12:59:32Z</time>
      </trkpt>
      <trkpt lat="43.39482" lon="2.48768">
        <ele>795.15</ele>
        <time>2014-06-02T12:59:36Z</time>
      </trkpt>
      <trkpt lat="43.39475" lon="2.48758">
        <ele>791.78</ele>
        <time>2014-06-02T12:59:46Z</time>
      </trkpt>
      <trkpt lat="43.39466" lon="2.48739">
        <ele>786.98</ele>
        <time>2014-06-02T12:59:59Z</time>
      </trkpt>
      <trkpt lat="43.39455" lon="2.48719">
        <ele>785.05</ele>
        <time>2014-06-02T13:00:13Z</time>
      </trkpt>
      <trkpt lat="43.39453" lon="2.48714">
        <ele>785.05</ele>
        <time>2014-06-02T13:00:17Z</time>
      </trkpt>
      <trkpt lat="43.39447" lon="2.48699">
        <ele>780.73</ele>
        <time>2014-06-02T13:00:28Z</time>
      </trkpt>
      <trkpt lat="43.3944" lon="2.48681">
        <ele>777.84</ele>
        <time>2014-06-02T13:00:41Z</time>
      </trkpt>
      <trkpt lat="43.39431" lon="2.48666">
        <ele>775.92</ele>
        <time>2014-06-02T13:00:53Z</time>
      </trkpt>
      <trkpt lat="43.39421" lon="2.48656">
        <ele>774</ele>
        <time>2014-06-02T13:01:05Z</time>
      </trkpt>
      <trkpt lat="43.39411" lon="2.48648">
        <ele>772.08</ele>
        <time>2014-06-02T13:01:13Z</time>
      </trkpt>
      <trkpt lat="43.39407" lon="2.48644">
        <ele>771.6</ele>
        <time>2014-06-02T13:01:18Z</time>
      </trkpt>
      <trkpt lat="43.39394" lon="2.48634">
        <ele>772.08</ele>
        <time>2014-06-02T13:01:31Z</time>
      </trkpt>
      <trkpt lat="43.39387" lon="2.48633">
        <ele>774</ele>
        <time>2014-06-02T13:01:42Z</time>
      </trkpt>
      <trkpt lat="43.39379" lon="2.48623">
        <ele>772.56</ele>
        <time>2014-06-02T13:01:52Z</time>
      </trkpt>
      <trkpt lat="43.39379" lon="2.48621">
        <ele>772.08</ele>
        <time>2014-06-02T13:01:54Z</time>
      </trkpt>
      <trkpt lat="43.39371" lon="2.48617">
        <ele>770.63</ele>
        <time>2014-06-02T13:02:04Z</time>
      </trkpt>
      <trkpt lat="43.39363" lon="2.4861">
        <ele>768.71</ele>
        <time>2014-06-02T13:02:13Z</time>
      </trkpt>
      <trkpt lat="43.3936" lon="2.48607">
        <ele>767.75</ele>
        <time>2014-06-02T13:02:16Z</time>
      </trkpt>
      <trkpt lat="43.39355" lon="2.486">
        <ele>766.31</ele>
        <time>2014-06-02T13:02:23Z</time>
      </trkpt>
      <trkpt lat="43.39342" lon="2.48593">
        <ele>763.9</ele>
        <time>2014-06-02T13:02:34Z</time>
      </trkpt>
      <trkpt lat="43.39333" lon="2.48584">
        <ele>763.42</ele>
        <time>2014-06-02T13:02:43Z</time>
      </trkpt>
      <trkpt lat="43.39322" lon="2.4858">
        <ele>765.83</ele>
        <time>2014-06-02T13:02:56Z</time>
      </trkpt>
      <trkpt lat="43.39319" lon="2.48578">
        <ele>766.31</ele>
        <time>2014-06-02T13:03:01Z</time>
      </trkpt>
      <trkpt lat="43.39316" lon="2.48574">
        <ele>766.79</ele>
        <time>2014-06-02T13:03:05Z</time>
      </trkpt>
      <trkpt lat="43.39311" lon="2.48568">
        <ele>765.83</ele>
        <time>2014-06-02T13:03:10Z</time>
      </trkpt>
      <trkpt lat="43.39304" lon="2.48562">
        <ele>764.39</ele>
        <time>2014-06-02T13:03:21Z</time>
      </trkpt>
      <trkpt lat="43.393" lon="2.48559">
        <ele>763.42</ele>
        <time>2014-06-02T13:03:28Z</time>
      </trkpt>
      <trkpt lat="43.393" lon="2.48551">
        <ele>762.46</ele>
        <time>2014-06-02T13:03:33Z</time>
      </trkpt>
      <trkpt lat="43.393" lon="2.48547">
        <ele>761.5</ele>
        <time>2014-06-02T13:03:38Z</time>
      </trkpt>
      <trkpt lat="43.39294" lon="2.48536">
        <ele>757.66</ele>
        <time>2014-06-02T13:03:51Z</time>
      </trkpt>
      <trkpt lat="43.39292" lon="2.48533">
        <ele>755.73</ele>
        <time>2014-06-02T13:03:56Z</time>
      </trkpt>
      <trkpt lat="43.39288" lon="2.48512">
        <ele>753.81</ele>
        <time>2014-06-02T13:04:08Z</time>
      </trkpt>
      <trkpt lat="43.39286" lon="2.48507">
        <ele>753.33</ele>
        <time>2014-06-02T13:04:13Z</time>
      </trkpt>
      <trkpt lat="43.39282" lon="2.48501">
        <ele>752.85</ele>
        <time>2014-06-02T13:04:26Z</time>
      </trkpt>
      <trkpt lat="43.39279" lon="2.4849">
        <ele>750.93</ele>
        <time>2014-06-02T13:04:38Z</time>
      </trkpt>
      <trkpt lat="43.39278" lon="2.48479">
        <ele>749.49</ele>
        <time>2014-06-02T13:04:45Z</time>
      </trkpt>
      <trkpt lat="43.39278" lon="2.48474">
        <ele>748.52</ele>
        <time>2014-06-02T13:04:50Z</time>
      </trkpt>
      <trkpt lat="43.39274" lon="2.48471">
        <ele>747.08</ele>
        <time>2014-06-02T13:04:55Z</time>
      </trkpt>
      <trkpt lat="43.39267" lon="2.4847">
        <ele>743.24</ele>
        <time>2014-06-02T13:05:06Z</time>
      </trkpt>
      <trkpt lat="43.39269" lon="2.48457">
        <ele>739.87</ele>
        <time>2014-06-02T13:05:17Z</time>
      </trkpt>
      <trkpt lat="43.3927" lon="2.48444">
        <ele>738.43</ele>
        <time>2014-06-02T13:05:24Z</time>
      </trkpt>
      <trkpt lat="43.39269" lon="2.48442">
        <ele>737.95</ele>
        <time>2014-06-02T13:05:25Z</time>
      </trkpt>
      <trkpt lat="43.39268" lon="2.48438">
        <ele>736.99</ele>
        <time>2014-06-02T13:05:27Z</time>
      </trkpt>
      <trkpt lat="43.39265" lon="2.48432">
        <ele>735.55</ele>
        <time>2014-06-02T13:05:36Z</time>
      </trkpt>
      <trkpt lat="43.39264" lon="2.48431">
        <ele>735.07</ele>
        <time>2014-06-02T13:05:37Z</time>
      </trkpt>
      <trkpt lat="43.39263" lon="2.48428">
        <ele>732.66</ele>
        <time>2014-06-02T13:05:45Z</time>
      </trkpt>
      <trkpt lat="43.39263" lon="2.48425">
        <ele>732.66</ele>
        <time>2014-06-02T13:05:46Z</time>
      </trkpt>
      <trkpt lat="43.39263" lon="2.48423">
        <ele>732.66</ele>
        <time>2014-06-02T13:05:47Z</time>
      </trkpt>
      <trkpt lat="43.39264" lon="2.48421">
        <ele>732.66</ele>
        <time>2014-06-02T13:05:48Z</time>
      </trkpt>
      <trkpt lat="43.39264" lon="2.4842">
        <ele>732.18</ele>
        <time>2014-06-02T13:05:49Z</time>
      </trkpt>
      <trkpt lat="43.39264" lon="2.48418">
        <ele>732.18</ele>
        <time>2014-06-02T13:05:50Z</time>
      </trkpt>
      <trkpt lat="43.39265" lon="2.48415">
        <ele>731.7</ele>
        <time>2014-06-02T13:05:54Z</time>
      </trkpt>
      <trkpt lat="43.39264" lon="2.48414">
        <ele>731.22</ele>
        <time>2014-06-02T13:05:55Z</time>
      </trkpt>
      <trkpt lat="43.39263" lon="2.48404">
        <ele>727.37</ele>
        <time>2014-06-02T13:06:05Z</time>
      </trkpt>
      <trkpt lat="43.39262" lon="2.48401">
        <ele>726.41</ele>
        <time>2014-06-02T13:06:09Z</time>
      </trkpt>
      <trkpt lat="43.39261" lon="2.48401">
        <ele>725.93</ele>
        <time>2014-06-02T13:06:10Z</time>
      </trkpt>
      <trkpt lat="43.3926" lon="2.48399">
        <ele>725.45</ele>
        <time>2014-06-02T13:06:12Z</time>
      </trkpt>
      <trkpt lat="43.39259" lon="2.48397">
        <ele>724.97</ele>
        <time>2014-06-02T13:06:13Z</time>
      </trkpt>
      <trkpt lat="43.39259" lon="2.48395">
        <ele>724.49</ele>
        <time>2014-06-02T13:06:14Z</time>
      </trkpt>
      <trkpt lat="43.39259" lon="2.48393">
        <ele>723.53</ele>
        <time>2014-06-02T13:06:15Z</time>
      </trkpt>
      <trkpt lat="43.39258" lon="2.48392">
        <ele>723.05</ele>
        <time>2014-06-02T13:06:16Z</time>
      </trkpt>
      <trkpt lat="43.39255" lon="2.48373">
        <ele>718.24</ele>
        <time>2014-06-02T13:06:24Z</time>
      </trkpt>
      <trkpt lat="43.39255" lon="2.48371">
        <ele>717.76</ele>
        <time>2014-06-02T13:06:25Z</time>
      </trkpt>
      <trkpt lat="43.39255" lon="2.48369">
        <ele>717.28</ele>
        <time>2014-06-02T13:06:26Z</time>
      </trkpt>
      <trkpt lat="43.39256" lon="2.48366">
        <ele>716.8</ele>
        <time>2014-06-02T13:06:27Z</time>
      </trkpt>
      <trkpt lat="43.39256" lon="2.48361">
        <ele>715.36</ele>
        <time>2014-06-02T13:06:35Z</time>
      </trkpt>
      <trkpt lat="43.39255" lon="2.48361">
        <ele>716.32</ele>
        <time>2014-06-02T13:06:56Z</time>
      </trkpt>
      <trkpt lat="43.39253" lon="2.48351">
        <ele>714.88</ele>
        <time>2014-06-02T13:07:07Z</time>
      </trkpt>
      <trkpt lat="43.39253" lon="2.4835">
        <ele>711.51</ele>
        <time>2014-06-02T13:07:33Z</time>
      </trkpt>
      <trkpt lat="43.39254" lon="2.48348">
        <ele>710.07</ele>
        <time>2014-06-02T13:07:59Z</time>
      </trkpt>
      <trkpt lat="43.39254" lon="2.48343">
        <ele>710.07</ele>
        <time>2014-06-02T13:08:02Z</time>
      </trkpt>
      <trkpt lat="43.39254" lon="2.48341">
        <ele>710.07</ele>
        <time>2014-06-02T13:08:03Z</time>
      </trkpt>
      <trkpt lat="43.39253" lon="2.48339">
        <ele>710.07</ele>
        <time>2014-06-02T13:08:04Z</time>
      </trkpt>
      <trkpt lat="43.39253" lon="2.48337">
        <ele>710.07</ele>
        <time>2014-06-02T13:08:05Z</time>
      </trkpt>
      <trkpt lat="43.39252" lon="2.48335">
        <ele>710.07</ele>
        <time>2014-06-02T13:08:06Z</time>
      </trkpt>
      <trkpt lat="43.39246" lon="2.48316">
        <ele>707.67</ele>
        <time>2014-06-02T13:08:18Z</time>
      </trkpt>
      <trkpt lat="43.39241" lon="2.48295">
        <ele>705.26</ele>
        <time>2014-06-02T13:08:30Z</time>
      </trkpt>
      <trkpt lat="43.39241" lon="2.48293">
        <ele>704.78</ele>
        <time>2014-06-02T13:08:31Z</time>
      </trkpt>
      <trkpt lat="43.39238" lon="2.48282">
        <ele>701.9</ele>
        <time>2014-06-02T13:08:39Z</time>
      </trkpt>
      <trkpt lat="43.3924" lon="2.48275">
        <ele>698.53</ele>
        <time>2014-06-02T13:08:46Z</time>
      </trkpt>
      <trkpt lat="43.3924" lon="2.48271">
        <ele>696.61</ele>
        <time>2014-06-02T13:08:50Z</time>
      </trkpt>
      <trkpt lat="43.3924" lon="2.48266">
        <ele>694.69</ele>
        <time>2014-06-02T13:08:55Z</time>
      </trkpt>
      <trkpt lat="43.39236" lon="2.4826">
        <ele>693.25</ele>
        <time>2014-06-02T13:09:00Z</time>
      </trkpt>
      <trkpt lat="43.39236" lon="2.48258">
        <ele>692.77</ele>
        <time>2014-06-02T13:09:01Z</time>
      </trkpt>
      <trkpt lat="43.39236" lon="2.48254">
        <ele>691.81</ele>
        <time>2014-06-02T13:09:03Z</time>
      </trkpt>
      <trkpt lat="43.39236" lon="2.48253">
        <ele>691.33</ele>
        <time>2014-06-02T13:09:04Z</time>
      </trkpt>
      <trkpt lat="43.39236" lon="2.48251">
        <ele>691.33</ele>
        <time>2014-06-02T13:09:05Z</time>
      </trkpt>
      <trkpt lat="43.39237" lon="2.48249">
        <ele>690.84</ele>
        <time>2014-06-02T13:09:06Z</time>
      </trkpt>
      <trkpt lat="43.39238" lon="2.48248">
        <ele>690.36</ele>
        <time>2014-06-02T13:09:07Z</time>
      </trkpt>
      <trkpt lat="43.3924" lon="2.48247">
        <ele>689.4</ele>
        <time>2014-06-02T13:09:09Z</time>
      </trkpt>
      <trkpt lat="43.39241" lon="2.48242">
        <ele>686.52</ele>
        <time>2014-06-02T13:09:14Z</time>
      </trkpt>
      <trkpt lat="43.39239" lon="2.48226">
        <ele>681.71</ele>
        <time>2014-06-02T13:09:27Z</time>
      </trkpt>
      <trkpt lat="43.39237" lon="2.48209">
        <ele>679.79</ele>
        <time>2014-06-02T13:09:37Z</time>
      </trkpt>
      <trkpt lat="43.39236" lon="2.48206">
        <ele>679.31</ele>
        <time>2014-06-02T13:09:38Z</time>
      </trkpt>
      <trkpt lat="43.39236" lon="2.48204">
        <ele>679.31</ele>
        <time>2014-06-02T13:09:39Z</time>
      </trkpt>
      <trkpt lat="43.39232" lon="2.48189">
        <ele>678.83</ele>
        <time>2014-06-02T13:09:48Z</time>
      </trkpt>
      <trkpt lat="43.3923" lon="2.48182">
        <ele>678.83</ele>
        <time>2014-06-02T13:09:53Z</time>
      </trkpt>
      <trkpt lat="43.3923" lon="2.4818">
        <ele>678.83</ele>
        <time>2014-06-02T13:09:54Z</time>
      </trkpt>
      <trkpt lat="43.3923" lon="2.48178">
        <ele>678.83</ele>
        <time>2014-06-02T13:09:55Z</time>
      </trkpt>
      <trkpt lat="43.39229" lon="2.48176">
        <ele>678.83</ele>
        <time>2014-06-02T13:09:56Z</time>
      </trkpt>
      <trkpt lat="43.39228" lon="2.48167">
        <ele>677.87</ele>
        <time>2014-06-02T13:10:04Z</time>
      </trkpt>
      <trkpt lat="43.39227" lon="2.48165">
        <ele>677.87</ele>
        <time>2014-06-02T13:10:05Z</time>
      </trkpt>
      <trkpt lat="43.39227" lon="2.48163">
        <ele>677.39</ele>
        <time>2014-06-02T13:10:06Z</time>
      </trkpt>
      <trkpt lat="43.39217" lon="2.48146">
        <ele>674.98</ele>
        <time>2014-06-02T13:10:19Z</time>
      </trkpt>
      <trkpt lat="43.39217" lon="2.48144">
        <ele>674.98</ele>
        <time>2014-06-02T13:10:21Z</time>
      </trkpt>
      <trkpt lat="43.39217" lon="2.48142">
        <ele>674.5</ele>
        <time>2014-06-02T13:10:22Z</time>
      </trkpt>
      <trkpt lat="43.39216" lon="2.48139">
        <ele>674.02</ele>
        <time>2014-06-02T13:10:23Z</time>
      </trkpt>
      <trkpt lat="43.39214" lon="2.48132">
        <ele>673.54</ele>
        <time>2014-06-02T13:10:27Z</time>
      </trkpt>
      <trkpt lat="43.39212" lon="2.48125">
        <ele>673.54</ele>
        <time>2014-06-02T13:10:32Z</time>
      </trkpt>
      <trkpt lat="43.39211" lon="2.48123">
        <ele>673.54</ele>
        <time>2014-06-02T13:10:33Z</time>
      </trkpt>
      <trkpt lat="43.3921" lon="2.48122">
        <ele>673.54</ele>
        <time>2014-06-02T13:10:34Z</time>
      </trkpt>
      <trkpt lat="43.3921" lon="2.4812">
        <ele>673.06</ele>
        <time>2014-06-02T13:10:35Z</time>
      </trkpt>
      <trkpt lat="43.39211" lon="2.48118">
        <ele>673.06</ele>
        <time>2014-06-02T13:10:36Z</time>
      </trkpt>
      <trkpt lat="43.39216" lon="2.48106">
        <ele>673.06</ele>
        <time>2014-06-02T13:10:44Z</time>
      </trkpt>
      <trkpt lat="43.39207" lon="2.48096">
        <ele>675.46</ele>
        <time>2014-06-02T13:10:53Z</time>
      </trkpt>
      <trkpt lat="43.39204" lon="2.48094">
        <ele>675.46</ele>
        <time>2014-06-02T13:10:56Z</time>
      </trkpt>
      <trkpt lat="43.39201" lon="2.48092">
        <ele>675.94</ele>
        <time>2014-06-02T13:11:00Z</time>
      </trkpt>
      <trkpt lat="43.3919" lon="2.48091">
        <ele>677.39</ele>
        <time>2014-06-02T13:11:11Z</time>
      </trkpt>
      <trkpt lat="43.39184" lon="2.48087">
        <ele>677.39</ele>
        <time>2014-06-02T13:11:17Z</time>
      </trkpt>
      <trkpt lat="43.39182" lon="2.48083">
        <ele>677.87</ele>
        <time>2014-06-02T13:11:20Z</time>
      </trkpt>
      <trkpt lat="43.39176" lon="2.4808">
        <ele>677.39</ele>
        <time>2014-06-02T13:11:25Z</time>
      </trkpt>
      <trkpt lat="43.39175" lon="2.48078">
        <ele>677.39</ele>
        <time>2014-06-02T13:11:28Z</time>
      </trkpt>
      <trkpt lat="43.39174" lon="2.48068">
        <ele>678.35</ele>
        <time>2014-06-02T13:11:36Z</time>
      </trkpt>
      <trkpt lat="43.39169" lon="2.48056">
        <ele>678.83</ele>
        <time>2014-06-02T13:11:47Z</time>
      </trkpt>
      <trkpt lat="43.39167" lon="2.48053">
        <ele>678.83</ele>
        <time>2014-06-02T13:12:19Z</time>
      </trkpt>
      <trkpt lat="43.39165" lon="2.4805">
        <ele>677.87</ele>
        <time>2014-06-02T13:12:31Z</time>
      </trkpt>
      <trkpt lat="43.39163" lon="2.4805">
        <ele>677.87</ele>
        <time>2014-06-02T13:12:34Z</time>
      </trkpt>
      <trkpt lat="43.39159" lon="2.48044">
        <ele>675.94</ele>
        <time>2014-06-02T13:12:41Z</time>
      </trkpt>
      <trkpt lat="43.39155" lon="2.48033">
        <ele>671.14</ele>
        <time>2014-06-02T13:12:53Z</time>
      </trkpt>
      <trkpt lat="43.39147" lon="2.48024">
        <ele>667.29</ele>
        <time>2014-06-02T13:13:06Z</time>
      </trkpt>
      <trkpt lat="43.39144" lon="2.48016">
        <ele>665.37</ele>
        <time>2014-06-02T13:13:11Z</time>
      </trkpt>
      <trkpt lat="43.39138" lon="2.48008">
        <ele>663.45</ele>
        <time>2014-06-02T13:13:17Z</time>
      </trkpt>
      <trkpt lat="43.39135" lon="2.48001">
        <ele>662.01</ele>
        <time>2014-06-02T13:13:21Z</time>
      </trkpt>
      <trkpt lat="43.39132" lon="2.47992">
        <ele>661.04</ele>
        <time>2014-06-02T13:13:26Z</time>
      </trkpt>
      <trkpt lat="43.39131" lon="2.4799">
        <ele>659.6</ele>
        <time>2014-06-02T13:13:33Z</time>
      </trkpt>
      <trkpt lat="43.39127" lon="2.47981">
        <ele>657.68</ele>
        <time>2014-06-02T13:13:44Z</time>
      </trkpt>
      <trkpt lat="43.39125" lon="2.47978">
        <ele>656.72</ele>
        <time>2014-06-02T13:13:52Z</time>
      </trkpt>
      <trkpt lat="43.39121" lon="2.47969">
        <ele>656.72</ele>
        <time>2014-06-02T13:14:00Z</time>
      </trkpt>
      <trkpt lat="43.39112" lon="2.47963">
        <ele>655.28</ele>
        <time>2014-06-02T13:14:11Z</time>
      </trkpt>
      <trkpt lat="43.3911" lon="2.47959">
        <ele>654.31</ele>
        <time>2014-06-02T13:14:16Z</time>
      </trkpt>
      <trkpt lat="43.3911" lon="2.47953">
        <ele>654.31</ele>
        <time>2014-06-02T13:14:19Z</time>
      </trkpt>
      <trkpt lat="43.39107" lon="2.4795">
        <ele>653.83</ele>
        <time>2014-06-02T13:14:23Z</time>
      </trkpt>
      <trkpt lat="43.39105" lon="2.47949">
        <ele>652.87</ele>
        <time>2014-06-02T13:14:25Z</time>
      </trkpt>
      <trkpt lat="43.39099" lon="2.47946">
        <ele>651.43</ele>
        <time>2014-06-02T13:14:32Z</time>
      </trkpt>
      <trkpt lat="43.39089" lon="2.47935">
        <ele>647.1</ele>
        <time>2014-06-02T13:14:45Z</time>
      </trkpt>
      <trkpt lat="43.39087" lon="2.4793">
        <ele>645.66</ele>
        <time>2014-06-02T13:14:58Z</time>
      </trkpt>
      <trkpt lat="43.39083" lon="2.4792">
        <ele>644.22</ele>
        <time>2014-06-02T13:15:06Z</time>
      </trkpt>
      <trkpt lat="43.39075" lon="2.47902">
        <ele>640.86</ele>
        <time>2014-06-02T13:15:20Z</time>
      </trkpt>
      <trkpt lat="43.3907" lon="2.47881">
        <ele>639.89</ele>
        <time>2014-06-02T13:15:32Z</time>
      </trkpt>
      <trkpt lat="43.3906" lon="2.47861">
        <ele>637.01</ele>
        <time>2014-06-02T13:15:46Z</time>
      </trkpt>
      <trkpt lat="43.39059" lon="2.47859">
        <ele>637.01</ele>
        <time>2014-06-02T13:15:47Z</time>
      </trkpt>
      <trkpt lat="43.39054" lon="2.47853">
        <ele>636.05</ele>
        <time>2014-06-02T13:15:52Z</time>
      </trkpt>
      <trkpt lat="43.39052" lon="2.47841">
        <ele>634.13</ele>
        <time>2014-06-02T13:16:00Z</time>
      </trkpt>
      <trkpt lat="43.3905" lon="2.4783">
        <ele>633.17</ele>
        <time>2014-06-02T13:16:09Z</time>
      </trkpt>
      <trkpt lat="43.39041" lon="2.47819">
        <ele>634.13</ele>
        <time>2014-06-02T13:16:20Z</time>
      </trkpt>
      <trkpt lat="43.39032" lon="2.47806">
        <ele>634.13</ele>
        <time>2014-06-02T13:16:30Z</time>
      </trkpt>
      <trkpt lat="43.3903" lon="2.47806">
        <ele>633.65</ele>
        <time>2014-06-02T13:16:31Z</time>
      </trkpt>
      <trkpt lat="43.39029" lon="2.47806">
        <ele>633.65</ele>
        <time>2014-06-02T13:16:32Z</time>
      </trkpt>
      <trkpt lat="43.39028" lon="2.47806">
        <ele>633.17</ele>
        <time>2014-06-02T13:16:33Z</time>
      </trkpt>
      <trkpt lat="43.39026" lon="2.47806">
        <ele>633.17</ele>
        <time>2014-06-02T13:16:34Z</time>
      </trkpt>
      <trkpt lat="43.39025" lon="2.47806">
        <ele>633.17</ele>
        <time>2014-06-02T13:16:35Z</time>
      </trkpt>
      <trkpt lat="43.39014" lon="2.47808">
        <ele>631.24</ele>
        <time>2014-06-02T13:16:46Z</time>
      </trkpt>
      <trkpt lat="43.39012" lon="2.47809">
        <ele>630.76</ele>
        <time>2014-06-02T13:16:47Z</time>
      </trkpt>
      <trkpt lat="43.38997" lon="2.47811">
        <ele>627.4</ele>
        <time>2014-06-02T13:17:00Z</time>
      </trkpt>
      <trkpt lat="43.38994" lon="2.47812">
        <ele>626.92</ele>
        <time>2014-06-02T13:17:03Z</time>
      </trkpt>
      <trkpt lat="43.38985" lon="2.4782">
        <ele>625.47</ele>
        <time>2014-06-02T13:17:16Z</time>
      </trkpt>
      <trkpt lat="43.38973" lon="2.47823">
        <ele>625.47</ele>
        <time>2014-06-02T13:17:27Z</time>
      </trkpt>
      <trkpt lat="43.3896" lon="2.47822">
        <ele>624.03</ele>
        <time>2014-06-02T13:17:39Z</time>
      </trkpt>
      <trkpt lat="43.38949" lon="2.47823">
        <ele>619.23</ele>
        <time>2014-06-02T13:17:51Z</time>
      </trkpt>
      <trkpt lat="43.38942" lon="2.47832">
        <ele>614.42</ele>
        <time>2014-06-02T13:18:03Z</time>
      </trkpt>
      <trkpt lat="43.38935" lon="2.47839">
        <ele>613.46</ele>
        <time>2014-06-02T13:18:14Z</time>
      </trkpt>
      <trkpt lat="43.38934" lon="2.47842">
        <ele>613.46</ele>
        <time>2014-06-02T13:18:17Z</time>
      </trkpt>
      <trkpt lat="43.38933" lon="2.47844">
        <ele>612.98</ele>
        <time>2014-06-02T13:18:20Z</time>
      </trkpt>
      <trkpt lat="43.38927" lon="2.47848">
        <ele>610.09</ele>
        <time>2014-06-02T13:18:32Z</time>
      </trkpt>
      <trkpt lat="43.3892" lon="2.47855">
        <ele>606.25</ele>
        <time>2014-06-02T13:18:46Z</time>
      </trkpt>
      <trkpt lat="43.3892" lon="2.47855">
        <ele>606.25</ele>
        <time>2014-06-02T13:18:47Z</time>
      </trkpt>
      <trkpt lat="43.38913" lon="2.47862">
        <ele>602.4</ele>
        <time>2014-06-02T13:19:00Z</time>
      </trkpt>
      <trkpt lat="43.38909" lon="2.47866">
        <ele>600</ele>
        <time>2014-06-02T13:19:12Z</time>
      </trkpt>
      <trkpt lat="43.38906" lon="2.47868">
        <ele>599.04</ele>
        <time>2014-06-02T13:19:15Z</time>
      </trkpt>
      <trkpt lat="43.38904" lon="2.47875">
        <ele>595.67</ele>
        <time>2014-06-02T13:19:23Z</time>
      </trkpt>
      <trkpt lat="43.389" lon="2.4788">
        <ele>595.19</ele>
        <time>2014-06-02T13:19:31Z</time>
      </trkpt>
      <trkpt lat="43.38893" lon="2.47887">
        <ele>594.23</ele>
        <time>2014-06-02T13:19:41Z</time>
      </trkpt>
      <trkpt lat="43.38886" lon="2.47893">
        <ele>593.27</ele>
        <time>2014-06-02T13:19:48Z</time>
      </trkpt>
      <trkpt lat="43.38881" lon="2.47898">
        <ele>590.87</ele>
        <time>2014-06-02T13:19:54Z</time>
      </trkpt>
      <trkpt lat="43.38869" lon="2.47902">
        <ele>587.5</ele>
        <time>2014-06-02T13:20:06Z</time>
      </trkpt>
      <trkpt lat="43.38865" lon="2.47907">
        <ele>583.66</ele>
        <time>2014-06-02T13:20:18Z</time>
      </trkpt>
      <trkpt lat="43.38854" lon="2.47922">
        <ele>581.25</ele>
        <time>2014-06-02T13:20:35Z</time>
      </trkpt>
      <trkpt lat="43.3885" lon="2.47932">
        <ele>580.29</ele>
        <time>2014-06-02T13:20:47Z</time>
      </trkpt>
      <trkpt lat="43.38844" lon="2.47938">
        <ele>577.41</ele>
        <time>2014-06-02T13:20:59Z</time>
      </trkpt>
      <trkpt lat="43.38843" lon="2.47945">
        <ele>577.89</ele>
        <time>2014-06-02T13:21:11Z</time>
      </trkpt>
      <trkpt lat="43.38843" lon="2.47948">
        <ele>577.41</ele>
        <time>2014-06-02T13:21:13Z</time>
      </trkpt>
      <trkpt lat="43.3885" lon="2.47965">
        <ele>577.41</ele>
        <time>2014-06-02T13:21:26Z</time>
      </trkpt>
      <trkpt lat="43.3885" lon="2.47966">
        <ele>577.41</ele>
        <time>2014-06-02T13:21:27Z</time>
      </trkpt>
      <trkpt lat="43.38851" lon="2.47972">
        <ele>576.93</ele>
        <time>2014-06-02T13:21:31Z</time>
      </trkpt>
      <trkpt lat="43.38851" lon="2.47982">
        <ele>576.45</ele>
        <time>2014-06-02T13:21:43Z</time>
      </trkpt>
      <trkpt lat="43.38851" lon="2.47983">
        <ele>577.89</ele>
        <time>2014-06-02T13:21:57Z</time>
      </trkpt>
      <trkpt lat="43.3885" lon="2.47991">
        <ele>577.89</ele>
        <time>2014-06-02T13:22:16Z</time>
      </trkpt>
      <trkpt lat="43.38852" lon="2.48009">
        <ele>576.93</ele>
        <time>2014-06-02T13:22:26Z</time>
      </trkpt>
      <trkpt lat="43.38854" lon="2.48015">
        <ele>575.97</ele>
        <time>2014-06-02T13:22:30Z</time>
      </trkpt>
      <trkpt lat="43.38856" lon="2.48029">
        <ele>575.49</ele>
        <time>2014-06-02T13:22:38Z</time>
      </trkpt>
      <trkpt lat="43.38856" lon="2.48038">
        <ele>573.56</ele>
        <time>2014-06-02T13:22:44Z</time>
      </trkpt>
      <trkpt lat="43.38854" lon="2.48049">
        <ele>572.12</ele>
        <time>2014-06-02T13:22:52Z</time>
      </trkpt>
      <trkpt lat="43.38851" lon="2.48053">
        <ele>571.64</ele>
        <time>2014-06-02T13:23:09Z</time>
      </trkpt>
      <trkpt lat="43.3885" lon="2.48059">
        <ele>570.68</ele>
        <time>2014-06-02T13:23:23Z</time>
      </trkpt>
      <trkpt lat="43.38846" lon="2.48063">
        <ele>569.24</ele>
        <time>2014-06-02T13:23:32Z</time>
      </trkpt>
      <trkpt lat="43.38845" lon="2.48071">
        <ele>569.72</ele>
        <time>2014-06-02T13:23:44Z</time>
      </trkpt>
      <trkpt lat="43.38844" lon="2.48074">
        <ele>572.12</ele>
        <time>2014-06-02T13:24:03Z</time>
      </trkpt>
      <trkpt lat="43.38846" lon="2.48065">
        <ele>569.72</ele>
        <time>2014-06-02T13:24:16Z</time>
      </trkpt>
      <trkpt lat="43.38846" lon="2.48064">
        <ele>566.35</ele>
        <time>2014-06-02T13:24:37Z</time>
      </trkpt>
      <trkpt lat="43.38847" lon="2.48066">
        <ele>562.99</ele>
        <time>2014-06-02T13:25:03Z</time>
      </trkpt>
      <trkpt lat="43.38846" lon="2.48063">
        <ele>563.47</ele>
        <time>2014-06-02T13:25:31Z</time>
      </trkpt>
      <trkpt lat="43.38845" lon="2.48061">
        <ele>563.95</ele>
        <time>2014-06-02T13:25:35Z</time>
      </trkpt>
      <trkpt lat="43.38841" lon="2.48061">
        <ele>567.32</ele>
        <time>2014-06-02T13:25:49Z</time>
      </trkpt>
      <trkpt lat="43.3884" lon="2.48058">
        <ele>566.83</ele>
        <time>2014-06-02T13:26:02Z</time>
      </trkpt>
      <trkpt lat="43.3884" lon="2.4806">
        <ele>565.87</ele>
        <time>2014-06-02T13:26:22Z</time>
      </trkpt>
      <trkpt lat="43.3884" lon="2.48061">
        <ele>568.76</ele>
        <time>2014-06-02T13:26:44Z</time>
      </trkpt>
      <trkpt lat="43.38842" lon="2.48065">
        <ele>572.12</ele>
        <time>2014-06-02T13:27:13Z</time>
      </trkpt>
      <trkpt lat="43.38838" lon="2.48055">
        <ele>565.87</ele>
        <time>2014-06-02T13:27:42Z</time>
      </trkpt>
      <trkpt lat="43.38841" lon="2.48061">
        <ele>570.2</ele>
        <time>2014-06-02T13:28:00Z</time>
      </trkpt>
      <trkpt lat="43.3884" lon="2.48057">
        <ele>568.76</ele>
        <time>2014-06-02T13:28:12Z</time>
      </trkpt>
      <trkpt lat="43.3884" lon="2.48058">
        <ele>567.32</ele>
        <time>2014-06-02T13:28:30Z</time>
      </trkpt>
      <trkpt lat="43.3884" lon="2.48058">
        <ele>566.83</ele>
        <time>2014-06-02T13:28:49Z</time>
      </trkpt>
      <trkpt lat="43.38838" lon="2.48057">
        <ele>565.39</ele>
        <time>2014-06-02T13:29:16Z</time>
      </trkpt>
      <trkpt lat="43.3884" lon="2.4806">
        <ele>567.32</ele>
        <time>2014-06-02T13:29:42Z</time>
      </trkpt>
      <trkpt lat="43.3884" lon="2.4806">
        <ele>566.83</ele>
        <time>2014-06-02T13:29:54Z</time>
      </trkpt>
      <trkpt lat="43.3884" lon="2.48057">
        <ele>566.35</ele>
        <time>2014-06-02T13:30:03Z</time>
      </trkpt>
      <trkpt lat="43.38838" lon="2.48053">
        <ele>566.35</ele>
        <time>2014-06-02T13:30:07Z</time>
      </trkpt>
      <trkpt lat="43.38837" lon="2.48035">
        <ele>565.87</ele>
        <time>2014-06-02T13:30:19Z</time>
      </trkpt>
      <trkpt lat="43.38835" lon="2.48025">
        <ele>566.83</ele>
        <time>2014-06-02T13:30:28Z</time>
      </trkpt>
      <trkpt lat="43.38825" lon="2.4801">
        <ele>565.39</ele>
        <time>2014-06-02T13:30:42Z</time>
      </trkpt>
      <trkpt lat="43.38821" lon="2.47995">
        <ele>564.91</ele>
        <time>2014-06-02T13:30:52Z</time>
      </trkpt>
      <trkpt lat="43.38819" lon="2.47978">
        <ele>565.87</ele>
        <time>2014-06-02T13:31:03Z</time>
      </trkpt>
      <trkpt lat="43.38815" lon="2.47966">
        <ele>566.83</ele>
        <time>2014-06-02T13:31:13Z</time>
      </trkpt>
      <trkpt lat="43.38804" lon="2.47949">
        <ele>566.35</ele>
        <time>2014-06-02T13:31:27Z</time>
      </trkpt>
      <trkpt lat="43.38792" lon="2.4793">
        <ele>567.32</ele>
        <time>2014-06-02T13:31:42Z</time>
      </trkpt>
      <trkpt lat="43.38788" lon="2.47922">
        <ele>567.32</ele>
        <time>2014-06-02T13:31:47Z</time>
      </trkpt>
      <trkpt lat="43.38779" lon="2.47909">
        <ele>565.39</ele>
        <time>2014-06-02T13:31:58Z</time>
      </trkpt>
      <trkpt lat="43.38767" lon="2.47894">
        <ele>561.55</ele>
        <time>2014-06-02T13:32:10Z</time>
      </trkpt>
      <trkpt lat="43.38755" lon="2.47882">
        <ele>559.62</ele>
        <time>2014-06-02T13:32:22Z</time>
      </trkpt>
      <trkpt lat="43.38754" lon="2.4788">
        <ele>559.14</ele>
        <time>2014-06-02T13:32:23Z</time>
      </trkpt>
      <trkpt lat="43.38747" lon="2.47875">
        <ele>558.18</ele>
        <time>2014-06-02T13:32:27Z</time>
      </trkpt>
      <trkpt lat="43.3873" lon="2.47869">
        <ele>557.22</ele>
        <time>2014-06-02T13:32:41Z</time>
      </trkpt>
      <trkpt lat="43.3871" lon="2.47862">
        <ele>554.82</ele>
        <time>2014-06-02T13:32:58Z</time>
      </trkpt>
      <trkpt lat="43.38693" lon="2.47858">
        <ele>553.38</ele>
        <time>2014-06-02T13:33:12Z</time>
      </trkpt>
      <trkpt lat="43.38676" lon="2.47851">
        <ele>553.38</ele>
        <time>2014-06-02T13:33:26Z</time>
      </trkpt>
      <trkpt lat="43.38656" lon="2.47847">
        <ele>553.38</ele>
        <time>2014-06-02T13:33:41Z</time>
      </trkpt>
      <trkpt lat="43.3864" lon="2.47844">
        <ele>554.82</ele>
        <time>2014-06-02T13:33:54Z</time>
      </trkpt>
      <trkpt lat="43.38621" lon="2.47839">
        <ele>553.38</ele>
        <time>2014-06-02T13:34:09Z</time>
      </trkpt>
      <trkpt lat="43.38599" lon="2.47831">
        <ele>554.34</ele>
        <time>2014-06-02T13:34:25Z</time>
      </trkpt>
      <trkpt lat="43.38577" lon="2.47826">
        <ele>551.45</ele>
        <time>2014-06-02T13:34:39Z</time>
      </trkpt>
      <trkpt lat="43.38562" lon="2.47815">
        <ele>544.24</ele>
        <time>2014-06-02T13:34:53Z</time>
      </trkpt>
      <trkpt lat="43.38552" lon="2.47806">
        <ele>540.88</ele>
        <time>2014-06-02T13:35:04Z</time>
      </trkpt>
      <trkpt lat="43.38532" lon="2.47793">
        <ele>537.99</ele>
        <time>2014-06-02T13:35:20Z</time>
      </trkpt>
      <trkpt lat="43.38512" lon="2.4778">
        <ele>535.11</ele>
        <time>2014-06-02T13:35:36Z</time>
      </trkpt>
      <trkpt lat="43.38491" lon="2.47783">
        <ele>537.03</ele>
        <time>2014-06-02T13:35:51Z</time>
      </trkpt>
      <trkpt lat="43.38469" lon="2.47782">
        <ele>536.07</ele>
        <time>2014-06-02T13:36:06Z</time>
      </trkpt>
      <trkpt lat="43.38451" lon="2.47767">
        <ele>532.23</ele>
        <time>2014-06-02T13:36:20Z</time>
      </trkpt>
      <trkpt lat="43.38448" lon="2.4776">
        <ele>530.79</ele>
        <time>2014-06-02T13:36:26Z</time>
      </trkpt>
      <trkpt lat="43.38441" lon="2.4774">
        <ele>527.9</ele>
        <time>2014-06-02T13:36:39Z</time>
      </trkpt>
      <trkpt lat="43.38437" lon="2.47722">
        <ele>529.82</ele>
        <time>2014-06-02T13:36:51Z</time>
      </trkpt>
      <trkpt lat="43.3844" lon="2.47721">
        <ele>528.38</ele>
        <time>2014-06-02T13:37:14Z</time>
      </trkpt>
      <trkpt lat="43.38441" lon="2.47719">
        <ele>527.9</ele>
        <time>2014-06-02T13:37:49Z</time>
      </trkpt>
      <trkpt lat="43.38437" lon="2.47712">
        <ele>532.23</ele>
        <time>2014-06-02T13:38:02Z</time>
      </trkpt>
      <trkpt lat="43.38437" lon="2.4771">
        <ele>532.71</ele>
        <time>2014-06-02T13:38:03Z</time>
      </trkpt>
      <trkpt lat="43.38434" lon="2.47691">
        <ele>535.59</ele>
        <time>2014-06-02T13:38:16Z</time>
      </trkpt>
      <trkpt lat="43.38431" lon="2.47666">
        <ele>534.63</ele>
        <time>2014-06-02T13:38:30Z</time>
      </trkpt>
      <trkpt lat="43.3843" lon="2.47641">
        <ele>531.27</ele>
        <time>2014-06-02T13:38:44Z</time>
      </trkpt>
      <trkpt lat="43.3843" lon="2.47617">
        <ele>532.71</ele>
        <time>2014-06-02T13:38:57Z</time>
      </trkpt>
      <trkpt lat="43.38429" lon="2.47608">
        <ele>533.19</ele>
        <time>2014-06-02T13:39:01Z</time>
      </trkpt>
      <trkpt lat="43.38429" lon="2.47606">
        <ele>533.19</ele>
        <time>2014-06-02T13:39:02Z</time>
      </trkpt>
      <trkpt lat="43.38429" lon="2.47604">
        <ele>532.71</ele>
        <time>2014-06-02T13:39:03Z</time>
      </trkpt>
      <trkpt lat="43.38429" lon="2.47601">
        <ele>532.23</ele>
        <time>2014-06-02T13:39:04Z</time>
      </trkpt>
      <trkpt lat="43.38429" lon="2.47599">
        <ele>531.75</ele>
        <time>2014-06-02T13:39:05Z</time>
      </trkpt>
      <trkpt lat="43.38429" lon="2.47597">
        <ele>531.75</ele>
        <time>2014-06-02T13:39:06Z</time>
      </trkpt>
      <trkpt lat="43.38429" lon="2.47595">
        <ele>531.75</ele>
        <time>2014-06-02T13:39:07Z</time>
      </trkpt>
      <trkpt lat="43.38428" lon="2.4757">
        <ele>529.82</ele>
        <time>2014-06-02T13:39:20Z</time>
      </trkpt>
      <trkpt lat="43.38432" lon="2.4755">
        <ele>527.9</ele>
        <time>2014-06-02T13:39:33Z</time>
      </trkpt>
      <trkpt lat="43.38431" lon="2.47547">
        <ele>528.38</ele>
        <time>2014-06-02T13:39:37Z</time>
      </trkpt>
      <trkpt lat="43.38433" lon="2.47538">
        <ele>528.38</ele>
        <time>2014-06-02T13:39:44Z</time>
      </trkpt>
      <trkpt lat="43.38433" lon="2.47533">
        <ele>528.38</ele>
        <time>2014-06-02T13:39:47Z</time>
      </trkpt>
      <trkpt lat="43.38433" lon="2.47531">
        <ele>527.9</ele>
        <time>2014-06-02T13:39:48Z</time>
      </trkpt>
      <trkpt lat="43.38434" lon="2.47528">
        <ele>527.9</ele>
        <time>2014-06-02T13:39:49Z</time>
      </trkpt>
      <trkpt lat="43.38434" lon="2.47526">
        <ele>527.9</ele>
        <time>2014-06-02T13:39:50Z</time>
      </trkpt>
      <trkpt lat="43.38434" lon="2.47524">
        <ele>527.9</ele>
        <time>2014-06-02T13:39:51Z</time>
      </trkpt>
      <trkpt lat="43.38434" lon="2.47506">
        <ele>525.02</ele>
        <time>2014-06-02T13:40:03Z</time>
      </trkpt>
      <trkpt lat="43.38434" lon="2.47504">
        <ele>524.54</ele>
        <time>2014-06-02T13:40:04Z</time>
      </trkpt>
      <trkpt lat="43.38433" lon="2.47502">
        <ele>524.54</ele>
        <time>2014-06-02T13:40:05Z</time>
      </trkpt>
      <trkpt lat="43.38434" lon="2.47476">
        <ele>520.69</ele>
        <time>2014-06-02T13:40:20Z</time>
      </trkpt>
      <trkpt lat="43.38433" lon="2.47465">
        <ele>519.25</ele>
        <time>2014-06-02T13:40:27Z</time>
      </trkpt>
      <trkpt lat="43.38432" lon="2.47463">
        <ele>519.25</ele>
        <time>2014-06-02T13:40:28Z</time>
      </trkpt>
      <trkpt lat="43.38431" lon="2.47442">
        <ele>516.37</ele>
        <time>2014-06-02T13:40:41Z</time>
      </trkpt>
      <trkpt lat="43.3843" lon="2.47437">
        <ele>515.88</ele>
        <time>2014-06-02T13:40:44Z</time>
      </trkpt>
      <trkpt lat="43.3843" lon="2.47435">
        <ele>515.88</ele>
        <time>2014-06-02T13:40:45Z</time>
      </trkpt>
      <trkpt lat="43.38425" lon="2.47409">
        <ele>513.48</ele>
        <time>2014-06-02T13:41:00Z</time>
      </trkpt>
      <trkpt lat="43.38422" lon="2.47408">
        <ele>513.48</ele>
        <time>2014-06-02T13:41:02Z</time>
      </trkpt>
      <trkpt lat="43.38421" lon="2.47408">
        <ele>513.48</ele>
        <time>2014-06-02T13:41:03Z</time>
      </trkpt>
      <trkpt lat="43.3842" lon="2.47408">
        <ele>513.48</ele>
        <time>2014-06-02T13:41:04Z</time>
      </trkpt>
      <trkpt lat="43.38419" lon="2.47409">
        <ele>513.96</ele>
        <time>2014-06-02T13:41:05Z</time>
      </trkpt>
      <trkpt lat="43.38418" lon="2.4741">
        <ele>513.96</ele>
        <time>2014-06-02T13:41:06Z</time>
      </trkpt>
      <trkpt lat="43.38417" lon="2.47412">
        <ele>513.96</ele>
        <time>2014-06-02T13:41:07Z</time>
      </trkpt>
      <trkpt lat="43.38417" lon="2.47414">
        <ele>514.44</ele>
        <time>2014-06-02T13:41:08Z</time>
      </trkpt>
      <trkpt lat="43.38417" lon="2.47419">
        <ele>515.4</ele>
        <time>2014-06-02T13:41:12Z</time>
      </trkpt>
      <trkpt lat="43.38417" lon="2.4742">
        <ele>515.88</ele>
        <time>2014-06-02T13:41:13Z</time>
      </trkpt>
      <trkpt lat="43.38418" lon="2.47422">
        <ele>516.37</ele>
        <time>2014-06-02T13:41:14Z</time>
      </trkpt>
      <trkpt lat="43.38418" lon="2.47424">
        <ele>516.37</ele>
        <time>2014-06-02T13:41:15Z</time>
      </trkpt>
      <trkpt lat="43.38418" lon="2.47426">
        <ele>516.85</ele>
        <time>2014-06-02T13:41:16Z</time>
      </trkpt>
      <trkpt lat="43.38418" lon="2.47436">
        <ele>517.81</ele>
        <time>2014-06-02T13:41:23Z</time>
      </trkpt>
      <trkpt lat="43.38418" lon="2.47438">
        <ele>517.81</ele>
        <time>2014-06-02T13:41:24Z</time>
      </trkpt>
      <trkpt lat="43.38418" lon="2.47439">
        <ele>517.33</ele>
        <time>2014-06-02T13:41:25Z</time>
      </trkpt>
      <trkpt lat="43.38418" lon="2.47458">
        <ele>514.44</ele>
        <time>2014-06-02T13:41:37Z</time>
      </trkpt>
      <trkpt lat="43.38417" lon="2.47465">
        <ele>513</ele>
        <time>2014-06-02T13:41:42Z</time>
      </trkpt>
      <trkpt lat="43.38415" lon="2.47468">
        <ele>513</ele>
        <time>2014-06-02T13:41:44Z</time>
      </trkpt>
      <trkpt lat="43.38415" lon="2.4747">
        <ele>513</ele>
        <time>2014-06-02T13:41:45Z</time>
      </trkpt>
      <trkpt lat="43.38415" lon="2.47472">
        <ele>513</ele>
        <time>2014-06-02T13:41:46Z</time>
      </trkpt>
      <trkpt lat="43.38414" lon="2.47474">
        <ele>513</ele>
        <time>2014-06-02T13:41:47Z</time>
      </trkpt>
      <trkpt lat="43.38414" lon="2.47476">
        <ele>513</ele>
        <time>2014-06-02T13:41:48Z</time>
      </trkpt>
      <trkpt lat="43.38414" lon="2.47478">
        <ele>513</ele>
        <time>2014-06-02T13:41:49Z</time>
      </trkpt>
      <trkpt lat="43.38413" lon="2.47484">
        <ele>512.04</ele>
        <time>2014-06-02T13:41:54Z</time>
      </trkpt>
      <trkpt lat="43.38412" lon="2.47486">
        <ele>512.04</ele>
        <time>2014-06-02T13:41:55Z</time>
      </trkpt>
      <trkpt lat="43.38412" lon="2.47488">
        <ele>512.04</ele>
        <time>2014-06-02T13:41:56Z</time>
      </trkpt>
      <trkpt lat="43.38411" lon="2.4749">
        <ele>512.04</ele>
        <time>2014-06-02T13:41:57Z</time>
      </trkpt>
      <trkpt lat="43.38408" lon="2.47506">
        <ele>513.96</ele>
        <time>2014-06-02T13:42:07Z</time>
      </trkpt>
      <trkpt lat="43.38407" lon="2.47509">
        <ele>514.44</ele>
        <time>2014-06-02T13:42:09Z</time>
      </trkpt>
      <trkpt lat="43.38406" lon="2.47511">
        <ele>514.44</ele>
        <time>2014-06-02T13:42:10Z</time>
      </trkpt>
      <trkpt lat="43.38406" lon="2.47513">
        <ele>514.92</ele>
        <time>2014-06-02T13:42:11Z</time>
      </trkpt>
      <trkpt lat="43.384" lon="2.47531">
        <ele>513</ele>
        <time>2014-06-02T13:42:23Z</time>
      </trkpt>
      <trkpt lat="43.38396" lon="2.47551">
        <ele>514.92</ele>
        <time>2014-06-02T13:42:35Z</time>
      </trkpt>
      <trkpt lat="43.38387" lon="2.47571">
        <ele>517.81</ele>
        <time>2014-06-02T13:42:47Z</time>
      </trkpt>
      <trkpt lat="43.38381" lon="2.47592">
        <ele>518.77</ele>
        <time>2014-06-02T13:43:00Z</time>
      </trkpt>
      <trkpt lat="43.38379" lon="2.47599">
        <ele>518.77</ele>
        <time>2014-06-02T13:43:03Z</time>
      </trkpt>
      <trkpt lat="43.38375" lon="2.47617">
        <ele>516.37</ele>
        <time>2014-06-02T13:43:13Z</time>
      </trkpt>
      <trkpt lat="43.38375" lon="2.47619">
        <ele>515.88</ele>
        <time>2014-06-02T13:43:14Z</time>
      </trkpt>
      <trkpt lat="43.38375" lon="2.47622">
        <ele>515.4</ele>
        <time>2014-06-02T13:43:15Z</time>
      </trkpt>
      <trkpt lat="43.38373" lon="2.47637">
        <ele>511.56</ele>
        <time>2014-06-02T13:43:24Z</time>
      </trkpt>
      <trkpt lat="43.38373" lon="2.47639">
        <ele>511.08</ele>
        <time>2014-06-02T13:43:25Z</time>
      </trkpt>
      <trkpt lat="43.38372" lon="2.47641">
        <ele>510.6</ele>
        <time>2014-06-02T13:43:26Z</time>
      </trkpt>
      <trkpt lat="43.38371" lon="2.47664">
        <ele>505.79</ele>
        <time>2014-06-02T13:43:39Z</time>
      </trkpt>
      <trkpt lat="43.38371" lon="2.47666">
        <ele>505.79</ele>
        <time>2014-06-02T13:43:40Z</time>
      </trkpt>
      <trkpt lat="43.38372" lon="2.4769">
        <ele>505.79</ele>
        <time>2014-06-02T13:43:53Z</time>
      </trkpt>
      <trkpt lat="43.38373" lon="2.47712">
        <ele>505.31</ele>
        <time>2014-06-02T13:44:05Z</time>
      </trkpt>
      <trkpt lat="43.38373" lon="2.47714">
        <ele>505.31</ele>
        <time>2014-06-02T13:44:06Z</time>
      </trkpt>
      <trkpt lat="43.38373" lon="2.4774">
        <ele>504.83</ele>
        <time>2014-06-02T13:44:22Z</time>
      </trkpt>
      <trkpt lat="43.38373" lon="2.47767">
        <ele>503.87</ele>
        <time>2014-06-02T13:44:38Z</time>
      </trkpt>
      <trkpt lat="43.38374" lon="2.4778">
        <ele>500.5</ele>
        <time>2014-06-02T13:44:46Z</time>
      </trkpt>
      <trkpt lat="43.38374" lon="2.47782">
        <ele>500.02</ele>
        <time>2014-06-02T13:44:47Z</time>
      </trkpt>
      <trkpt lat="43.38374" lon="2.47784">
        <ele>500.02</ele>
        <time>2014-06-02T13:44:48Z</time>
      </trkpt>
      <trkpt lat="43.38374" lon="2.47786">
        <ele>499.54</ele>
        <time>2014-06-02T13:44:49Z</time>
      </trkpt>
      <trkpt lat="43.38374" lon="2.47788">
        <ele>499.54</ele>
        <time>2014-06-02T13:44:50Z</time>
      </trkpt>
      <trkpt lat="43.38375" lon="2.4779">
        <ele>499.06</ele>
        <time>2014-06-02T13:44:51Z</time>
      </trkpt>
      <trkpt lat="43.38374" lon="2.47799">
        <ele>500.02</ele>
        <time>2014-06-02T13:44:56Z</time>
      </trkpt>
      <trkpt lat="43.38374" lon="2.47802">
        <ele>499.54</ele>
        <time>2014-06-02T13:44:58Z</time>
      </trkpt>
      <trkpt lat="43.38375" lon="2.47804">
        <ele>499.06</ele>
        <time>2014-06-02T13:44:59Z</time>
      </trkpt>
      <trkpt lat="43.38375" lon="2.47806">
        <ele>498.58</ele>
        <time>2014-06-02T13:45:00Z</time>
      </trkpt>
      <trkpt lat="43.38375" lon="2.47808">
        <ele>498.58</ele>
        <time>2014-06-02T13:45:01Z</time>
      </trkpt>
      <trkpt lat="43.38376" lon="2.47839">
        <ele>499.54</ele>
        <time>2014-06-02T13:45:18Z</time>
      </trkpt>
      <trkpt lat="43.38377" lon="2.4785">
        <ele>499.54</ele>
        <time>2014-06-02T13:45:25Z</time>
      </trkpt>
      <trkpt lat="43.38379" lon="2.47857">
        <ele>499.54</ele>
        <time>2014-06-02T13:45:30Z</time>
      </trkpt>
      <trkpt lat="43.38379" lon="2.4786">
        <ele>499.54</ele>
        <time>2014-06-02T13:45:31Z</time>
      </trkpt>
      <trkpt lat="43.3838" lon="2.47863">
        <ele>499.06</ele>
        <time>2014-06-02T13:45:32Z</time>
      </trkpt>
      <trkpt lat="43.3838" lon="2.47866">
        <ele>499.06</ele>
        <time>2014-06-02T13:45:33Z</time>
      </trkpt>
      <trkpt lat="43.3838" lon="2.47868">
        <ele>499.06</ele>
        <time>2014-06-02T13:45:34Z</time>
      </trkpt>
      <trkpt lat="43.38387" lon="2.47887">
        <ele>494.26</ele>
        <time>2014-06-02T13:45:45Z</time>
      </trkpt>
      <trkpt lat="43.38398" lon="2.47907">
        <ele>489.45</ele>
        <time>2014-06-02T13:45:59Z</time>
      </trkpt>
      <trkpt lat="43.38413" lon="2.47915">
        <ele>485.6</ele>
        <time>2014-06-02T13:46:12Z</time>
      </trkpt>
      <trkpt lat="43.38431" lon="2.47923">
        <ele>484.16</ele>
        <time>2014-06-02T13:46:26Z</time>
      </trkpt>
      <trkpt lat="43.38448" lon="2.47936">
        <ele>482.72</ele>
        <time>2014-06-02T13:46:41Z</time>
      </trkpt>
      <trkpt lat="43.38461" lon="2.47947">
        <ele>486.08</ele>
        <time>2014-06-02T13:46:53Z</time>
      </trkpt>
      <trkpt lat="43.38476" lon="2.47964">
        <ele>487.05</ele>
        <time>2014-06-02T13:47:06Z</time>
      </trkpt>
      <trkpt lat="43.38484" lon="2.47975">
        <ele>491.37</ele>
        <time>2014-06-02T13:47:17Z</time>
      </trkpt>
      <trkpt lat="43.38485" lon="2.47976">
        <ele>491.85</ele>
        <time>2014-06-02T13:47:18Z</time>
      </trkpt>
      <trkpt lat="43.38488" lon="2.4798">
        <ele>492.81</ele>
        <time>2014-06-02T13:47:21Z</time>
      </trkpt>
      <trkpt lat="43.38497" lon="2.47994">
        <ele>493.29</ele>
        <time>2014-06-02T13:47:33Z</time>
      </trkpt>
      <trkpt lat="43.38511" lon="2.48013">
        <ele>491.85</ele>
        <time>2014-06-02T13:47:47Z</time>
      </trkpt>
      <trkpt lat="43.38527" lon="2.4803">
        <ele>489.45</ele>
        <time>2014-06-02T13:48:00Z</time>
      </trkpt>
      <trkpt lat="43.3854" lon="2.48046">
        <ele>487.53</ele>
        <time>2014-06-02T13:48:12Z</time>
      </trkpt>
      <trkpt lat="43.38551" lon="2.48059">
        <ele>488.01</ele>
        <time>2014-06-02T13:48:24Z</time>
      </trkpt>
      <trkpt lat="43.38561" lon="2.4806">
        <ele>488.01</ele>
        <time>2014-06-02T13:48:34Z</time>
      </trkpt>
      <trkpt lat="43.38577" lon="2.48061">
        <ele>486.08</ele>
        <time>2014-06-02T13:48:47Z</time>
      </trkpt>
      <trkpt lat="43.3858" lon="2.48072">
        <ele>487.05</ele>
        <time>2014-06-02T13:48:56Z</time>
      </trkpt>
      <trkpt lat="43.38578" lon="2.48092">
        <ele>484.16</ele>
        <time>2014-06-02T13:49:07Z</time>
      </trkpt>
      <trkpt lat="43.38578" lon="2.48094">
        <ele>484.16</ele>
        <time>2014-06-02T13:49:08Z</time>
      </trkpt>
      <trkpt lat="43.38581" lon="2.48103">
        <ele>482.72</ele>
        <time>2014-06-02T13:49:13Z</time>
      </trkpt>
      <trkpt lat="43.38582" lon="2.48115">
        <ele>481.28</ele>
        <time>2014-06-02T13:49:21Z</time>
      </trkpt>
      <trkpt lat="43.38585" lon="2.48137">
        <ele>476.47</ele>
        <time>2014-06-02T13:49:32Z</time>
      </trkpt>
      <trkpt lat="43.38587" lon="2.48163">
        <ele>470.7</ele>
        <time>2014-06-02T13:49:45Z</time>
      </trkpt>
      <trkpt lat="43.38588" lon="2.48165">
        <ele>470.7</ele>
        <time>2014-06-02T13:49:46Z</time>
      </trkpt>
      <trkpt lat="43.38588" lon="2.48167">
        <ele>470.7</ele>
        <time>2014-06-02T13:49:47Z</time>
      </trkpt>
      <trkpt lat="43.38589" lon="2.48169">
        <ele>470.7</ele>
        <time>2014-06-02T13:49:48Z</time>
      </trkpt>
      <trkpt lat="43.38591" lon="2.48191">
        <ele>469.26</ele>
        <time>2014-06-02T13:49:59Z</time>
      </trkpt>
      <trkpt lat="43.38592" lon="2.48203">
        <ele>467.82</ele>
        <time>2014-06-02T13:50:08Z</time>
      </trkpt>
      <trkpt lat="43.38601" lon="2.48222">
        <ele>465.9</ele>
        <time>2014-06-02T13:50:20Z</time>
      </trkpt>
      <trkpt lat="43.38612" lon="2.48232">
        <ele>464.45</ele>
        <time>2014-06-02T13:50:31Z</time>
      </trkpt>
      <trkpt lat="43.38615" lon="2.48239">
        <ele>464.45</ele>
        <time>2014-06-02T13:50:35Z</time>
      </trkpt>
      <trkpt lat="43.38614" lon="2.48243">
        <ele>464.45</ele>
        <time>2014-06-02T13:50:37Z</time>
      </trkpt>
      <trkpt lat="43.38614" lon="2.48244">
        <ele>464.45</ele>
        <time>2014-06-02T13:50:38Z</time>
      </trkpt>
      <trkpt lat="43.38613" lon="2.48245">
        <ele>464.45</ele>
        <time>2014-06-02T13:50:39Z</time>
      </trkpt>
      <trkpt lat="43.38611" lon="2.48246">
        <ele>464.45</ele>
        <time>2014-06-02T13:50:40Z</time>
      </trkpt>
      <trkpt lat="43.3861" lon="2.48247">
        <ele>464.45</ele>
        <time>2014-06-02T13:50:41Z</time>
      </trkpt>
      <trkpt lat="43.38603" lon="2.48264">
        <ele>463.49</ele>
        <time>2014-06-02T13:50:54Z</time>
      </trkpt>
      <trkpt lat="43.38604" lon="2.48269">
        <ele>462.53</ele>
        <time>2014-06-02T13:50:57Z</time>
      </trkpt>
      <trkpt lat="43.38612" lon="2.48286">
        <ele>460.13</ele>
        <time>2014-06-02T13:51:10Z</time>
      </trkpt>
      <trkpt lat="43.38614" lon="2.48289">
        <ele>459.65</ele>
        <time>2014-06-02T13:51:12Z</time>
      </trkpt>
      <trkpt lat="43.38615" lon="2.4829">
        <ele>459.17</ele>
        <time>2014-06-02T13:51:13Z</time>
      </trkpt>
      <trkpt lat="43.38619" lon="2.4831">
        <ele>460.61</ele>
        <time>2014-06-02T13:51:23Z</time>
      </trkpt>
      <trkpt lat="43.38621" lon="2.4832">
        <ele>460.13</ele>
        <time>2014-06-02T13:51:28Z</time>
      </trkpt>
      <trkpt lat="43.38622" lon="2.48322">
        <ele>460.13</ele>
        <time>2014-06-02T13:51:29Z</time>
      </trkpt>
      <trkpt lat="43.38622" lon="2.48324">
        <ele>460.13</ele>
        <time>2014-06-02T13:51:30Z</time>
      </trkpt>
      <trkpt lat="43.38621" lon="2.48346">
        <ele>462.05</ele>
        <time>2014-06-02T13:51:42Z</time>
      </trkpt>
      <trkpt lat="43.3862" lon="2.48361">
        <ele>465.42</ele>
        <time>2014-06-02T13:51:54Z</time>
      </trkpt>
      <trkpt lat="43.38619" lon="2.48365">
        <ele>465.42</ele>
        <time>2014-06-02T13:51:59Z</time>
      </trkpt>
      <trkpt lat="43.38619" lon="2.48368">
        <ele>465.42</ele>
        <time>2014-06-02T13:52:01Z</time>
      </trkpt>
      <trkpt lat="43.38618" lon="2.4837">
        <ele>464.93</ele>
        <time>2014-06-02T13:52:02Z</time>
      </trkpt>
      <trkpt lat="43.38614" lon="2.48382">
        <ele>465.9</ele>
        <time>2014-06-02T13:52:15Z</time>
      </trkpt>
    </trkseg>
  </trk>
</gpx>